PWSweather.com
Personal Weather Stations
Station Observations
DAVIS2016
WorthingGB

WorthingGB

Lat: 50.8130266, Lon: -0.3832443000000012

Elevation: 34.8

Station Type: davis vantage vue 6250

High Low Average
Temperature 42.5°F5.8°C 38.3°F3.5°C 40.9°F4.9°C
Dew Point 40.1°F4.5°C 33.7°F0.9°C 37.0°F2.8°C
Winds 19.0 mph 30.6 kmh 1.0 mph 1.6 kmh 10.0 mph SW16.1 kmh SW
Wind Gusts 36.0 mph57.9 kmh 4.0 mph6.4 kmh 21.0 mph33.8 kmh
Humidity 93% 78% 86%
Pressure 29.82 in1009.8 mb 29.43 in996.6 mb -
Precipitation 0.01 in0.3 mm - -
Hour Temp Dew Point Humidity Winds Wind Gusts Pressure Precip Precip Rate Daily Precip Total
12:00 AM 42.1°F5.6°C 37.3°F2.9°C 83% 11.0 mph SW17.7 kmh SW 23.0 mph37.0 kmh 29.82 in1009.8 mb 0.02 in0.5 mm 0.00 in0.0 mm 0.02 in0.5 mm
12:01 AM 42.1°F5.6°C 37.3°F2.9°C 83% 11.0 mph SW17.7 kmh SW 23.0 mph37.0 kmh 29.82 in1009.8 mb 0.01 in0.3 mm 0.00 in0.0 mm 0.02 in0.5 mm
12:02 AM 42.2°F5.7°C 37.4°F3.0°C 83% 11.0 mph SW17.7 kmh SW 23.0 mph37.0 kmh 29.82 in1009.8 mb 0.01 in0.3 mm 0.00 in0.0 mm 0.02 in0.5 mm
12:03 AM 42.2°F5.7°C 37.4°F3.0°C 83% 12.0 mph SW19.3 kmh SW 23.0 mph37.0 kmh 29.81 in1009.5 mb 0.01 in0.3 mm 0.00 in0.0 mm 0.02 in0.5 mm
12:04 AM 42.2°F5.7°C 37.1°F2.8°C 82% 12.0 mph SW19.3 kmh SW 23.0 mph37.0 kmh 29.81 in1009.5 mb 0.00 in0.0 mm 0.00 in0.0 mm 0.02 in0.5 mm
12:05 AM 42.2°F5.7°C 37.1°F2.8°C 82% 12.0 mph SW19.3 kmh SW 22.0 mph35.4 kmh 29.82 in1009.8 mb 0.00 in0.0 mm 0.00 in0.0 mm 0.02 in0.5 mm
12:06 AM 42.3°F5.7°C 37.2°F2.9°C 82% 13.0 mph SW20.9 kmh SW 22.0 mph35.4 kmh 29.82 in1009.8 mb 0.00 in0.0 mm 0.00 in0.0 mm 0.02 in0.5 mm
12:08 AM 42.3°F5.7°C 37.2°F2.9°C 82% 12.0 mph SW19.3 kmh SW 22.0 mph35.4 kmh 29.81 in1009.5 mb 0.00 in0.0 mm 0.00 in0.0 mm 0.02 in0.5 mm
12:09 AM 42.3°F5.7°C 37.2°F2.9°C 82% 12.0 mph SW19.3 kmh SW 22.0 mph35.4 kmh 29.81 in1009.5 mb 0.00 in0.0 mm 0.00 in0.0 mm 0.02 in0.5 mm
12:11 AM 42.3°F5.7°C 37.2°F2.9°C 82% 11.0 mph SW17.7 kmh SW 22.0 mph35.4 kmh 29.81 in1009.5 mb 0.00 in0.0 mm 0.00 in0.0 mm 0.02 in0.5 mm
12:12 AM 42.3°F5.7°C 37.2°F2.9°C 82% 11.0 mph SW17.7 kmh SW 22.0 mph35.4 kmh 29.81 in1009.5 mb 0.00 in0.0 mm 0.00 in0.0 mm 0.02 in0.5 mm
12:14 AM 42.3°F5.7°C 37.2°F2.9°C 82% 10.0 mph SW16.1 kmh SW 22.0 mph35.4 kmh 29.81 in1009.5 mb 0.00 in0.0 mm 0.00 in0.0 mm 0.02 in0.5 mm
12:15 AM 42.3°F5.7°C 36.9°F2.7°C 81% 9.0 mph SW14.5 kmh SW 22.0 mph35.4 kmh 29.81 in1009.5 mb 0.00 in0.0 mm 0.00 in0.0 mm 0.02 in0.5 mm
12:16 AM 42.3°F5.7°C 36.9°F2.7°C 81% 9.0 mph SW14.5 kmh SW 22.0 mph35.4 kmh 29.81 in1009.5 mb 0.00 in0.0 mm 0.00 in0.0 mm 0.02 in0.5 mm
12:17 AM 42.3°F5.7°C 36.9°F2.7°C 81% 9.0 mph SW14.5 kmh SW 17.0 mph27.4 kmh 29.81 in1009.5 mb 0.00 in0.0 mm 0.00 in0.0 mm 0.02 in0.5 mm
12:18 AM 42.3°F5.7°C 36.9°F2.7°C 81% 9.0 mph SW14.5 kmh SW 17.0 mph27.4 kmh 29.81 in1009.5 mb 0.00 in0.0 mm 0.00 in0.0 mm 0.02 in0.5 mm
12:19 AM 42.3°F5.7°C 36.9°F2.7°C 81% 9.0 mph SW14.5 kmh SW 17.0 mph27.4 kmh 29.81 in1009.5 mb 0.00 in0.0 mm 0.00 in0.0 mm 0.02 in0.5 mm
12:20 AM 42.3°F5.7°C 36.9°F2.7°C 81% 9.0 mph SW14.5 kmh SW 18.0 mph29.0 kmh 29.81 in1009.5 mb 0.00 in0.0 mm 0.00 in0.0 mm 0.02 in0.5 mm
12:21 AM 42.3°F5.7°C 36.9°F2.7°C 81% 9.0 mph SW14.5 kmh SW 20.0 mph32.2 kmh 29.81 in1009.5 mb 0.00 in0.0 mm 0.00 in0.0 mm 0.02 in0.5 mm
12:22 AM 42.3°F5.7°C 36.9°F2.7°C 81% 9.0 mph SW14.5 kmh SW 20.0 mph32.2 kmh 29.81 in1009.5 mb 0.00 in0.0 mm 0.00 in0.0 mm 0.02 in0.5 mm
12:23 AM 42.3°F5.7°C 36.9°F2.7°C 81% 10.0 mph SW16.1 kmh SW 20.0 mph32.2 kmh 29.81 in1009.5 mb 0.00 in0.0 mm 0.00 in0.0 mm 0.02 in0.5 mm
12:25 AM 42.3°F5.7°C 36.9°F2.7°C 81% 11.0 mph SW17.7 kmh SW 20.0 mph32.2 kmh 29.80 in1009.1 mb 0.00 in0.0 mm 0.00 in0.0 mm 0.02 in0.5 mm
12:26 AM 42.3°F5.7°C 36.9°F2.7°C 81% 11.0 mph SW17.7 kmh SW 20.0 mph32.2 kmh 29.80 in1009.1 mb 0.00 in0.0 mm 0.00 in0.0 mm 0.02 in0.5 mm
12:27 AM 42.4°F5.8°C 36.7°F2.6°C 80% 11.0 mph SW17.7 kmh SW 25.0 mph40.2 kmh 29.80 in1009.1 mb 0.00 in0.0 mm 0.00 in0.0 mm 0.02 in0.5 mm
12:29 AM 42.4°F5.8°C 36.7°F2.6°C 80% 11.0 mph SW17.7 kmh SW 25.0 mph40.2 kmh 29.80 in1009.1 mb 0.00 in0.0 mm 0.00 in0.0 mm 0.02 in0.5 mm
12:31 AM 42.4°F5.8°C 37.0°F2.8°C 81% 11.0 mph SW17.7 kmh SW 25.0 mph40.2 kmh 29.80 in1009.1 mb 0.00 in0.0 mm 0.00 in0.0 mm 0.02 in0.5 mm
12:32 AM 42.4°F5.8°C 37.0°F2.8°C 81% 10.0 mph SW16.1 kmh SW 25.0 mph40.2 kmh 29.80 in1009.1 mb 0.00 in0.0 mm 0.00 in0.0 mm 0.02 in0.5 mm
12:34 AM 42.3°F5.7°C 36.9°F2.7°C 81% 10.0 mph SW16.1 kmh SW 25.0 mph40.2 kmh 29.80 in1009.1 mb 0.00 in0.0 mm 0.00 in0.0 mm 0.02 in0.5 mm
12:35 AM 42.3°F5.7°C 36.9°F2.7°C 81% 10.0 mph SW16.1 kmh SW 25.0 mph40.2 kmh 29.80 in1009.1 mb 0.00 in0.0 mm 0.00 in0.0 mm 0.02 in0.5 mm
12:37 AM 42.3°F5.7°C 37.2°F2.9°C 82% 9.0 mph SW14.5 kmh SW 20.0 mph32.2 kmh 29.80 in1009.1 mb 0.00 in0.0 mm 0.00 in0.0 mm 0.02 in0.5 mm
12:38 AM 42.3°F5.7°C 36.9°F2.7°C 81% 9.0 mph SW14.5 kmh SW 20.0 mph32.2 kmh 29.80 in1009.1 mb 0.00 in0.0 mm 0.00 in0.0 mm 0.02 in0.5 mm
12:40 AM 42.2°F5.7°C 36.5°F2.5°C 80% 9.0 mph SW14.5 kmh SW 20.0 mph32.2 kmh 29.80 in1009.1 mb 0.00 in0.0 mm 0.00 in0.0 mm 0.02 in0.5 mm
12:41 AM 42.2°F5.7°C 36.5°F2.5°C 80% 9.0 mph SW14.5 kmh SW 20.0 mph32.2 kmh 29.80 in1009.1 mb 0.00 in0.0 mm 0.00 in0.0 mm 0.02 in0.5 mm
12:43 AM 42.2°F5.7°C 36.5°F2.5°C 80% 9.0 mph SW14.5 kmh SW 20.0 mph32.2 kmh 29.79 in1008.8 mb 0.00 in0.0 mm 0.00 in0.0 mm 0.02 in0.5 mm
12:44 AM 42.2°F5.7°C 36.5°F2.5°C 80% 9.0 mph SW14.5 kmh SW 20.0 mph32.2 kmh 29.79 in1008.8 mb 0.00 in0.0 mm 0.00 in0.0 mm 0.02 in0.5 mm
12:46 AM 42.3°F5.7°C 36.9°F2.7°C 81% 10.0 mph SW16.1 kmh SW 20.0 mph32.2 kmh 29.79 in1008.8 mb 0.00 in0.0 mm 0.00 in0.0 mm 0.02 in0.5 mm
12:47 AM 42.3°F5.7°C 36.9°F2.7°C 81% 10.0 mph SW16.1 kmh SW 20.0 mph32.2 kmh 29.79 in1008.8 mb 0.00 in0.0 mm 0.00 in0.0 mm 0.02 in0.5 mm
12:49 AM 42.3°F5.7°C 36.9°F2.7°C 81% 10.0 mph SW16.1 kmh SW 19.0 mph30.6 kmh 29.79 in1008.8 mb 0.00 in0.0 mm 0.00 in0.0 mm 0.02 in0.5 mm
12:50 AM 42.3°F5.7°C 36.9°F2.7°C 81% 10.0 mph SW16.1 kmh SW 19.0 mph30.6 kmh 29.79 in1008.8 mb 0.00 in0.0 mm 0.00 in0.0 mm 0.02 in0.5 mm
12:51 AM 42.2°F5.7°C 36.8°F2.7°C 81% 10.0 mph SW16.1 kmh SW 19.0 mph30.6 kmh 29.79 in1008.8 mb 0.00 in0.0 mm 0.00 in0.0 mm 0.02 in0.5 mm
12:53 AM 42.2°F5.7°C 36.8°F2.7°C 81% 10.0 mph SW16.1 kmh SW 18.0 mph29.0 kmh 29.79 in1008.8 mb 0.00 in0.0 mm 0.00 in0.0 mm 0.02 in0.5 mm
12:54 AM 42.2°F5.7°C 36.8°F2.7°C 81% 10.0 mph SW16.1 kmh SW 18.0 mph29.0 kmh 29.79 in1008.8 mb 0.00 in0.0 mm 0.00 in0.0 mm 0.02 in0.5 mm
12:55 AM 42.2°F5.7°C 36.8°F2.7°C 81% 9.0 mph SW14.5 kmh SW 18.0 mph29.0 kmh 29.79 in1008.8 mb 0.00 in0.0 mm 0.00 in0.0 mm 0.02 in0.5 mm
12:56 AM 42.2°F5.7°C 36.8°F2.7°C 81% 9.0 mph SW14.5 kmh SW 18.0 mph29.0 kmh 29.79 in1008.8 mb 0.00 in0.0 mm 0.00 in0.0 mm 0.02 in0.5 mm
12:57 AM 42.2°F5.7°C 36.8°F2.7°C 81% 9.0 mph SW14.5 kmh SW 21.0 mph33.8 kmh 29.79 in1008.8 mb 0.00 in0.0 mm 0.00 in0.0 mm 0.02 in0.5 mm
12:59 AM 42.2°F5.7°C 36.8°F2.7°C 81% 9.0 mph SW14.5 kmh SW 21.0 mph33.8 kmh 29.79 in1008.8 mb 0.00 in0.0 mm 0.00 in0.0 mm 0.02 in0.5 mm
01:01 AM 42.1°F5.6°C 36.4°F2.4°C 80% 8.0 mph SW12.9 kmh SW 21.0 mph33.8 kmh 29.78 in1008.5 mb 0.00 in0.0 mm 0.00 in0.0 mm 0.02 in0.5 mm
01:02 AM 42.1°F5.6°C 36.4°F2.4°C 80% 9.0 mph SW14.5 kmh SW 21.0 mph33.8 kmh 29.78 in1008.5 mb 0.00 in0.0 mm 0.00 in0.0 mm 0.02 in0.5 mm
01:04 AM 42.1°F5.6°C 36.4°F2.4°C 80% 9.0 mph SW14.5 kmh SW 21.0 mph33.8 kmh 29.78 in1008.5 mb 0.00 in0.0 mm 0.00 in0.0 mm 0.02 in0.5 mm
01:05 AM 42.1°F5.6°C 36.1°F2.3°C 79% 9.0 mph SW14.5 kmh SW 21.0 mph33.8 kmh 29.78 in1008.5 mb 0.00 in0.0 mm 0.00 in0.0 mm 0.02 in0.5 mm
01:07 AM 42.1°F5.6°C 36.1°F2.3°C 79% 9.0 mph SW14.5 kmh SW 20.0 mph32.2 kmh 29.77 in1008.1 mb 0.00 in0.0 mm 0.00 in0.0 mm 0.02 in0.5 mm
01:08 AM 42.2°F5.7°C 36.5°F2.5°C 80% 9.0 mph SW14.5 kmh SW 20.0 mph32.2 kmh 29.78 in1008.5 mb 0.00 in0.0 mm 0.00 in0.0 mm 0.02 in0.5 mm
01:10 AM 42.2°F5.7°C 36.8°F2.7°C 81% 9.0 mph SW14.5 kmh SW 20.0 mph32.2 kmh 29.78 in1008.5 mb 0.00 in0.0 mm 0.00 in0.0 mm 0.02 in0.5 mm
01:11 AM 42.1°F5.6°C 36.7°F2.6°C 81% 9.0 mph SW14.5 kmh SW 20.0 mph32.2 kmh 29.78 in1008.5 mb 0.00 in0.0 mm 0.00 in0.0 mm 0.02 in0.5 mm
01:13 AM 42.1°F5.6°C 36.7°F2.6°C 81% 9.0 mph SW14.5 kmh SW 20.0 mph32.2 kmh 29.77 in1008.1 mb 0.00 in0.0 mm 0.00 in0.0 mm 0.02 in0.5 mm
01:14 AM 42.0°F5.6°C 36.6°F2.6°C 81% 9.0 mph SW14.5 kmh SW 21.0 mph33.8 kmh 29.77 in1008.1 mb 0.00 in0.0 mm 0.00 in0.0 mm 0.02 in0.5 mm
01:16 AM 42.1°F5.6°C 36.4°F2.4°C 80% 9.0 mph SW14.5 kmh SW 21.0 mph33.8 kmh 29.77 in1008.1 mb 0.00 in0.0 mm 0.00 in0.0 mm 0.02 in0.5 mm
01:17 AM 42.0°F5.6°C 36.3°F2.4°C 80% 9.0 mph SW14.5 kmh SW 21.0 mph33.8 kmh 29.78 in1008.5 mb 0.00 in0.0 mm 0.00 in0.0 mm 0.02 in0.5 mm
01:19 AM 42.1°F5.6°C 36.7°F2.6°C 81% 10.0 mph SW16.1 kmh SW 22.0 mph35.4 kmh 29.77 in1008.1 mb 0.00 in0.0 mm 0.00 in0.0 mm 0.02 in0.5 mm
01:20 AM 42.0°F5.6°C 36.6°F2.6°C 81% 10.0 mph SW16.1 kmh SW 22.0 mph35.4 kmh 29.77 in1008.1 mb 0.00 in0.0 mm 0.00 in0.0 mm 0.02 in0.5 mm
01:21 AM 42.0°F5.6°C 36.6°F2.6°C 81% 10.0 mph SW16.1 kmh SW 22.0 mph35.4 kmh 29.77 in1008.1 mb 0.00 in0.0 mm 0.00 in0.0 mm 0.02 in0.5 mm
01:23 AM 42.0°F5.6°C 36.6°F2.6°C 81% 11.0 mph SW17.7 kmh SW 22.0 mph35.4 kmh 29.77 in1008.1 mb 0.00 in0.0 mm 0.00 in0.0 mm 0.02 in0.5 mm
01:24 AM 42.0°F5.6°C 36.6°F2.6°C 81% 11.0 mph SW17.7 kmh SW 22.0 mph35.4 kmh 29.77 in1008.1 mb 0.00 in0.0 mm 0.00 in0.0 mm 0.02 in0.5 mm
01:26 AM 42.0°F5.6°C 36.6°F2.6°C 81% 11.0 mph SW17.7 kmh SW 22.0 mph35.4 kmh 29.77 in1008.1 mb 0.00 in0.0 mm 0.00 in0.0 mm 0.02 in0.5 mm
01:27 AM 42.0°F5.6°C 36.6°F2.6°C 81% 11.0 mph SW17.7 kmh SW 22.0 mph35.4 kmh 29.77 in1008.1 mb 0.00 in0.0 mm 0.00 in0.0 mm 0.02 in0.5 mm
01:29 AM 42.1°F5.6°C 36.4°F2.4°C 80% 12.0 mph SW19.3 kmh SW 24.0 mph38.6 kmh 29.77 in1008.1 mb 0.00 in0.0 mm 0.00 in0.0 mm 0.02 in0.5 mm
01:30 AM 42.0°F5.6°C 36.3°F2.4°C 80% 11.0 mph SW17.7 kmh SW 24.0 mph38.6 kmh 29.77 in1008.1 mb 0.00 in0.0 mm 0.00 in0.0 mm 0.02 in0.5 mm
01:32 AM 42.0°F5.6°C 36.6°F2.6°C 81% 11.0 mph SW17.7 kmh SW 24.0 mph38.6 kmh 29.77 in1008.1 mb 0.00 in0.0 mm 0.00 in0.0 mm 0.02 in0.5 mm
01:33 AM 42.0°F5.6°C 36.3°F2.4°C 80% 11.0 mph SW17.7 kmh SW 24.0 mph38.6 kmh 29.77 in1008.1 mb 0.00 in0.0 mm 0.00 in0.0 mm 0.02 in0.5 mm
01:34 AM 42.0°F5.6°C 36.3°F2.4°C 80% 11.0 mph SW17.7 kmh SW 24.0 mph38.6 kmh 29.77 in1008.1 mb 0.00 in0.0 mm 0.00 in0.0 mm 0.02 in0.5 mm
01:36 AM 42.0°F5.6°C 36.3°F2.4°C 80% 12.0 mph SW19.3 kmh SW 24.0 mph38.6 kmh 29.77 in1008.1 mb 0.00 in0.0 mm 0.00 in0.0 mm 0.02 in0.5 mm
01:37 AM 42.0°F5.6°C 36.3°F2.4°C 80% 12.0 mph SW19.3 kmh SW 24.0 mph38.6 kmh 29.77 in1008.1 mb 0.00 in0.0 mm 0.00 in0.0 mm 0.02 in0.5 mm
01:39 AM 42.1°F5.6°C 36.7°F2.6°C 81% 12.0 mph SW19.3 kmh SW 23.0 mph37.0 kmh 29.77 in1008.1 mb 0.00 in0.0 mm 0.00 in0.0 mm 0.02 in0.5 mm
01:40 AM 42.1°F5.6°C 36.7°F2.6°C 81% 12.0 mph SW19.3 kmh SW 23.0 mph37.0 kmh 29.77 in1008.1 mb 0.00 in0.0 mm 0.00 in0.0 mm 0.02 in0.5 mm
01:41 AM 42.1°F5.6°C 36.7°F2.6°C 81% 13.0 mph SW20.9 kmh SW 26.0 mph41.8 kmh 29.77 in1008.1 mb 0.00 in0.0 mm 0.00 in0.0 mm 0.02 in0.5 mm
01:43 AM 42.0°F5.6°C 36.9°F2.7°C 82% 13.0 mph SW20.9 kmh SW 26.0 mph41.8 kmh 29.76 in1007.8 mb 0.00 in0.0 mm 0.00 in0.0 mm 0.02 in0.5 mm
01:44 AM 42.0°F5.6°C 36.6°F2.6°C 81% 13.0 mph SW20.9 kmh SW 26.0 mph41.8 kmh 29.76 in1007.8 mb 0.00 in0.0 mm 0.00 in0.0 mm 0.02 in0.5 mm
01:46 AM 42.0°F5.6°C 36.9°F2.7°C 82% 12.0 mph SW19.3 kmh SW 26.0 mph41.8 kmh 29.76 in1007.8 mb 0.00 in0.0 mm 0.00 in0.0 mm 0.02 in0.5 mm
01:47 AM 42.0°F5.6°C 36.6°F2.6°C 81% 12.0 mph SW19.3 kmh SW 26.0 mph41.8 kmh 29.76 in1007.8 mb 0.00 in0.0 mm 0.00 in0.0 mm 0.02 in0.5 mm
01:49 AM 42.0°F5.6°C 36.9°F2.7°C 82% 11.0 mph SW17.7 kmh SW 26.0 mph41.8 kmh 29.76 in1007.8 mb 0.00 in0.0 mm 0.00 in0.0 mm 0.02 in0.5 mm
01:50 AM 42.0°F5.6°C 36.9°F2.7°C 82% 11.0 mph SW17.7 kmh SW 26.0 mph41.8 kmh 29.76 in1007.8 mb 0.00 in0.0 mm 0.00 in0.0 mm 0.02 in0.5 mm
01:51 AM 42.0°F5.6°C 36.9°F2.7°C 82% 11.0 mph SW17.7 kmh SW 23.0 mph37.0 kmh 29.76 in1007.8 mb 0.00 in0.0 mm 0.00 in0.0 mm 0.02 in0.5 mm
01:53 AM 42.0°F5.6°C 36.6°F2.6°C 81% 12.0 mph SW19.3 kmh SW 23.0 mph37.0 kmh 29.76 in1007.8 mb 0.00 in0.0 mm 0.00 in0.0 mm 0.02 in0.5 mm
01:54 AM 42.0°F5.6°C 36.6°F2.6°C 81% 12.0 mph SW19.3 kmh SW 25.0 mph40.2 kmh 29.76 in1007.8 mb 0.00 in0.0 mm 0.00 in0.0 mm 0.02 in0.5 mm
01:56 AM 42.1°F5.6°C 36.7°F2.6°C 81% 12.0 mph SW19.3 kmh SW 25.0 mph40.2 kmh 29.76 in1007.8 mb 0.00 in0.0 mm 0.00 in0.0 mm 0.02 in0.5 mm
01:57 AM 42.0°F5.6°C 36.6°F2.6°C 81% 13.0 mph SW20.9 kmh SW 27.0 mph43.5 kmh 29.76 in1007.8 mb 0.00 in0.0 mm 0.00 in0.0 mm 0.02 in0.5 mm
01:58 AM 42.0°F5.6°C 36.6°F2.6°C 81% 14.0 mph SW22.5 kmh SW 27.0 mph43.5 kmh 29.76 in1007.8 mb 0.00 in0.0 mm 0.00 in0.0 mm 0.02 in0.5 mm
02:00 AM 42.1°F5.6°C 36.7°F2.6°C 81% 14.0 mph SW22.5 kmh SW 27.0 mph43.5 kmh 29.76 in1007.8 mb 0.00 in0.0 mm 0.00 in0.0 mm 0.02 in0.5 mm
02:01 AM 42.1°F5.6°C 37.0°F2.8°C 82% 14.0 mph SW22.5 kmh SW 27.0 mph43.5 kmh 29.76 in1007.8 mb 0.00 in0.0 mm 0.00 in0.0 mm 0.02 in0.5 mm
02:03 AM 42.1°F5.6°C 37.0°F2.8°C 82% 14.0 mph SW22.5 kmh SW 27.0 mph43.5 kmh 29.76 in1007.8 mb 0.00 in0.0 mm 0.00 in0.0 mm 0.02 in0.5 mm
02:04 AM 42.2°F5.7°C 37.4°F3.0°C 83% 14.0 mph SW22.5 kmh SW 27.0 mph43.5 kmh 29.76 in1007.8 mb 0.00 in0.0 mm 0.00 in0.0 mm 0.02 in0.5 mm
02:06 AM 42.1°F5.6°C 37.0°F2.8°C 82% 14.0 mph SW22.5 kmh SW 27.0 mph43.5 kmh 29.76 in1007.8 mb 0.00 in0.0 mm 0.00 in0.0 mm 0.02 in0.5 mm
02:07 AM 42.1°F5.6°C 36.7°F2.6°C 81% 13.0 mph SW20.9 kmh SW 25.0 mph40.2 kmh 29.76 in1007.8 mb 0.00 in0.0 mm 0.00 in0.0 mm 0.02 in0.5 mm
02:09 AM 42.1°F5.6°C 37.0°F2.8°C 82% 13.0 mph SW20.9 kmh SW 25.0 mph40.2 kmh 29.76 in1007.8 mb 0.00 in0.0 mm 0.00 in0.0 mm 0.02 in0.5 mm
02:10 AM 42.1°F5.6°C 37.0°F2.8°C 82% 13.0 mph SW20.9 kmh SW 25.0 mph40.2 kmh 29.75 in1007.5 mb 0.00 in0.0 mm 0.00 in0.0 mm 0.02 in0.5 mm
02:11 AM 42.1°F5.6°C 37.0°F2.8°C 82% 12.0 mph SW19.3 kmh SW 25.0 mph40.2 kmh 29.76 in1007.8 mb 0.00 in0.0 mm 0.00 in0.0 mm 0.02 in0.5 mm
02:12 AM 42.1°F5.6°C 37.0°F2.8°C 82% 13.0 mph SW20.9 kmh SW 25.0 mph40.2 kmh 29.75 in1007.5 mb 0.00 in0.0 mm 0.00 in0.0 mm 0.02 in0.5 mm
02:14 AM 42.1°F5.6°C 37.3°F2.9°C 83% 12.0 mph SW19.3 kmh SW 25.0 mph40.2 kmh 29.75 in1007.5 mb 0.00 in0.0 mm 0.00 in0.0 mm 0.02 in0.5 mm
02:15 AM 42.1°F5.6°C 37.3°F2.9°C 83% 12.0 mph SW19.3 kmh SW 25.0 mph40.2 kmh 29.75 in1007.5 mb 0.00 in0.0 mm 0.00 in0.0 mm 0.02 in0.5 mm
02:17 AM 42.1°F5.6°C 37.3°F2.9°C 83% 11.0 mph SW17.7 kmh SW 22.0 mph35.4 kmh 29.75 in1007.5 mb 0.00 in0.0 mm 0.00 in0.0 mm 0.02 in0.5 mm
02:18 AM 42.1°F5.6°C 37.0°F2.8°C 82% 11.0 mph SW17.7 kmh SW 23.0 mph37.0 kmh 29.75 in1007.5 mb 0.00 in0.0 mm 0.00 in0.0 mm 0.02 in0.5 mm
02:20 AM 42.1°F5.6°C 37.0°F2.8°C 82% 11.0 mph SW17.7 kmh SW 24.0 mph38.6 kmh 29.75 in1007.5 mb 0.00 in0.0 mm 0.00 in0.0 mm 0.02 in0.5 mm
02:21 AM 42.1°F5.6°C 37.0°F2.8°C 82% 11.0 mph SW17.7 kmh SW 24.0 mph38.6 kmh 29.75 in1007.5 mb 0.00 in0.0 mm 0.00 in0.0 mm 0.02 in0.5 mm
02:22 AM 42.2°F5.7°C 37.1°F2.8°C 82% 11.0 mph SW17.7 kmh SW 24.0 mph38.6 kmh 29.75 in1007.5 mb 0.00 in0.0 mm 0.00 in0.0 mm 0.02 in0.5 mm
02:24 AM 42.2°F5.7°C 37.1°F2.8°C 82% 12.0 mph SW19.3 kmh SW 24.0 mph38.6 kmh 29.75 in1007.5 mb 0.00 in0.0 mm 0.00 in0.0 mm 0.02 in0.5 mm
02:25 AM 42.2°F5.7°C 37.1°F2.8°C 82% 12.0 mph SW19.3 kmh SW 26.0 mph41.8 kmh 29.75 in1007.5 mb 0.00 in0.0 mm 0.00 in0.0 mm 0.02 in0.5 mm
02:27 AM 42.3°F5.7°C 37.2°F2.9°C 82% 13.0 mph SW20.9 kmh SW 26.0 mph41.8 kmh 29.75 in1007.5 mb 0.00 in0.0 mm 0.00 in0.0 mm 0.02 in0.5 mm
02:28 AM 42.3°F5.7°C 36.9°F2.7°C 81% 13.0 mph SW20.9 kmh SW 26.0 mph41.8 kmh 29.75 in1007.5 mb 0.00 in0.0 mm 0.00 in0.0 mm 0.02 in0.5 mm
02:30 AM 42.4°F5.8°C 37.0°F2.8°C 81% 13.0 mph SW20.9 kmh SW 26.0 mph41.8 kmh 29.75 in1007.5 mb 0.00 in0.0 mm 0.00 in0.0 mm 0.02 in0.5 mm
02:31 AM 42.4°F5.8°C 37.3°F2.9°C 82% 13.0 mph SW20.9 kmh SW 26.0 mph41.8 kmh 29.75 in1007.5 mb 0.00 in0.0 mm 0.00 in0.0 mm 0.02 in0.5 mm
02:33 AM 42.3°F5.7°C 36.9°F2.7°C 81% 12.0 mph SW19.3 kmh SW 26.0 mph41.8 kmh 29.75 in1007.5 mb 0.00 in0.0 mm 0.00 in0.0 mm 0.02 in0.5 mm
02:34 AM 42.3°F5.7°C 36.6°F2.6°C 80% 12.0 mph SW19.3 kmh SW 26.0 mph41.8 kmh 29.75 in1007.5 mb 0.00 in0.0 mm 0.00 in0.0 mm 0.02 in0.5 mm
02:35 AM 42.4°F5.8°C 36.7°F2.6°C 80% 11.0 mph SW17.7 kmh SW 26.0 mph41.8 kmh 29.74 in1007.1 mb 0.00 in0.0 mm 0.00 in0.0 mm 0.02 in0.5 mm
02:37 AM 42.4°F5.8°C 36.7°F2.6°C 80% 11.0 mph SW17.7 kmh SW 26.0 mph41.8 kmh 29.74 in1007.1 mb 0.00 in0.0 mm 0.00 in0.0 mm 0.02 in0.5 mm
02:38 AM 42.3°F5.7°C 36.6°F2.6°C 80% 11.0 mph SW17.7 kmh SW 25.0 mph40.2 kmh 29.74 in1007.1 mb 0.00 in0.0 mm 0.00 in0.0 mm 0.02 in0.5 mm
02:39 AM 42.3°F5.7°C 36.3°F2.4°C 79% 11.0 mph SW17.7 kmh SW 25.0 mph40.2 kmh 29.74 in1007.1 mb 0.00 in0.0 mm 0.00 in0.0 mm 0.02 in0.5 mm
02:40 AM 42.3°F5.7°C 36.3°F2.4°C 79% 11.0 mph SW17.7 kmh SW 25.0 mph40.2 kmh 29.74 in1007.1 mb 0.00 in0.0 mm 0.00 in0.0 mm 0.02 in0.5 mm
02:41 AM 42.3°F5.7°C 36.3°F2.4°C 79% 12.0 mph SW19.3 kmh SW 25.0 mph40.2 kmh 29.74 in1007.1 mb 0.00 in0.0 mm 0.00 in0.0 mm 0.02 in0.5 mm
02:43 AM 42.3°F5.7°C 35.9°F2.2°C 78% 13.0 mph SW20.9 kmh SW 27.0 mph43.5 kmh 29.73 in1006.8 mb 0.00 in0.0 mm 0.00 in0.0 mm 0.02 in0.5 mm
02:44 AM 42.4°F5.8°C 36.0°F2.2°C 78% 13.0 mph SW20.9 kmh SW 27.0 mph43.5 kmh 29.74 in1007.1 mb 0.00 in0.0 mm 0.00 in0.0 mm 0.02 in0.5 mm
02:46 AM 42.4°F5.8°C 36.3°F2.4°C 79% 13.0 mph SW20.9 kmh SW 27.0 mph43.5 kmh 29.73 in1006.8 mb 0.00 in0.0 mm 0.00 in0.0 mm 0.02 in0.5 mm
02:47 AM 42.4°F5.8°C 36.3°F2.4°C 79% 13.0 mph SW20.9 kmh SW 27.0 mph43.5 kmh 29.73 in1006.8 mb 0.00 in0.0 mm 0.00 in0.0 mm 0.02 in0.5 mm
02:49 AM 42.4°F5.8°C 36.3°F2.4°C 79% 13.0 mph SW20.9 kmh SW 27.0 mph43.5 kmh 29.73 in1006.8 mb 0.00 in0.0 mm 0.00 in0.0 mm 0.02 in0.5 mm
02:50 AM 42.4°F5.8°C 36.3°F2.4°C 79% 14.0 mph SW22.5 kmh SW 27.0 mph43.5 kmh 29.73 in1006.8 mb 0.00 in0.0 mm 0.00 in0.0 mm 0.02 in0.5 mm
02:52 AM 42.3°F5.7°C 36.6°F2.6°C 80% 13.0 mph SW20.9 kmh SW 26.0 mph41.8 kmh 29.73 in1006.8 mb 0.00 in0.0 mm 0.00 in0.0 mm 0.02 in0.5 mm
02:53 AM 42.3°F5.7°C 36.6°F2.6°C 80% 13.0 mph SW20.9 kmh SW 26.0 mph41.8 kmh 29.73 in1006.8 mb 0.00 in0.0 mm 0.00 in0.0 mm 0.02 in0.5 mm
02:55 AM 42.3°F5.7°C 37.2°F2.9°C 82% 13.0 mph SW20.9 kmh SW 26.0 mph41.8 kmh 29.73 in1006.8 mb 0.00 in0.0 mm 0.00 in0.0 mm 0.02 in0.5 mm
02:56 AM 42.3°F5.7°C 37.2°F2.9°C 82% 14.0 mph SW22.5 kmh SW 26.0 mph41.8 kmh 29.73 in1006.8 mb 0.00 in0.0 mm 0.00 in0.0 mm 0.02 in0.5 mm
02:58 AM 42.3°F5.7°C 36.9°F2.7°C 81% 13.0 mph SW20.9 kmh SW 26.0 mph41.8 kmh 29.73 in1006.8 mb 0.00 in0.0 mm 0.00 in0.0 mm 0.02 in0.5 mm
02:59 AM 42.3°F5.7°C 36.9°F2.7°C 81% 14.0 mph SW22.5 kmh SW 26.0 mph41.8 kmh 29.73 in1006.8 mb 0.00 in0.0 mm 0.00 in0.0 mm 0.02 in0.5 mm
03:00 AM 42.4°F5.8°C 37.0°F2.8°C 81% 13.0 mph SW20.9 kmh SW 26.0 mph41.8 kmh 29.72 in1006.4 mb 0.00 in0.0 mm 0.00 in0.0 mm 0.02 in0.5 mm
03:01 AM 42.3°F5.7°C 36.9°F2.7°C 81% 13.0 mph SW20.9 kmh SW 26.0 mph41.8 kmh 29.72 in1006.4 mb 0.00 in0.0 mm 0.00 in0.0 mm 0.02 in0.5 mm
03:03 AM 42.4°F5.8°C 37.0°F2.8°C 81% 13.0 mph SW20.9 kmh SW 26.0 mph41.8 kmh 29.72 in1006.4 mb 0.00 in0.0 mm 0.00 in0.0 mm 0.02 in0.5 mm
03:04 AM 42.4°F5.8°C 37.0°F2.8°C 81% 13.0 mph SW20.9 kmh SW 26.0 mph41.8 kmh 29.72 in1006.4 mb 0.00 in0.0 mm 0.00 in0.0 mm 0.02 in0.5 mm
03:05 AM 42.3°F5.7°C 36.9°F2.7°C 81% 13.0 mph SW20.9 kmh SW 26.0 mph41.8 kmh 29.72 in1006.4 mb 0.00 in0.0 mm 0.00 in0.0 mm 0.02 in0.5 mm
03:07 AM 42.4°F5.8°C 37.0°F2.8°C 81% 13.0 mph SW20.9 kmh SW 24.0 mph38.6 kmh 29.72 in1006.4 mb 0.00 in0.0 mm 0.00 in0.0 mm 0.02 in0.5 mm
03:08 AM 42.4°F5.8°C 37.0°F2.8°C 81% 13.0 mph SW20.9 kmh SW 24.0 mph38.6 kmh 29.71 in1006.1 mb 0.00 in0.0 mm 0.00 in0.0 mm 0.02 in0.5 mm
03:10 AM 42.4°F5.8°C 37.3°F2.9°C 82% 13.0 mph SW20.9 kmh SW 24.0 mph38.6 kmh 29.71 in1006.1 mb 0.00 in0.0 mm 0.00 in0.0 mm 0.02 in0.5 mm
03:11 AM 42.3°F5.7°C 37.2°F2.9°C 82% 12.0 mph SW19.3 kmh SW 24.0 mph38.6 kmh 29.71 in1006.1 mb 0.00 in0.0 mm 0.00 in0.0 mm 0.02 in0.5 mm
03:13 AM 42.3°F5.7°C 36.9°F2.7°C 81% 12.0 mph SW19.3 kmh SW 24.0 mph38.6 kmh 29.71 in1006.1 mb 0.00 in0.0 mm 0.00 in0.0 mm 0.02 in0.5 mm
03:14 AM 42.3°F5.7°C 36.9°F2.7°C 81% 13.0 mph SW20.9 kmh SW 24.0 mph38.6 kmh 29.71 in1006.1 mb 0.00 in0.0 mm 0.00 in0.0 mm 0.02 in0.5 mm
03:16 AM 42.3°F5.7°C 36.9°F2.7°C 81% 12.0 mph SW19.3 kmh SW 22.0 mph35.4 kmh 29.71 in1006.1 mb 0.00 in0.0 mm 0.00 in0.0 mm 0.02 in0.5 mm
03:17 AM 42.3°F5.7°C 36.9°F2.7°C 81% 12.0 mph SW19.3 kmh SW 22.0 mph35.4 kmh 29.71 in1006.1 mb 0.00 in0.0 mm 0.00 in0.0 mm 0.02 in0.5 mm
03:19 AM 42.3°F5.7°C 36.9°F2.7°C 81% 13.0 mph SW20.9 kmh SW 25.0 mph40.2 kmh 29.70 in1005.8 mb 0.00 in0.0 mm 0.00 in0.0 mm 0.02 in0.5 mm
03:21 AM 42.2°F5.7°C 36.8°F2.7°C 81% 13.0 mph SW20.9 kmh SW 25.0 mph40.2 kmh 29.71 in1006.1 mb 0.00 in0.0 mm 0.00 in0.0 mm 0.02 in0.5 mm
03:22 AM 42.2°F5.7°C 36.8°F2.7°C 81% 13.0 mph SW20.9 kmh SW 25.0 mph40.2 kmh 29.70 in1005.8 mb 0.00 in0.0 mm 0.00 in0.0 mm 0.02 in0.5 mm
03:24 AM 42.2°F5.7°C 37.1°F2.8°C 82% 13.0 mph SW20.9 kmh SW 25.0 mph40.2 kmh 29.70 in1005.8 mb 0.00 in0.0 mm 0.00 in0.0 mm 0.02 in0.5 mm
03:25 AM 42.3°F5.7°C 37.2°F2.9°C 82% 13.0 mph SW20.9 kmh SW 25.0 mph40.2 kmh 29.70 in1005.8 mb 0.00 in0.0 mm 0.00 in0.0 mm 0.02 in0.5 mm
03:27 AM 42.2°F5.7°C 37.4°F3.0°C 83% 13.0 mph SW20.9 kmh SW 25.0 mph40.2 kmh 29.70 in1005.8 mb 0.00 in0.0 mm 0.00 in0.0 mm 0.02 in0.5 mm
03:28 AM 42.2°F5.7°C 37.4°F3.0°C 83% 12.0 mph SW19.3 kmh SW 22.0 mph35.4 kmh 29.70 in1005.8 mb 0.00 in0.0 mm 0.00 in0.0 mm 0.02 in0.5 mm
03:30 AM 42.1°F5.6°C 37.0°F2.8°C 82% 12.0 mph SW19.3 kmh SW 24.0 mph38.6 kmh 29.70 in1005.8 mb 0.00 in0.0 mm 0.00 in0.0 mm 0.02 in0.5 mm
03:31 AM 42.1°F5.6°C 36.7°F2.6°C 81% 12.0 mph SW19.3 kmh SW 24.0 mph38.6 kmh 29.70 in1005.8 mb 0.00 in0.0 mm 0.00 in0.0 mm 0.02 in0.5 mm
03:33 AM 42.2°F5.7°C 36.8°F2.7°C 81% 12.0 mph SW19.3 kmh SW 27.0 mph43.5 kmh 29.70 in1005.8 mb 0.00 in0.0 mm 0.00 in0.0 mm 0.02 in0.5 mm
03:34 AM 42.2°F5.7°C 36.5°F2.5°C 80% 12.0 mph SW19.3 kmh SW 27.0 mph43.5 kmh 29.69 in1005.4 mb 0.00 in0.0 mm 0.00 in0.0 mm 0.02 in0.5 mm
03:35 AM 42.2°F5.7°C 36.8°F2.7°C 81% 12.0 mph SW19.3 kmh SW 27.0 mph43.5 kmh 29.69 in1005.4 mb 0.00 in0.0 mm 0.00 in0.0 mm 0.02 in0.5 mm
03:37 AM 42.2°F5.7°C 36.8°F2.7°C 81% 12.0 mph SW19.3 kmh SW 28.0 mph45.1 kmh 29.69 in1005.4 mb 0.00 in0.0 mm 0.00 in0.0 mm 0.02 in0.5 mm
03:38 AM 42.2°F5.7°C 36.5°F2.5°C 80% 13.0 mph SW20.9 kmh SW 28.0 mph45.1 kmh 29.69 in1005.4 mb 0.00 in0.0 mm 0.00 in0.0 mm 0.02 in0.5 mm
03:39 AM 42.3°F5.7°C 36.6°F2.6°C 80% 14.0 mph SW22.5 kmh SW 28.0 mph45.1 kmh 29.69 in1005.4 mb 0.00 in0.0 mm 0.00 in0.0 mm 0.02 in0.5 mm
03:41 AM 42.3°F5.7°C 36.9°F2.7°C 81% 14.0 mph SW22.5 kmh SW 28.0 mph45.1 kmh 29.69 in1005.4 mb 0.00 in0.0 mm 0.00 in0.0 mm 0.02 in0.5 mm
03:42 AM 42.3°F5.7°C 36.9°F2.7°C 81% 14.0 mph SW22.5 kmh SW 28.0 mph45.1 kmh 29.69 in1005.4 mb 0.00 in0.0 mm 0.00 in0.0 mm 0.02 in0.5 mm
03:44 AM 42.4°F5.8°C 37.0°F2.8°C 81% 13.0 mph SW20.9 kmh SW 28.0 mph45.1 kmh 29.69 in1005.4 mb 0.00 in0.0 mm 0.00 in0.0 mm 0.02 in0.5 mm
03:45 AM 42.4°F5.8°C 37.0°F2.8°C 81% 14.0 mph SW22.5 kmh SW 28.0 mph45.1 kmh 29.69 in1005.4 mb 0.00 in0.0 mm 0.00 in0.0 mm 0.02 in0.5 mm
03:47 AM 42.4°F5.8°C 37.0°F2.8°C 81% 14.0 mph SW22.5 kmh SW 23.0 mph37.0 kmh 29.69 in1005.4 mb 0.00 in0.0 mm 0.00 in0.0 mm 0.02 in0.5 mm
03:48 AM 42.3°F5.7°C 36.9°F2.7°C 81% 14.0 mph SSW22.5 kmh SSW 24.0 mph38.6 kmh 29.68 in1005.1 mb 0.00 in0.0 mm 0.00 in0.0 mm 0.02 in0.5 mm
03:50 AM 42.3°F5.7°C 36.6°F2.6°C 80% 13.0 mph SSW20.9 kmh SSW 24.0 mph38.6 kmh 29.68 in1005.1 mb 0.00 in0.0 mm 0.00 in0.0 mm 0.02 in0.5 mm
03:51 AM 42.4°F5.8°C 36.7°F2.6°C 80% 13.0 mph SSW20.9 kmh SSW 24.0 mph38.6 kmh 29.68 in1005.1 mb 0.00 in0.0 mm 0.00 in0.0 mm 0.02 in0.5 mm
03:53 AM 42.3°F5.7°C 36.9°F2.7°C 81% 12.0 mph SSW19.3 kmh SSW 24.0 mph38.6 kmh 29.68 in1005.1 mb 0.00 in0.0 mm 0.00 in0.0 mm 0.02 in0.5 mm
03:54 AM 42.4°F5.8°C 37.0°F2.8°C 81% 12.0 mph SSW19.3 kmh SSW 24.0 mph38.6 kmh 29.68 in1005.1 mb 0.00 in0.0 mm 0.00 in0.0 mm 0.02 in0.5 mm
03:56 AM 42.4°F5.8°C 37.0°F2.8°C 81% 12.0 mph SSW19.3 kmh SSW 27.0 mph43.5 kmh 29.68 in1005.1 mb 0.00 in0.0 mm 0.00 in0.0 mm 0.02 in0.5 mm
03:57 AM 42.4°F5.8°C 37.0°F2.8°C 81% 12.0 mph SSW19.3 kmh SSW 27.0 mph43.5 kmh 29.68 in1005.1 mb 0.00 in0.0 mm 0.00 in0.0 mm 0.02 in0.5 mm
03:59 AM 42.4°F5.8°C 37.0°F2.8°C 81% 12.0 mph SSW19.3 kmh SSW 27.0 mph43.5 kmh 29.68 in1005.1 mb 0.00 in0.0 mm 0.00 in0.0 mm 0.02 in0.5 mm
04:01 AM 42.4°F5.8°C 36.7°F2.6°C 80% 13.0 mph SSW20.9 kmh SSW 27.0 mph43.5 kmh 29.68 in1005.1 mb 0.00 in0.0 mm 0.00 in0.0 mm 0.02 in0.5 mm
04:02 AM 42.4°F5.8°C 36.7°F2.6°C 80% 13.0 mph SSW20.9 kmh SSW 27.0 mph43.5 kmh 29.68 in1005.1 mb 0.00 in0.0 mm 0.00 in0.0 mm 0.02 in0.5 mm
04:04 AM 42.4°F5.8°C 36.7°F2.6°C 80% 14.0 mph SSW22.5 kmh SSW 27.0 mph43.5 kmh 29.68 in1005.1 mb 0.00 in0.0 mm 0.00 in0.0 mm 0.02 in0.5 mm
04:05 AM 42.4°F5.8°C 36.7°F2.6°C 80% 13.0 mph SSW20.9 kmh SSW 27.0 mph43.5 kmh 29.68 in1005.1 mb 0.00 in0.0 mm 0.00 in0.0 mm 0.02 in0.5 mm
04:07 AM 42.4°F5.8°C 36.7°F2.6°C 80% 14.0 mph SSW22.5 kmh SSW 26.0 mph41.8 kmh 29.68 in1005.1 mb 0.00 in0.0 mm 0.00 in0.0 mm 0.02 in0.5 mm
04:08 AM 42.4°F5.8°C 36.3°F2.4°C 79% 14.0 mph SSW22.5 kmh SSW 26.0 mph41.8 kmh 29.68 in1005.1 mb 0.00 in0.0 mm 0.00 in0.0 mm 0.02 in0.5 mm
04:09 AM 42.4°F5.8°C 36.3°F2.4°C 79% 14.0 mph SSW22.5 kmh SSW 26.0 mph41.8 kmh 29.67 in1004.7 mb 0.00 in0.0 mm 0.00 in0.0 mm 0.02 in0.5 mm
04:11 AM 42.4°F5.8°C 36.7°F2.6°C 80% 14.0 mph SSW22.5 kmh SSW 24.0 mph38.6 kmh 29.67 in1004.7 mb 0.00 in0.0 mm 0.00 in0.0 mm 0.02 in0.5 mm
04:12 AM 42.4°F5.8°C 36.7°F2.6°C 80% 14.0 mph SSW22.5 kmh SSW 24.0 mph38.6 kmh 29.67 in1004.7 mb 0.00 in0.0 mm 0.00 in0.0 mm 0.02 in0.5 mm
04:13 AM 42.4°F5.8°C 36.7°F2.6°C 80% 14.0 mph SSW22.5 kmh SSW 24.0 mph38.6 kmh 29.67 in1004.7 mb 0.00 in0.0 mm 0.00 in0.0 mm 0.02 in0.5 mm
04:14 AM 42.4°F5.8°C 36.7°F2.6°C 80% 14.0 mph SSW22.5 kmh SSW 24.0 mph38.6 kmh 29.67 in1004.7 mb 0.00 in0.0 mm 0.00 in0.0 mm 0.02 in0.5 mm
04:16 AM 42.4°F5.8°C 36.7°F2.6°C 80% 14.0 mph SSW22.5 kmh SSW 24.0 mph38.6 kmh 29.67 in1004.7 mb 0.00 in0.0 mm 0.00 in0.0 mm 0.02 in0.5 mm
04:17 AM 42.4°F5.8°C 36.7°F2.6°C 80% 14.0 mph SSW22.5 kmh SSW 24.0 mph38.6 kmh 29.67 in1004.7 mb 0.00 in0.0 mm 0.00 in0.0 mm 0.02 in0.5 mm
04:18 AM 42.4°F5.8°C 36.7°F2.6°C 80% 14.0 mph SSW22.5 kmh SSW 24.0 mph38.6 kmh 29.67 in1004.7 mb 0.00 in0.0 mm 0.00 in0.0 mm 0.02 in0.5 mm
04:20 AM 42.4°F5.8°C 36.7°F2.6°C 80% 14.0 mph SSW22.5 kmh SSW 24.0 mph38.6 kmh 29.67 in1004.7 mb 0.00 in0.0 mm 0.00 in0.0 mm 0.02 in0.5 mm
04:21 AM 42.4°F5.8°C 36.7°F2.6°C 80% 14.0 mph SSW22.5 kmh SSW 24.0 mph38.6 kmh 29.67 in1004.7 mb 0.00 in0.0 mm 0.00 in0.0 mm 0.02 in0.5 mm
04:23 AM 42.4°F5.8°C 36.7°F2.6°C 80% 13.0 mph SSW20.9 kmh SSW 27.0 mph43.5 kmh 29.66 in1004.4 mb 0.00 in0.0 mm 0.00 in0.0 mm 0.02 in0.5 mm
04:24 AM 42.4°F5.8°C 36.7°F2.6°C 80% 14.0 mph SSW22.5 kmh SSW 27.0 mph43.5 kmh 29.66 in1004.4 mb 0.00 in0.0 mm 0.00 in0.0 mm 0.02 in0.5 mm
04:26 AM 42.5°F5.8°C 36.8°F2.7°C 80% 14.0 mph SSW22.5 kmh SSW 27.0 mph43.5 kmh 29.66 in1004.4 mb 0.00 in0.0 mm 0.00 in0.0 mm 0.02 in0.5 mm
04:27 AM 42.5°F5.8°C 36.8°F2.7°C 80% 14.0 mph SSW22.5 kmh SSW 27.0 mph43.5 kmh 29.66 in1004.4 mb 0.00 in0.0 mm 0.00 in0.0 mm 0.02 in0.5 mm
04:29 AM 42.4°F5.8°C 36.7°F2.6°C 80% 14.0 mph SSW22.5 kmh SSW 27.0 mph43.5 kmh 29.66 in1004.4 mb 0.00 in0.0 mm 0.00 in0.0 mm 0.02 in0.5 mm
04:30 AM 42.5°F5.8°C 36.8°F2.7°C 80% 14.0 mph SSW22.5 kmh SSW 27.0 mph43.5 kmh 29.66 in1004.4 mb 0.00 in0.0 mm 0.00 in0.0 mm 0.02 in0.5 mm
04:31 AM 42.5°F5.8°C 37.1°F2.8°C 81% 14.0 mph SSW22.5 kmh SSW 27.0 mph43.5 kmh 29.66 in1004.4 mb 0.00 in0.0 mm 0.00 in0.0 mm 0.02 in0.5 mm
04:32 AM 42.4°F5.8°C 36.7°F2.6°C 80% 14.0 mph SSW22.5 kmh SSW 26.0 mph41.8 kmh 29.66 in1004.4 mb 0.00 in0.0 mm 0.00 in0.0 mm 0.02 in0.5 mm
04:33 AM 42.4°F5.8°C 37.0°F2.8°C 81% 15.0 mph SSW24.1 kmh SSW 26.0 mph41.8 kmh 29.66 in1004.4 mb 0.00 in0.0 mm 0.00 in0.0 mm 0.02 in0.5 mm
04:34 AM 42.5°F5.8°C 37.1°F2.8°C 81% 15.0 mph SSW24.1 kmh SSW 26.0 mph41.8 kmh 29.66 in1004.4 mb 0.00 in0.0 mm 0.00 in0.0 mm 0.02 in0.5 mm
04:35 AM 42.5°F5.8°C 36.8°F2.7°C 80% 14.0 mph SSW22.5 kmh SSW 26.0 mph41.8 kmh 29.66 in1004.4 mb 0.00 in0.0 mm 0.00 in0.0 mm 0.02 in0.5 mm
04:37 AM 42.5°F5.8°C 36.8°F2.7°C 80% 15.0 mph SSW24.1 kmh SSW 26.0 mph41.8 kmh 29.65 in1004.1 mb 0.00 in0.0 mm 0.00 in0.0 mm 0.02 in0.5 mm
04:38 AM 42.5°F5.8°C 36.8°F2.7°C 80% 15.0 mph SSW24.1 kmh SSW 26.0 mph41.8 kmh 29.66 in1004.4 mb 0.00 in0.0 mm 0.00 in0.0 mm 0.02 in0.5 mm
04:40 AM 42.5°F5.8°C 36.8°F2.7°C 80% 15.0 mph SSW24.1 kmh SSW 26.0 mph41.8 kmh 29.65 in1004.1 mb 0.00 in0.0 mm 0.00 in0.0 mm 0.02 in0.5 mm
04:41 AM 42.5°F5.8°C 37.1°F2.8°C 81% 15.0 mph SSW24.1 kmh SSW 26.0 mph41.8 kmh 29.66 in1004.4 mb 0.00 in0.0 mm 0.00 in0.0 mm 0.02 in0.5 mm
04:43 AM 42.4°F5.8°C 36.7°F2.6°C 80% 15.0 mph SSW24.1 kmh SSW 26.0 mph41.8 kmh 29.65 in1004.1 mb 0.00 in0.0 mm 0.00 in0.0 mm 0.02 in0.5 mm
04:44 AM 42.4°F5.8°C 36.3°F2.4°C 79% 15.0 mph SSW24.1 kmh SSW 26.0 mph41.8 kmh 29.65 in1004.1 mb 0.00 in0.0 mm 0.00 in0.0 mm 0.02 in0.5 mm
04:46 AM 42.4°F5.8°C 36.7°F2.6°C 80% 15.0 mph SSW24.1 kmh SSW 28.0 mph45.1 kmh 29.65 in1004.1 mb 0.00 in0.0 mm 0.00 in0.0 mm 0.02 in0.5 mm
04:47 AM 42.4°F5.8°C 36.7°F2.6°C 80% 14.0 mph SSW22.5 kmh SSW 28.0 mph45.1 kmh 29.65 in1004.1 mb 0.00 in0.0 mm 0.00 in0.0 mm 0.02 in0.5 mm
04:49 AM 42.4°F5.8°C 37.0°F2.8°C 81% 14.0 mph SSW22.5 kmh SSW 28.0 mph45.1 kmh 29.65 in1004.1 mb 0.00 in0.0 mm 0.00 in0.0 mm 0.02 in0.5 mm
04:50 AM 42.4°F5.8°C 36.7°F2.6°C 80% 14.0 mph SSW22.5 kmh SSW 28.0 mph45.1 kmh 29.65 in1004.1 mb 0.00 in0.0 mm 0.00 in0.0 mm 0.02 in0.5 mm
04:51 AM 42.4°F5.8°C 36.3°F2.4°C 79% 14.0 mph SSW22.5 kmh SSW 28.0 mph45.1 kmh 29.64 in1003.7 mb 0.00 in0.0 mm 0.00 in0.0 mm 0.02 in0.5 mm
04:53 AM 42.5°F5.8°C 36.4°F2.4°C 79% 15.0 mph SSW24.1 kmh SSW 28.0 mph45.1 kmh 29.65 in1004.1 mb 0.00 in0.0 mm 0.00 in0.0 mm 0.02 in0.5 mm
04:54 AM 42.5°F5.8°C 36.8°F2.7°C 80% 15.0 mph SSW24.1 kmh SSW 28.0 mph45.1 kmh 29.65 in1004.1 mb 0.00 in0.0 mm 0.00 in0.0 mm 0.02 in0.5 mm
04:56 AM 42.5°F5.8°C 36.8°F2.7°C 80% 16.0 mph SSW25.7 kmh SSW 27.0 mph43.5 kmh 29.65 in1004.1 mb 0.00 in0.0 mm 0.00 in0.0 mm 0.02 in0.5 mm
04:57 AM 42.5°F5.8°C 36.8°F2.7°C 80% 16.0 mph SSW25.7 kmh SSW 27.0 mph43.5 kmh 29.65 in1004.1 mb 0.00 in0.0 mm 0.00 in0.0 mm 0.02 in0.5 mm
04:59 AM 42.5°F5.8°C 36.8°F2.7°C 80% 16.0 mph SSW25.7 kmh SSW 27.0 mph43.5 kmh 29.64 in1003.7 mb 0.00 in0.0 mm 0.00 in0.0 mm 0.02 in0.5 mm
05:01 AM 42.5°F5.8°C 37.1°F2.8°C 81% 16.0 mph SSW25.7 kmh SSW 27.0 mph43.5 kmh 29.64 in1003.7 mb 0.00 in0.0 mm 0.00 in0.0 mm 0.02 in0.5 mm
05:02 AM 42.5°F5.8°C 37.1°F2.8°C 81% 16.0 mph SSW25.7 kmh SSW 27.0 mph43.5 kmh 29.64 in1003.7 mb 0.00 in0.0 mm 0.00 in0.0 mm 0.02 in0.5 mm
05:04 AM 42.4°F5.8°C 36.7°F2.6°C 80% 15.0 mph SSW24.1 kmh SSW 28.0 mph45.1 kmh 29.64 in1003.7 mb 0.00 in0.0 mm 0.00 in0.0 mm 0.02 in0.5 mm
05:05 AM 42.4°F5.8°C 36.3°F2.4°C 79% 16.0 mph SSW25.7 kmh SSW 28.0 mph45.1 kmh 29.64 in1003.7 mb 0.00 in0.0 mm 0.00 in0.0 mm 0.02 in0.5 mm
05:07 AM 42.5°F5.8°C 36.4°F2.4°C 79% 17.0 mph SW27.4 kmh SW 28.0 mph45.1 kmh 29.63 in1003.4 mb 0.00 in0.0 mm 0.00 in0.0 mm 0.02 in0.5 mm
05:08 AM 42.5°F5.8°C 36.8°F2.7°C 80% 16.0 mph SW25.7 kmh SW 28.0 mph45.1 kmh 29.63 in1003.4 mb 0.00 in0.0 mm 0.00 in0.0 mm 0.02 in0.5 mm
05:10 AM 42.5°F5.8°C 36.8°F2.7°C 80% 16.0 mph SSW25.7 kmh SSW 28.0 mph45.1 kmh 29.63 in1003.4 mb 0.00 in0.0 mm 0.00 in0.0 mm 0.02 in0.5 mm
05:11 AM 42.4°F5.8°C 36.7°F2.6°C 80% 16.0 mph SSW25.7 kmh SSW 28.0 mph45.1 kmh 29.63 in1003.4 mb 0.00 in0.0 mm 0.00 in0.0 mm 0.02 in0.5 mm
05:13 AM 42.4°F5.8°C 36.7°F2.6°C 80% 16.0 mph SSW25.7 kmh SSW 27.0 mph43.5 kmh 29.63 in1003.4 mb 0.00 in0.0 mm 0.00 in0.0 mm 0.02 in0.5 mm
05:14 AM 42.4°F5.8°C 36.3°F2.4°C 79% 16.0 mph SSW25.7 kmh SSW 27.0 mph43.5 kmh 29.63 in1003.4 mb 0.00 in0.0 mm 0.00 in0.0 mm 0.02 in0.5 mm
05:15 AM 42.4°F5.8°C 36.3°F2.4°C 79% 16.0 mph SSW25.7 kmh SSW 26.0 mph41.8 kmh 29.63 in1003.4 mb 0.00 in0.0 mm 0.00 in0.0 mm 0.02 in0.5 mm
05:17 AM 42.4°F5.8°C 36.3°F2.4°C 79% 15.0 mph SSW24.1 kmh SSW 27.0 mph43.5 kmh 29.63 in1003.4 mb 0.00 in0.0 mm 0.00 in0.0 mm 0.02 in0.5 mm
05:18 AM 42.4°F5.8°C 36.7°F2.6°C 80% 16.0 mph SSW25.7 kmh SSW 27.0 mph43.5 kmh 29.63 in1003.4 mb 0.00 in0.0 mm 0.00 in0.0 mm 0.02 in0.5 mm
05:20 AM 42.5°F5.8°C 36.4°F2.4°C 79% 16.0 mph SSW25.7 kmh SSW 27.0 mph43.5 kmh 29.63 in1003.4 mb 0.00 in0.0 mm 0.00 in0.0 mm 0.02 in0.5 mm
05:21 AM 42.5°F5.8°C 36.4°F2.4°C 79% 16.0 mph SSW25.7 kmh SSW 30.0 mph48.3 kmh 29.63 in1003.4 mb 0.00 in0.0 mm 0.00 in0.0 mm 0.02 in0.5 mm
05:22 AM 42.5°F5.8°C 36.4°F2.4°C 79% 17.0 mph SSW27.4 kmh SSW 30.0 mph48.3 kmh 29.63 in1003.4 mb 0.00 in0.0 mm 0.00 in0.0 mm 0.02 in0.5 mm
05:23 AM 42.5°F5.8°C 36.1°F2.3°C 78% 17.0 mph SSW27.4 kmh SSW 30.0 mph48.3 kmh 29.63 in1003.4 mb 0.00 in0.0 mm 0.00 in0.0 mm 0.02 in0.5 mm
05:24 AM 42.5°F5.8°C 36.1°F2.3°C 78% 18.0 mph SSW29.0 kmh SSW 30.0 mph48.3 kmh 29.63 in1003.4 mb 0.00 in0.0 mm 0.00 in0.0 mm 0.02 in0.5 mm
05:26 AM 42.5°F5.8°C 36.4°F2.4°C 79% 18.0 mph SSW29.0 kmh SSW 30.0 mph48.3 kmh 29.63 in1003.4 mb 0.00 in0.0 mm 0.00 in0.0 mm 0.02 in0.5 mm
05:27 AM 42.5°F5.8°C 36.1°F2.3°C 78% 18.0 mph SSW29.0 kmh SSW 30.0 mph48.3 kmh 29.63 in1003.4 mb 0.00 in0.0 mm 0.00 in0.0 mm 0.02 in0.5 mm
05:29 AM 42.5°F5.8°C 36.4°F2.4°C 79% 18.0 mph SSW29.0 kmh SSW 30.0 mph48.3 kmh 29.63 in1003.4 mb 0.00 in0.0 mm 0.00 in0.0 mm 0.02 in0.5 mm
05:30 AM 42.5°F5.8°C 36.8°F2.7°C 80% 18.0 mph SSW29.0 kmh SSW 30.0 mph48.3 kmh 29.63 in1003.4 mb 0.00 in0.0 mm 0.00 in0.0 mm 0.02 in0.5 mm
05:31 AM 42.5°F5.8°C 36.8°F2.7°C 80% 18.0 mph SSW29.0 kmh SSW 29.0 mph46.7 kmh 29.62 in1003.0 mb 0.00 in0.0 mm 0.00 in0.0 mm 0.02 in0.5 mm
05:32 AM 42.4°F5.8°C 36.0°F2.2°C 78% 18.0 mph SSW29.0 kmh SSW 27.0 mph43.5 kmh 29.62 in1003.0 mb 0.00 in0.0 mm 0.00 in0.0 mm 0.02 in0.5 mm
05:34 AM 42.4°F5.8°C 36.0°F2.2°C 78% 17.0 mph SSW27.4 kmh SSW 30.0 mph48.3 kmh 29.62 in1003.0 mb 0.00 in0.0 mm 0.00 in0.0 mm 0.02 in0.5 mm
05:35 AM 42.4°F5.8°C 36.0°F2.2°C 78% 17.0 mph SSW27.4 kmh SSW 30.0 mph48.3 kmh 29.62 in1003.0 mb 0.00 in0.0 mm 0.00 in0.0 mm 0.02 in0.5 mm
05:36 AM 42.5°F5.8°C 36.1°F2.3°C 78% 17.0 mph SSW27.4 kmh SSW 30.0 mph48.3 kmh 29.62 in1003.0 mb 0.00 in0.0 mm 0.00 in0.0 mm 0.02 in0.5 mm
05:38 AM 42.5°F5.8°C 36.4°F2.4°C 79% 17.0 mph SSW27.4 kmh SSW 30.0 mph48.3 kmh 29.62 in1003.0 mb 0.00 in0.0 mm 0.00 in0.0 mm 0.02 in0.5 mm
05:39 AM 42.4°F5.8°C 36.3°F2.4°C 79% 17.0 mph SSW27.4 kmh SSW 30.0 mph48.3 kmh 29.62 in1003.0 mb 0.00 in0.0 mm 0.00 in0.0 mm 0.02 in0.5 mm
05:41 AM 42.4°F5.8°C 36.7°F2.6°C 80% 18.0 mph SSW29.0 kmh SSW 30.0 mph48.3 kmh 29.62 in1003.0 mb 0.00 in0.0 mm 0.00 in0.0 mm 0.02 in0.5 mm
05:42 AM 42.4°F5.8°C 36.3°F2.4°C 79% 18.0 mph SSW29.0 kmh SSW 30.0 mph48.3 kmh 29.62 in1003.0 mb 0.00 in0.0 mm 0.00 in0.0 mm 0.02 in0.5 mm
05:44 AM 42.3°F5.7°C 36.6°F2.6°C 80% 17.0 mph SSW27.4 kmh SSW 28.0 mph45.1 kmh 29.62 in1003.0 mb 0.00 in0.0 mm 0.00 in0.0 mm 0.02 in0.5 mm
05:45 AM 42.3°F5.7°C 36.6°F2.6°C 80% 17.0 mph SSW27.4 kmh SSW 28.0 mph45.1 kmh 29.61 in1002.7 mb 0.00 in0.0 mm 0.00 in0.0 mm 0.02 in0.5 mm
05:47 AM 42.3°F5.7°C 36.6°F2.6°C 80% 17.0 mph SSW27.4 kmh SSW 28.0 mph45.1 kmh 29.61 in1002.7 mb 0.00 in0.0 mm 0.00 in0.0 mm 0.02 in0.5 mm
05:48 AM 42.3°F5.7°C 36.6°F2.6°C 80% 17.0 mph SSW27.4 kmh SSW 27.0 mph43.5 kmh 29.61 in1002.7 mb 0.00 in0.0 mm 0.00 in0.0 mm 0.02 in0.5 mm
05:49 AM 42.2°F5.7°C 36.5°F2.5°C 80% 17.0 mph SSW27.4 kmh SSW 27.0 mph43.5 kmh 29.61 in1002.7 mb 0.00 in0.0 mm 0.00 in0.0 mm 0.02 in0.5 mm
05:51 AM 42.2°F5.7°C 36.5°F2.5°C 80% 17.0 mph SSW27.4 kmh SSW 27.0 mph43.5 kmh 29.61 in1002.7 mb 0.00 in0.0 mm 0.00 in0.0 mm 0.02 in0.5 mm
05:52 AM 42.2°F5.7°C 36.5°F2.5°C 80% 16.0 mph SW25.7 kmh SW 27.0 mph43.5 kmh 29.61 in1002.7 mb 0.00 in0.0 mm 0.00 in0.0 mm 0.02 in0.5 mm
05:54 AM 42.2°F5.7°C 36.8°F2.7°C 81% 17.0 mph SW27.4 kmh SW 27.0 mph43.5 kmh 29.61 in1002.7 mb 0.00 in0.0 mm 0.00 in0.0 mm 0.02 in0.5 mm
05:55 AM 42.2°F5.7°C 36.5°F2.5°C 80% 17.0 mph SW27.4 kmh SW 27.0 mph43.5 kmh 29.60 in1002.4 mb 0.00 in0.0 mm 0.00 in0.0 mm 0.02 in0.5 mm
05:56 AM 42.2°F5.7°C 36.5°F2.5°C 80% 17.0 mph SW27.4 kmh SW 30.0 mph48.3 kmh 29.61 in1002.7 mb 0.00 in0.0 mm 0.00 in0.0 mm 0.02 in0.5 mm
05:58 AM 42.2°F5.7°C 36.5°F2.5°C 80% 17.0 mph SW27.4 kmh SW 30.0 mph48.3 kmh 29.61 in1002.7 mb 0.00 in0.0 mm 0.00 in0.0 mm 0.02 in0.5 mm
05:59 AM 42.2°F5.7°C 36.5°F2.5°C 80% 17.0 mph SSW27.4 kmh SSW 30.0 mph48.3 kmh 29.61 in1002.7 mb 0.00 in0.0 mm 0.00 in0.0 mm 0.02 in0.5 mm
06:00 AM 42.3°F5.7°C 36.9°F2.7°C 81% 18.0 mph SSW29.0 kmh SSW 30.0 mph48.3 kmh 29.60 in1002.4 mb 0.00 in0.0 mm 0.00 in0.0 mm 0.02 in0.5 mm
06:01 AM 42.3°F5.7°C 36.9°F2.7°C 81% 18.0 mph SSW29.0 kmh SSW 30.0 mph48.3 kmh 29.60 in1002.4 mb 0.00 in0.0 mm 0.00 in0.0 mm 0.02 in0.5 mm
06:03 AM 42.3°F5.7°C 36.9°F2.7°C 81% 17.0 mph SSW27.4 kmh SSW 30.0 mph48.3 kmh 29.60 in1002.4 mb 0.00 in0.0 mm 0.00 in0.0 mm 0.02 in0.5 mm
06:04 AM 42.3°F5.7°C 36.9°F2.7°C 81% 17.0 mph SSW27.4 kmh SSW 30.0 mph48.3 kmh 29.60 in1002.4 mb 0.00 in0.0 mm 0.00 in0.0 mm 0.02 in0.5 mm
06:05 AM 42.3°F5.7°C 36.9°F2.7°C 81% 17.0 mph SSW27.4 kmh SSW 30.0 mph48.3 kmh 29.60 in1002.4 mb 0.00 in0.0 mm 0.00 in0.0 mm 0.02 in0.5 mm
06:06 AM 42.2°F5.7°C 36.8°F2.7°C 81% 16.0 mph SSW25.7 kmh SSW 27.0 mph43.5 kmh 29.60 in1002.4 mb 0.00 in0.0 mm 0.00 in0.0 mm 0.02 in0.5 mm
06:08 AM 42.2°F5.7°C 36.5°F2.5°C 80% 15.0 mph SSW24.1 kmh SSW 28.0 mph45.1 kmh 29.60 in1002.4 mb 0.00 in0.0 mm 0.00 in0.0 mm 0.02 in0.5 mm
06:09 AM 42.2°F5.7°C 36.5°F2.5°C 80% 15.0 mph SSW24.1 kmh SSW 28.0 mph45.1 kmh 29.60 in1002.4 mb 0.00 in0.0 mm 0.00 in0.0 mm 0.02 in0.5 mm
06:10 AM 42.2°F5.7°C 36.5°F2.5°C 80% 15.0 mph SSW24.1 kmh SSW 32.0 mph51.5 kmh 29.60 in1002.4 mb 0.00 in0.0 mm 0.00 in0.0 mm 0.02 in0.5 mm
06:11 AM 42.2°F5.7°C 36.5°F2.5°C 80% 14.0 mph SSW22.5 kmh SSW 32.0 mph51.5 kmh 29.60 in1002.4 mb 0.00 in0.0 mm 0.00 in0.0 mm 0.02 in0.5 mm
06:13 AM 42.3°F5.7°C 36.9°F2.7°C 81% 15.0 mph SSW24.1 kmh SSW 32.0 mph51.5 kmh 29.60 in1002.4 mb 0.00 in0.0 mm 0.00 in0.0 mm 0.02 in0.5 mm
06:14 AM 42.2°F5.7°C 36.8°F2.7°C 81% 15.0 mph SSW24.1 kmh SSW 32.0 mph51.5 kmh 29.60 in1002.4 mb 0.00 in0.0 mm 0.00 in0.0 mm 0.02 in0.5 mm
06:15 AM 42.2°F5.7°C 36.8°F2.7°C 81% 16.0 mph SSW25.7 kmh SSW 32.0 mph51.5 kmh 29.59 in1002.0 mb 0.00 in0.0 mm 0.00 in0.0 mm 0.02 in0.5 mm
06:17 AM 42.1°F5.6°C 36.7°F2.6°C 81% 16.0 mph SSW25.7 kmh SSW 32.0 mph51.5 kmh 29.60 in1002.4 mb 0.00 in0.0 mm 0.00 in0.0 mm 0.02 in0.5 mm
06:18 AM 42.1°F5.6°C 36.7°F2.6°C 81% 16.0 mph SSW25.7 kmh SSW 32.0 mph51.5 kmh 29.60 in1002.4 mb 0.00 in0.0 mm 0.00 in0.0 mm 0.02 in0.5 mm
06:20 AM 42.0°F5.6°C 36.6°F2.6°C 81% 15.0 mph SSW24.1 kmh SSW 30.0 mph48.3 kmh 29.59 in1002.0 mb 0.00 in0.0 mm 0.00 in0.0 mm 0.02 in0.5 mm
06:21 AM 41.9°F5.5°C 36.5°F2.5°C 81% 15.0 mph SSW24.1 kmh SSW 30.0 mph48.3 kmh 29.60 in1002.4 mb 0.00 in0.0 mm 0.00 in0.0 mm 0.02 in0.5 mm
06:23 AM 41.9°F5.5°C 36.5°F2.5°C 81% 15.0 mph SSW24.1 kmh SSW 28.0 mph45.1 kmh 29.60 in1002.4 mb 0.00 in0.0 mm 0.00 in0.0 mm 0.02 in0.5 mm
06:24 AM 41.9°F5.5°C 36.5°F2.5°C 81% 15.0 mph SSW24.1 kmh SSW 28.0 mph45.1 kmh 29.60 in1002.4 mb 0.00 in0.0 mm 0.00 in0.0 mm 0.02 in0.5 mm
06:25 AM 41.9°F5.5°C 36.8°F2.7°C 82% 14.0 mph SSW22.5 kmh SSW 28.0 mph45.1 kmh 29.60 in1002.4 mb 0.00 in0.0 mm 0.00 in0.0 mm 0.02 in0.5 mm
06:27 AM 41.9°F5.5°C 36.8°F2.7°C 82% 16.0 mph S25.7 kmh S 28.0 mph45.1 kmh 29.59 in1002.0 mb 0.00 in0.0 mm 0.00 in0.0 mm 0.02 in0.5 mm
06:28 AM 41.9°F5.5°C 36.8°F2.7°C 82% 15.0 mph S24.1 kmh S 28.0 mph45.1 kmh 29.59 in1002.0 mb 0.00 in0.0 mm 0.00 in0.0 mm 0.02 in0.5 mm
06:30 AM 41.9°F5.5°C 37.1°F2.8°C 83% 15.0 mph S24.1 kmh S 25.0 mph40.2 kmh 29.60 in1002.4 mb 0.00 in0.0 mm 0.00 in0.0 mm 0.02 in0.5 mm
06:31 AM 41.9°F5.5°C 37.1°F2.8°C 83% 14.0 mph S22.5 kmh S 25.0 mph40.2 kmh 29.59 in1002.0 mb 0.00 in0.0 mm 0.00 in0.0 mm 0.02 in0.5 mm
06:33 AM 41.9°F5.5°C 37.4°F3.0°C 84% 13.0 mph S20.9 kmh S 25.0 mph40.2 kmh 29.59 in1002.0 mb 0.00 in0.0 mm 0.00 in0.0 mm 0.02 in0.5 mm
06:34 AM 41.9°F5.5°C 37.4°F3.0°C 84% 13.0 mph S20.9 kmh S 25.0 mph40.2 kmh 29.60 in1002.4 mb 0.00 in0.0 mm 0.00 in0.0 mm 0.02 in0.5 mm
06:35 AM 41.9°F5.5°C 37.1°F2.8°C 83% 12.0 mph S19.3 kmh S 25.0 mph40.2 kmh 29.59 in1002.0 mb 0.00 in0.0 mm 0.00 in0.0 mm 0.02 in0.5 mm
06:37 AM 42.0°F5.6°C 37.2°F2.9°C 83% 11.0 mph S17.7 kmh S 24.0 mph38.6 kmh 29.59 in1002.0 mb 0.00 in0.0 mm 0.00 in0.0 mm 0.02 in0.5 mm
06:39 AM 42.0°F5.6°C 37.2°F2.9°C 83% 12.0 mph SSW19.3 kmh SSW 26.0 mph41.8 kmh 29.59 in1002.0 mb 0.00 in0.0 mm 0.00 in0.0 mm 0.02 in0.5 mm
06:40 AM 42.0°F5.6°C 36.9°F2.7°C 82% 13.0 mph SSW20.9 kmh SSW 26.0 mph41.8 kmh 29.60 in1002.4 mb 0.00 in0.0 mm 0.00 in0.0 mm 0.02 in0.5 mm
06:42 AM 42.0°F5.6°C 36.6°F2.6°C 81% 14.0 mph SSW22.5 kmh SSW 26.0 mph41.8 kmh 29.60 in1002.4 mb 0.00 in0.0 mm 0.00 in0.0 mm 0.02 in0.5 mm
06:43 AM 42.0°F5.6°C 36.6°F2.6°C 81% 14.0 mph SSW22.5 kmh SSW 27.0 mph43.5 kmh 29.60 in1002.4 mb 0.00 in0.0 mm 0.00 in0.0 mm 0.02 in0.5 mm
06:45 AM 42.1°F5.6°C 36.7°F2.6°C 81% 15.0 mph SSW24.1 kmh SSW 27.0 mph43.5 kmh 29.59 in1002.0 mb 0.00 in0.0 mm 0.00 in0.0 mm 0.02 in0.5 mm
06:46 AM 42.1°F5.6°C 36.7°F2.6°C 81% 15.0 mph SSW24.1 kmh SSW 27.0 mph43.5 kmh 29.59 in1002.0 mb 0.00 in0.0 mm 0.00 in0.0 mm 0.02 in0.5 mm
06:48 AM 42.1°F5.6°C 37.0°F2.8°C 82% 15.0 mph SSW24.1 kmh SSW 27.0 mph43.5 kmh 29.59 in1002.0 mb 0.00 in0.0 mm 0.00 in0.0 mm 0.02 in0.5 mm
06:49 AM 42.1°F5.6°C 37.0°F2.8°C 82% 15.0 mph SSW24.1 kmh SSW 27.0 mph43.5 kmh 29.59 in1002.0 mb 0.00 in0.0 mm 0.00 in0.0 mm 0.02 in0.5 mm
06:51 AM 42.0°F5.6°C 36.6°F2.6°C 81% 15.0 mph SSW24.1 kmh SSW 27.0 mph43.5 kmh 29.59 in1002.0 mb 0.00 in0.0 mm 0.00 in0.0 mm 0.02 in0.5 mm
06:52 AM 42.1°F5.6°C 36.7°F2.6°C 81% 15.0 mph SSW24.1 kmh SSW 27.0 mph43.5 kmh 29.59 in1002.0 mb 0.00 in0.0 mm 0.00 in0.0 mm 0.02 in0.5 mm
06:54 AM 42.0°F5.6°C 36.9°F2.7°C 82% 13.0 mph S20.9 kmh S 27.0 mph43.5 kmh 29.59 in1002.0 mb 0.00 in0.0 mm 0.00 in0.0 mm 0.02 in0.5 mm
06:55 AM 42.0°F5.6°C 36.9°F2.7°C 82% 13.0 mph S20.9 kmh S 27.0 mph43.5 kmh 29.59 in1002.0 mb 0.00 in0.0 mm 0.00 in0.0 mm 0.02 in0.5 mm
06:56 AM 42.0°F5.6°C 36.9°F2.7°C 82% 13.0 mph S20.9 kmh S 27.0 mph43.5 kmh 29.59 in1002.0 mb 0.00 in0.0 mm 0.00 in0.0 mm 0.02 in0.5 mm
06:58 AM 42.0°F5.6°C 36.6°F2.6°C 81% 14.0 mph S22.5 kmh S 28.0 mph45.1 kmh 29.59 in1002.0 mb 0.00 in0.0 mm 0.00 in0.0 mm 0.02 in0.5 mm
06:59 AM 42.0°F5.6°C 36.6°F2.6°C 81% 14.0 mph S22.5 kmh S 28.0 mph45.1 kmh 29.59 in1002.0 mb 0.00 in0.0 mm 0.00 in0.0 mm 0.02 in0.5 mm
07:00 AM 42.0°F5.6°C 36.6°F2.6°C 81% 15.0 mph S24.1 kmh S 28.0 mph45.1 kmh 29.59 in1002.0 mb 0.00 in0.0 mm 0.00 in0.0 mm 0.02 in0.5 mm
07:01 AM 42.1°F5.6°C 36.7°F2.6°C 81% 14.0 mph SSW22.5 kmh SSW 28.0 mph45.1 kmh 29.59 in1002.0 mb 0.00 in0.0 mm 0.00 in0.0 mm 0.02 in0.5 mm
07:02 AM 42.1°F5.6°C 36.7°F2.6°C 81% 14.0 mph SSW22.5 kmh SSW 28.0 mph45.1 kmh 29.58 in1001.7 mb 0.00 in0.0 mm 0.00 in0.0 mm 0.02 in0.5 mm
07:04 AM 42.1°F5.6°C 36.7°F2.6°C 81% 15.0 mph SSW24.1 kmh SSW 28.0 mph45.1 kmh 29.58 in1001.7 mb 0.00 in0.0 mm 0.00 in0.0 mm 0.02 in0.5 mm
07:06 AM 42.2°F5.7°C 36.8°F2.7°C 81% 14.0 mph S22.5 kmh S 28.0 mph45.1 kmh 29.59 in1002.0 mb 0.00 in0.0 mm 0.00 in0.0 mm 0.02 in0.5 mm
07:07 AM 42.2°F5.7°C 36.8°F2.7°C 81% 14.0 mph S22.5 kmh S 28.0 mph45.1 kmh 29.58 in1001.7 mb 0.00 in0.0 mm 0.00 in0.0 mm 0.02 in0.5 mm
07:09 AM 42.1°F5.6°C 36.7°F2.6°C 81% 14.0 mph S22.5 kmh S 30.0 mph48.3 kmh 29.59 in1002.0 mb 0.00 in0.0 mm 0.00 in0.0 mm 0.02 in0.5 mm
07:10 AM 42.2°F5.7°C 36.8°F2.7°C 81% 14.0 mph S22.5 kmh S 30.0 mph48.3 kmh 29.59 in1002.0 mb 0.00 in0.0 mm 0.00 in0.0 mm 0.02 in0.5 mm
07:11 AM 42.2°F5.7°C 36.8°F2.7°C 81% 14.0 mph S22.5 kmh S 30.0 mph48.3 kmh 29.58 in1001.7 mb 0.00 in0.0 mm 0.00 in0.0 mm 0.02 in0.5 mm
07:13 AM 42.2°F5.7°C 36.8°F2.7°C 81% 14.0 mph S22.5 kmh S 30.0 mph48.3 kmh 29.58 in1001.7 mb 0.00 in0.0 mm 0.00 in0.0 mm 0.02 in0.5 mm
07:14 AM 42.2°F5.7°C 36.8°F2.7°C 81% 14.0 mph S22.5 kmh S 30.0 mph48.3 kmh 29.58 in1001.7 mb 0.00 in0.0 mm 0.00 in0.0 mm 0.02 in0.5 mm
07:15 AM 42.2°F5.7°C 36.8°F2.7°C 81% 14.0 mph S22.5 kmh S 30.0 mph48.3 kmh 29.58 in1001.7 mb 0.00 in0.0 mm 0.00 in0.0 mm 0.02 in0.5 mm
07:17 AM 42.2°F5.7°C 36.8°F2.7°C 81% 14.0 mph S22.5 kmh S 30.0 mph48.3 kmh 29.58 in1001.7 mb 0.00 in0.0 mm 0.00 in0.0 mm 0.02 in0.5 mm
07:18 AM 42.2°F5.7°C 37.1°F2.8°C 82% 15.0 mph S24.1 kmh S 26.0 mph41.8 kmh 29.58 in1001.7 mb 0.00 in0.0 mm 0.00 in0.0 mm 0.02 in0.5 mm
07:19 AM 42.2°F5.7°C 37.1°F2.8°C 82% 14.0 mph S22.5 kmh S 26.0 mph41.8 kmh 29.58 in1001.7 mb 0.00 in0.0 mm 0.00 in0.0 mm 0.02 in0.5 mm
07:21 AM 42.2°F5.7°C 37.1°F2.8°C 82% 14.0 mph S22.5 kmh S 26.0 mph41.8 kmh 29.57 in1001.4 mb 0.00 in0.0 mm 0.00 in0.0 mm 0.02 in0.5 mm
07:22 AM 42.2°F5.7°C 37.1°F2.8°C 82% 14.0 mph S22.5 kmh S 26.0 mph41.8 kmh 29.57 in1001.4 mb 0.00 in0.0 mm 0.00 in0.0 mm 0.02 in0.5 mm
07:24 AM 42.2°F5.7°C 36.8°F2.7°C 81% 15.0 mph S24.1 kmh S 26.0 mph41.8 kmh 29.58 in1001.7 mb 0.00 in0.0 mm 0.00 in0.0 mm 0.02 in0.5 mm
07:25 AM 42.2°F5.7°C 36.8°F2.7°C 81% 15.0 mph S24.1 kmh S 26.0 mph41.8 kmh 29.58 in1001.7 mb 0.00 in0.0 mm 0.00 in0.0 mm 0.02 in0.5 mm
07:27 AM 42.1°F5.6°C 37.0°F2.8°C 82% 14.0 mph S22.5 kmh S 26.0 mph41.8 kmh 29.58 in1001.7 mb 0.00 in0.0 mm 0.00 in0.0 mm 0.02 in0.5 mm
07:28 AM 42.1°F5.6°C 37.0°F2.8°C 82% 14.0 mph S22.5 kmh S 26.0 mph41.8 kmh 29.57 in1001.4 mb 0.00 in0.0 mm 0.00 in0.0 mm 0.02 in0.5 mm
07:30 AM 42.1°F5.6°C 37.0°F2.8°C 82% 14.0 mph S22.5 kmh S 27.0 mph43.5 kmh 29.57 in1001.4 mb 0.00 in0.0 mm 0.00 in0.0 mm 0.02 in0.5 mm
07:31 AM 42.1°F5.6°C 37.0°F2.8°C 82% 14.0 mph S22.5 kmh S 27.0 mph43.5 kmh 29.58 in1001.7 mb 0.00 in0.0 mm 0.00 in0.0 mm 0.02 in0.5 mm
07:33 AM 42.1°F5.6°C 37.3°F2.9°C 83% 13.0 mph S20.9 kmh S 27.0 mph43.5 kmh 29.57 in1001.4 mb 0.00 in0.0 mm 0.00 in0.0 mm 0.02 in0.5 mm
07:34 AM 42.1°F5.6°C 37.3°F2.9°C 83% 13.0 mph S20.9 kmh S 27.0 mph43.5 kmh 29.57 in1001.4 mb 0.00 in0.0 mm 0.00 in0.0 mm 0.02 in0.5 mm
07:35 AM 42.1°F5.6°C 37.0°F2.8°C 82% 14.0 mph S22.5 kmh S 27.0 mph43.5 kmh 29.57 in1001.4 mb 0.00 in0.0 mm 0.00 in0.0 mm 0.02 in0.5 mm
07:37 AM 42.1°F5.6°C 37.3°F2.9°C 83% 14.0 mph S22.5 kmh S 27.0 mph43.5 kmh 29.58 in1001.7 mb 0.00 in0.0 mm 0.00 in0.0 mm 0.02 in0.5 mm
07:38 AM 42.1°F5.6°C 37.3°F2.9°C 83% 14.0 mph S22.5 kmh S 27.0 mph43.5 kmh 29.57 in1001.4 mb 0.00 in0.0 mm 0.00 in0.0 mm 0.02 in0.5 mm
07:40 AM 42.1°F5.6°C 37.0°F2.8°C 82% 15.0 mph S24.1 kmh S 27.0 mph43.5 kmh 29.57 in1001.4 mb 0.00 in0.0 mm 0.00 in0.0 mm 0.02 in0.5 mm
07:41 AM 42.1°F5.6°C 37.0°F2.8°C 82% 15.0 mph S24.1 kmh S 27.0 mph43.5 kmh 29.57 in1001.4 mb 0.00 in0.0 mm 0.00 in0.0 mm 0.02 in0.5 mm
07:43 AM 42.1°F5.6°C 37.0°F2.8°C 82% 15.0 mph S24.1 kmh S 27.0 mph43.5 kmh 29.57 in1001.4 mb 0.00 in0.0 mm 0.00 in0.0 mm 0.02 in0.5 mm
07:44 AM 42.1°F5.6°C 37.0°F2.8°C 82% 15.0 mph S24.1 kmh S 27.0 mph43.5 kmh 29.57 in1001.4 mb 0.00 in0.0 mm 0.00 in0.0 mm 0.02 in0.5 mm
07:46 AM 42.1°F5.6°C 36.7°F2.6°C 81% 15.0 mph SSW24.1 kmh SSW 27.0 mph43.5 kmh 29.57 in1001.4 mb 0.00 in0.0 mm 0.00 in0.0 mm 0.02 in0.5 mm
07:47 AM 42.2°F5.7°C 37.1°F2.8°C 82% 15.0 mph SSW24.1 kmh SSW 27.0 mph43.5 kmh 29.57 in1001.4 mb 0.00 in0.0 mm 0.00 in0.0 mm 0.02 in0.5 mm
07:49 AM 42.2°F5.7°C 37.1°F2.8°C 82% 15.0 mph S24.1 kmh S 36.0 mph57.9 kmh 29.58 in1001.7 mb 0.00 in0.0 mm 0.00 in0.0 mm 0.02 in0.5 mm
07:50 AM 42.2°F5.7°C 36.8°F2.7°C 81% 15.0 mph S24.1 kmh S 36.0 mph57.9 kmh 29.57 in1001.4 mb 0.00 in0.0 mm 0.00 in0.0 mm 0.02 in0.5 mm
07:51 AM 42.2°F5.7°C 36.8°F2.7°C 81% 15.0 mph S24.1 kmh S 36.0 mph57.9 kmh 29.57 in1001.4 mb 0.00 in0.0 mm 0.00 in0.0 mm 0.02 in0.5 mm
07:53 AM 42.2°F5.7°C 37.1°F2.8°C 82% 16.0 mph S25.7 kmh S 36.0 mph57.9 kmh 29.57 in1001.4 mb 0.00 in0.0 mm 0.00 in0.0 mm 0.02 in0.5 mm
07:54 AM 42.2°F5.7°C 36.8°F2.7°C 81% 16.0 mph S25.7 kmh S 36.0 mph57.9 kmh 29.57 in1001.4 mb 0.00 in0.0 mm 0.00 in0.0 mm 0.02 in0.5 mm
07:56 AM 42.2°F5.7°C 36.8°F2.7°C 81% 16.0 mph S25.7 kmh S 36.0 mph57.9 kmh 29.57 in1001.4 mb 0.00 in0.0 mm 0.00 in0.0 mm 0.02 in0.5 mm
07:57 AM 42.2°F5.7°C 36.8°F2.7°C 81% 16.0 mph S25.7 kmh S 36.0 mph57.9 kmh 29.57 in1001.4 mb 0.00 in0.0 mm 0.00 in0.0 mm 0.02 in0.5 mm
07:59 AM 42.2°F5.7°C 36.8°F2.7°C 81% 16.0 mph S25.7 kmh S 29.0 mph46.7 kmh 29.57 in1001.4 mb 0.00 in0.0 mm 0.00 in0.0 mm 0.02 in0.5 mm
08:00 AM 42.1°F5.6°C 36.7°F2.6°C 81% 16.0 mph S25.7 kmh S 29.0 mph46.7 kmh 29.57 in1001.4 mb 0.00 in0.0 mm 0.00 in0.0 mm 0.02 in0.5 mm
08:01 AM 42.1°F5.6°C 36.7°F2.6°C 81% 16.0 mph S25.7 kmh S 30.0 mph48.3 kmh 29.57 in1001.4 mb 0.00 in0.0 mm 0.00 in0.0 mm 0.02 in0.5 mm
08:03 AM 42.1°F5.6°C 36.7°F2.6°C 81% 17.0 mph SSW27.4 kmh SSW 30.0 mph48.3 kmh 29.56 in1001.0 mb 0.00 in0.0 mm 0.00 in0.0 mm 0.02 in0.5 mm
08:04 AM 42.1°F5.6°C 36.7°F2.6°C 81% 17.0 mph SSW27.4 kmh SSW 30.0 mph48.3 kmh 29.57 in1001.4 mb 0.00 in0.0 mm 0.00 in0.0 mm 0.02 in0.5 mm
08:06 AM 42.1°F5.6°C 36.7°F2.6°C 81% 17.0 mph S27.4 kmh S 30.0 mph48.3 kmh 29.56 in1001.0 mb 0.00 in0.0 mm 0.00 in0.0 mm 0.02 in0.5 mm
08:07 AM 42.1°F5.6°C 36.7°F2.6°C 81% 17.0 mph S27.4 kmh S 30.0 mph48.3 kmh 29.57 in1001.4 mb 0.00 in0.0 mm 0.00 in0.0 mm 0.02 in0.5 mm
08:09 AM 42.1°F5.6°C 37.0°F2.8°C 82% 17.0 mph S27.4 kmh S 30.0 mph48.3 kmh 29.57 in1001.4 mb 0.00 in0.0 mm 0.00 in0.0 mm 0.02 in0.5 mm
08:10 AM 42.1°F5.6°C 36.7°F2.6°C 81% 17.0 mph S27.4 kmh S 33.0 mph53.1 kmh 29.56 in1001.0 mb 0.00 in0.0 mm 0.00 in0.0 mm 0.02 in0.5 mm
08:11 AM 42.1°F5.6°C 36.7°F2.6°C 81% 17.0 mph S27.4 kmh S 33.0 mph53.1 kmh 29.57 in1001.4 mb 0.00 in0.0 mm 0.00 in0.0 mm 0.02 in0.5 mm
08:13 AM 42.0°F5.6°C 36.9°F2.7°C 82% 17.0 mph S27.4 kmh S 33.0 mph53.1 kmh 29.56 in1001.0 mb 0.00 in0.0 mm 0.00 in0.0 mm 0.02 in0.5 mm
08:14 AM 42.0°F5.6°C 36.9°F2.7°C 82% 17.0 mph S27.4 kmh S 33.0 mph53.1 kmh 29.57 in1001.4 mb 0.00 in0.0 mm 0.00 in0.0 mm 0.02 in0.5 mm
08:16 AM 42.1°F5.6°C 37.0°F2.8°C 82% 17.0 mph S27.4 kmh S 33.0 mph53.1 kmh 29.56 in1001.0 mb 0.00 in0.0 mm 0.00 in0.0 mm 0.02 in0.5 mm
08:17 AM 42.1°F5.6°C 37.0°F2.8°C 82% 17.0 mph S27.4 kmh S 33.0 mph53.1 kmh 29.56 in1001.0 mb 0.00 in0.0 mm 0.00 in0.0 mm 0.02 in0.5 mm
08:18 AM 42.0°F5.6°C 36.6°F2.6°C 81% 17.0 mph SSW27.4 kmh SSW 33.0 mph53.1 kmh 29.57 in1001.4 mb 0.00 in0.0 mm 0.00 in0.0 mm 0.02 in0.5 mm
08:20 AM 42.1°F5.6°C 37.0°F2.8°C 82% 16.0 mph SSW25.7 kmh SSW 32.0 mph51.5 kmh 29.57 in1001.4 mb 0.00 in0.0 mm 0.00 in0.0 mm 0.02 in0.5 mm
08:21 AM 42.1°F5.6°C 37.0°F2.8°C 82% 16.0 mph SSW25.7 kmh SSW 32.0 mph51.5 kmh 29.56 in1001.0 mb 0.00 in0.0 mm 0.00 in0.0 mm 0.02 in0.5 mm
08:23 AM 42.1°F5.6°C 37.0°F2.8°C 82% 16.0 mph SSW25.7 kmh SSW 32.0 mph51.5 kmh 29.56 in1001.0 mb 0.00 in0.0 mm 0.00 in0.0 mm 0.02 in0.5 mm
08:24 AM 42.1°F5.6°C 37.0°F2.8°C 82% 16.0 mph SSW25.7 kmh SSW 32.0 mph51.5 kmh 29.56 in1001.0 mb 0.00 in0.0 mm 0.00 in0.0 mm 0.02 in0.5 mm
08:26 AM 42.1°F5.6°C 36.7°F2.6°C 81% 17.0 mph SSW27.4 kmh SSW 34.0 mph54.7 kmh 29.56 in1001.0 mb 0.00 in0.0 mm 0.00 in0.0 mm 0.02 in0.5 mm
08:27 AM 42.1°F5.6°C 36.7°F2.6°C 81% 17.0 mph SSW27.4 kmh SSW 34.0 mph54.7 kmh 29.57 in1001.4 mb 0.00 in0.0 mm 0.00 in0.0 mm 0.02 in0.5 mm
08:29 AM 42.1°F5.6°C 37.0°F2.8°C 82% 16.0 mph SSW25.7 kmh SSW 34.0 mph54.7 kmh 29.56 in1001.0 mb 0.00 in0.0 mm 0.00 in0.0 mm 0.02 in0.5 mm
08:30 AM 42.1°F5.6°C 37.0°F2.8°C 82% 16.0 mph SSW25.7 kmh SSW 34.0 mph54.7 kmh 29.56 in1001.0 mb 0.00 in0.0 mm 0.00 in0.0 mm 0.02 in0.5 mm
08:31 AM 42.1°F5.6°C 37.0°F2.8°C 82% 16.0 mph SSW25.7 kmh SSW 34.0 mph54.7 kmh 29.56 in1001.0 mb 0.00 in0.0 mm 0.00 in0.0 mm 0.02 in0.5 mm
08:33 AM 42.1°F5.6°C 37.0°F2.8°C 82% 16.0 mph SSW25.7 kmh SSW 34.0 mph54.7 kmh 29.56 in1001.0 mb 0.00 in0.0 mm 0.00 in0.0 mm 0.02 in0.5 mm
08:34 AM 42.1°F5.6°C 37.0°F2.8°C 82% 16.0 mph SSW25.7 kmh SSW 34.0 mph54.7 kmh 29.56 in1001.0 mb 0.00 in0.0 mm 0.00 in0.0 mm 0.02 in0.5 mm
08:35 AM 42.1°F5.6°C 37.0°F2.8°C 82% 15.0 mph SSW24.1 kmh SSW 29.0 mph46.7 kmh 29.56 in1001.0 mb 0.00 in0.0 mm 0.00 in0.0 mm 0.02 in0.5 mm
08:36 AM 42.1°F5.6°C 37.0°F2.8°C 82% 15.0 mph SSW24.1 kmh SSW 29.0 mph46.7 kmh 29.56 in1001.0 mb 0.00 in0.0 mm 0.00 in0.0 mm 0.02 in0.5 mm
08:37 AM 42.1°F5.6°C 37.0°F2.8°C 82% 15.0 mph SSW24.1 kmh SSW 29.0 mph46.7 kmh 29.56 in1001.0 mb 0.00 in0.0 mm 0.00 in0.0 mm 0.02 in0.5 mm
08:39 AM 42.1°F5.6°C 37.0°F2.8°C 82% 15.0 mph SSW24.1 kmh SSW 29.0 mph46.7 kmh 29.56 in1001.0 mb 0.00 in0.0 mm 0.00 in0.0 mm 0.02 in0.5 mm
08:41 AM 42.1°F5.6°C 37.0°F2.8°C 82% 16.0 mph SSW25.7 kmh SSW 30.0 mph48.3 kmh 29.56 in1001.0 mb 0.00 in0.0 mm 0.00 in0.0 mm 0.02 in0.5 mm
08:42 AM 42.2°F5.7°C 36.8°F2.7°C 81% 15.0 mph SSW24.1 kmh SSW 30.0 mph48.3 kmh 29.56 in1001.0 mb 0.00 in0.0 mm 0.00 in0.0 mm 0.02 in0.5 mm
08:44 AM 42.2°F5.7°C 37.1°F2.8°C 82% 16.0 mph SSW25.7 kmh SSW 30.0 mph48.3 kmh 29.55 in1000.7 mb 0.00 in0.0 mm 0.00 in0.0 mm 0.02 in0.5 mm
08:45 AM 42.2°F5.7°C 37.1°F2.8°C 82% 16.0 mph SSW25.7 kmh SSW 30.0 mph48.3 kmh 29.56 in1001.0 mb 0.00 in0.0 mm 0.00 in0.0 mm 0.02 in0.5 mm
08:47 AM 42.3°F5.7°C 37.2°F2.9°C 82% 17.0 mph SSW27.4 kmh SSW 30.0 mph48.3 kmh 29.55 in1000.7 mb 0.00 in0.0 mm 0.00 in0.0 mm 0.02 in0.5 mm
08:48 AM 42.3°F5.7°C 37.2°F2.9°C 82% 17.0 mph SSW27.4 kmh SSW 30.0 mph48.3 kmh 29.56 in1001.0 mb 0.00 in0.0 mm 0.00 in0.0 mm 0.02 in0.5 mm
08:50 AM 42.3°F5.7°C 37.5°F3.1°C 83% 17.0 mph SSW27.4 kmh SSW 30.0 mph48.3 kmh 29.56 in1001.0 mb 0.00 in0.0 mm 0.00 in0.0 mm 0.02 in0.5 mm
08:51 AM 42.3°F5.7°C 37.5°F3.1°C 83% 16.0 mph SSW25.7 kmh SSW 30.0 mph48.3 kmh 29.56 in1001.0 mb 0.00 in0.0 mm 0.00 in0.0 mm 0.02 in0.5 mm
08:52 AM 42.2°F5.7°C 37.4°F3.0°C 83% 16.0 mph SSW25.7 kmh SSW 30.0 mph48.3 kmh 29.55 in1000.7 mb 0.00 in0.0 mm 0.00 in0.0 mm 0.02 in0.5 mm
08:54 AM 42.2°F5.7°C 37.1°F2.8°C 82% 16.0 mph SSW25.7 kmh SSW 30.0 mph48.3 kmh 29.55 in1000.7 mb 0.00 in0.0 mm 0.00 in0.0 mm 0.02 in0.5 mm
08:55 AM 42.2°F5.7°C 37.1°F2.8°C 82% 16.0 mph SSW25.7 kmh SSW 30.0 mph48.3 kmh 29.55 in1000.7 mb 0.00 in0.0 mm 0.00 in0.0 mm 0.02 in0.5 mm
08:56 AM 42.3°F5.7°C 37.2°F2.9°C 82% 16.0 mph SSW25.7 kmh SSW 30.0 mph48.3 kmh 29.55 in1000.7 mb 0.00 in0.0 mm 0.00 in0.0 mm 0.02 in0.5 mm
08:57 AM 42.2°F5.7°C 37.4°F3.0°C 83% 16.0 mph SSW25.7 kmh SSW 27.0 mph43.5 kmh 29.55 in1000.7 mb 0.00 in0.0 mm 0.00 in0.0 mm 0.02 in0.5 mm
08:58 AM 42.2°F5.7°C 37.1°F2.8°C 82% 16.0 mph SSW25.7 kmh SSW 27.0 mph43.5 kmh 29.55 in1000.7 mb 0.00 in0.0 mm 0.00 in0.0 mm 0.02 in0.5 mm
09:00 AM 42.2°F5.7°C 37.1°F2.8°C 82% 16.0 mph SSW25.7 kmh SSW 30.0 mph48.3 kmh 29.55 in1000.7 mb 0.00 in0.0 mm 0.00 in0.0 mm 0.02 in0.5 mm
09:01 AM 42.2°F5.7°C 37.1°F2.8°C 82% 16.0 mph SSW25.7 kmh SSW 30.0 mph48.3 kmh 29.55 in1000.7 mb 0.00 in0.0 mm 0.00 in0.0 mm 0.02 in0.5 mm
09:03 AM 42.1°F5.6°C 37.3°F2.9°C 83% 18.0 mph SSW29.0 kmh SSW 30.0 mph48.3 kmh 29.55 in1000.7 mb 0.00 in0.0 mm 0.00 in0.0 mm 0.02 in0.5 mm
09:04 AM 42.1°F5.6°C 37.3°F2.9°C 83% 18.0 mph SSW29.0 kmh SSW 30.0 mph48.3 kmh 29.55 in1000.7 mb 0.00 in0.0 mm 0.00 in0.0 mm 0.02 in0.5 mm
09:05 AM 42.0°F5.6°C 37.5°F3.1°C 84% 17.0 mph SSW27.4 kmh SSW 30.0 mph48.3 kmh 29.55 in1000.7 mb 0.00 in0.0 mm 0.00 in0.0 mm 0.02 in0.5 mm
09:07 AM 41.9°F5.5°C 37.4°F3.0°C 84% 18.0 mph SSW29.0 kmh SSW 31.0 mph49.9 kmh 29.55 in1000.7 mb 0.00 in0.0 mm 0.00 in0.0 mm 0.02 in0.5 mm
09:08 AM 41.8°F5.4°C 37.3°F2.9°C 84% 18.0 mph SSW29.0 kmh SSW 31.0 mph49.9 kmh 29.55 in1000.7 mb 0.00 in0.0 mm 0.00 in0.0 mm 0.02 in0.5 mm
09:10 AM 41.7°F5.4°C 37.5°F3.1°C 85% 18.0 mph SSW29.0 kmh SSW 31.0 mph49.9 kmh 29.55 in1000.7 mb 0.00 in0.0 mm 0.00 in0.0 mm 0.02 in0.5 mm
09:11 AM 41.7°F5.4°C 37.5°F3.1°C 85% 19.0 mph SSW30.6 kmh SSW 31.0 mph49.9 kmh 29.56 in1001.0 mb 0.00 in0.0 mm 0.00 in0.0 mm 0.02 in0.5 mm
09:13 AM 41.5°F5.3°C 37.3°F2.9°C 85% 18.0 mph SSW29.0 kmh SSW 31.0 mph49.9 kmh 29.55 in1000.7 mb 0.00 in0.0 mm 0.00 in0.0 mm 0.02 in0.5 mm
09:14 AM 41.5°F5.3°C 37.3°F2.9°C 85% 18.0 mph SSW29.0 kmh SSW 31.0 mph49.9 kmh 29.55 in1000.7 mb 0.00 in0.0 mm 0.00 in0.0 mm 0.02 in0.5 mm
09:16 AM 41.4°F5.2°C 37.2°F2.9°C 85% 18.0 mph SSW29.0 kmh SSW 31.0 mph49.9 kmh 29.55 in1000.7 mb 0.00 in0.0 mm 0.00 in0.0 mm 0.02 in0.5 mm
09:17 AM 41.3°F5.2°C 37.1°F2.8°C 85% 17.0 mph SSW27.4 kmh SSW 31.0 mph49.9 kmh 29.55 in1000.7 mb 0.00 in0.0 mm 0.00 in0.0 mm 0.02 in0.5 mm
09:19 AM 41.2°F5.1°C 37.0°F2.8°C 85% 17.0 mph SSW27.4 kmh SSW 31.0 mph49.9 kmh 29.55 in1000.7 mb 0.00 in0.0 mm 0.00 in0.0 mm 0.02 in0.5 mm
09:21 AM 41.1°F5.1°C 36.9°F2.7°C 85% 16.0 mph SSW25.7 kmh SSW 29.0 mph46.7 kmh 29.55 in1000.7 mb 0.00 in0.0 mm 0.00 in0.0 mm 0.02 in0.5 mm
09:22 AM 41.2°F5.1°C 37.0°F2.8°C 85% 15.0 mph SSW24.1 kmh SSW 27.0 mph43.5 kmh 29.55 in1000.7 mb 0.00 in0.0 mm 0.00 in0.0 mm 0.02 in0.5 mm
09:24 AM 41.1°F5.1°C 36.9°F2.7°C 85% 15.0 mph SSW24.1 kmh SSW 27.0 mph43.5 kmh 29.55 in1000.7 mb 0.00 in0.0 mm 0.00 in0.0 mm 0.02 in0.5 mm
09:25 AM 41.0°F5.0°C 36.8°F2.7°C 85% 15.0 mph SSW24.1 kmh SSW 27.0 mph43.5 kmh 29.54 in1000.3 mb 0.00 in0.0 mm 0.00 in0.0 mm 0.02 in0.5 mm
09:27 AM 40.9°F4.9°C 36.7°F2.6°C 85% 15.0 mph SSW24.1 kmh SSW 26.0 mph41.8 kmh 29.55 in1000.7 mb 0.00 in0.0 mm 0.00 in0.0 mm 0.02 in0.5 mm
09:28 AM 40.9°F4.9°C 36.7°F2.6°C 85% 15.0 mph SSW24.1 kmh SSW 26.0 mph41.8 kmh 29.55 in1000.7 mb 0.00 in0.0 mm 0.00 in0.0 mm 0.02 in0.5 mm
09:29 AM 40.7°F4.8°C 36.5°F2.5°C 85% 16.0 mph SSW25.7 kmh SSW 32.0 mph51.5 kmh 29.55 in1000.7 mb 0.00 in0.0 mm 0.00 in0.0 mm 0.02 in0.5 mm
09:30 AM 40.5°F4.7°C 36.0°F2.2°C 84% 16.0 mph SSW25.7 kmh SSW 32.0 mph51.5 kmh 29.55 in1000.7 mb 0.00 in0.0 mm 0.00 in0.0 mm 0.02 in0.5 mm
09:31 AM 40.3°F4.6°C 35.8°F2.1°C 84% 18.0 mph SSW29.0 kmh SSW 32.0 mph51.5 kmh 29.55 in1000.7 mb 0.00 in0.0 mm 0.00 in0.0 mm 0.02 in0.5 mm
09:33 AM 40.1°F4.5°C 36.2°F2.3°C 86% 18.0 mph SSW29.0 kmh SSW 32.0 mph51.5 kmh 29.55 in1000.7 mb 0.00 in0.0 mm 0.00 in0.0 mm 0.02 in0.5 mm
09:34 AM 40.1°F4.5°C 36.2°F2.3°C 86% 18.0 mph SSW29.0 kmh SSW 32.0 mph51.5 kmh 29.54 in1000.3 mb 0.00 in0.0 mm 0.00 in0.0 mm 0.02 in0.5 mm
09:36 AM 40.0°F4.4°C 36.4°F2.4°C 87% 19.0 mph SSW30.6 kmh SSW 32.0 mph51.5 kmh 29.54 in1000.3 mb 0.00 in0.0 mm 0.00 in0.0 mm 0.02 in0.5 mm
09:37 AM 40.0°F4.4°C 36.7°F2.6°C 88% 18.0 mph SSW29.0 kmh SSW 32.0 mph51.5 kmh 29.54 in1000.3 mb 0.00 in0.0 mm 0.00 in0.0 mm 0.02 in0.5 mm
09:39 AM 39.9°F4.4°C 36.6°F2.6°C 88% 18.0 mph S29.0 kmh S 32.0 mph51.5 kmh 29.54 in1000.3 mb 0.00 in0.0 mm 0.00 in0.0 mm 0.02 in0.5 mm
09:40 AM 39.9°F4.4°C 36.6°F2.6°C 88% 17.0 mph S27.4 kmh S 31.0 mph49.9 kmh 29.54 in1000.3 mb 0.00 in0.0 mm 0.00 in0.0 mm 0.02 in0.5 mm
09:41 AM 39.9°F4.4°C 36.6°F2.6°C 88% 16.0 mph S25.7 kmh S 29.0 mph46.7 kmh 29.54 in1000.3 mb 0.00 in0.0 mm 0.00 in0.0 mm 0.02 in0.5 mm
09:43 AM 39.9°F4.4°C 36.6°F2.6°C 88% 17.0 mph S27.4 kmh S 29.0 mph46.7 kmh 29.54 in1000.3 mb 0.00 in0.0 mm 0.00 in0.0 mm 0.02 in0.5 mm
09:44 AM 39.9°F4.4°C 36.6°F2.6°C 88% 17.0 mph S27.4 kmh S 29.0 mph46.7 kmh 29.54 in1000.3 mb 0.00 in0.0 mm 0.00 in0.0 mm 0.02 in0.5 mm
09:46 AM 39.8°F4.3°C 36.5°F2.5°C 88% 16.0 mph S25.7 kmh S 34.0 mph54.7 kmh 29.54 in1000.3 mb 0.00 in0.0 mm 0.00 in0.0 mm 0.02 in0.5 mm
09:47 AM 39.7°F4.3°C 36.4°F2.4°C 88% 16.0 mph S25.7 kmh S 34.0 mph54.7 kmh 29.54 in1000.3 mb 0.00 in0.0 mm 0.00 in0.0 mm 0.02 in0.5 mm
09:49 AM 39.7°F4.3°C 36.4°F2.4°C 88% 16.0 mph S25.7 kmh S 34.0 mph54.7 kmh 29.54 in1000.3 mb 0.00 in0.0 mm 0.00 in0.0 mm 0.02 in0.5 mm
09:50 AM 39.7°F4.3°C 36.4°F2.4°C 88% 16.0 mph S25.7 kmh S 34.0 mph54.7 kmh 29.54 in1000.3 mb 0.00 in0.0 mm 0.00 in0.0 mm 0.02 in0.5 mm
09:51 AM 39.7°F4.3°C 36.4°F2.4°C 88% 16.0 mph S25.7 kmh S 34.0 mph54.7 kmh 29.54 in1000.3 mb 0.00 in0.0 mm 0.00 in0.0 mm 0.02 in0.5 mm
09:52 AM 39.7°F4.3°C 36.7°F2.6°C 89% 16.0 mph S25.7 kmh S 34.0 mph54.7 kmh 29.53 in1000.0 mb 0.00 in0.0 mm 0.00 in0.0 mm 0.02 in0.5 mm
09:53 AM 39.7°F4.3°C 36.7°F2.6°C 89% 15.0 mph S24.1 kmh S 34.0 mph54.7 kmh 29.53 in1000.0 mb 0.00 in0.0 mm 0.00 in0.0 mm 0.02 in0.5 mm
09:54 AM 39.8°F4.3°C 36.8°F2.7°C 89% 15.0 mph S24.1 kmh S 34.0 mph54.7 kmh 29.53 in1000.0 mb 0.00 in0.0 mm 0.00 in0.0 mm 0.02 in0.5 mm
09:56 AM 39.8°F4.3°C 36.8°F2.7°C 89% 16.0 mph S25.7 kmh S 27.0 mph43.5 kmh 29.53 in1000.0 mb 0.00 in0.0 mm 0.00 in0.0 mm 0.02 in0.5 mm
09:57 AM 39.9°F4.4°C 36.9°F2.7°C 89% 16.0 mph S25.7 kmh S 27.0 mph43.5 kmh 29.53 in1000.0 mb 0.00 in0.0 mm 0.00 in0.0 mm 0.02 in0.5 mm
09:59 AM 39.9°F4.4°C 36.9°F2.7°C 89% 16.0 mph S25.7 kmh S 31.0 mph49.9 kmh 29.53 in1000.0 mb 0.00 in0.0 mm 0.00 in0.0 mm 0.02 in0.5 mm
10:00 AM 39.9°F4.4°C 36.9°F2.7°C 89% 16.0 mph S25.7 kmh S 31.0 mph49.9 kmh 29.53 in1000.0 mb 0.00 in0.0 mm 0.00 in0.0 mm 0.02 in0.5 mm
10:02 AM 39.9°F4.4°C 36.6°F2.6°C 88% 17.0 mph S27.4 kmh S 31.0 mph49.9 kmh 29.52 in999.7 mb 0.00 in0.0 mm 0.00 in0.0 mm 0.02 in0.5 mm
10:03 AM 39.9°F4.4°C 36.3°F2.4°C 87% 18.0 mph S29.0 kmh S 31.0 mph49.9 kmh 29.53 in1000.0 mb 0.00 in0.0 mm 0.00 in0.0 mm 0.02 in0.5 mm
10:05 AM 40.0°F4.4°C 36.7°F2.6°C 88% 18.0 mph S29.0 kmh S 31.0 mph49.9 kmh 29.53 in1000.0 mb 0.00 in0.0 mm 0.00 in0.0 mm 0.02 in0.5 mm
10:06 AM 40.0°F4.4°C 36.7°F2.6°C 88% 18.0 mph S29.0 kmh S 31.0 mph49.9 kmh 29.52 in999.7 mb 0.00 in0.0 mm 0.00 in0.0 mm 0.02 in0.5 mm
10:08 AM 40.0°F4.4°C 36.4°F2.4°C 87% 18.0 mph S29.0 kmh S 31.0 mph49.9 kmh 29.53 in1000.0 mb 0.00 in0.0 mm 0.00 in0.0 mm 0.02 in0.5 mm
10:09 AM 40.0°F4.4°C 36.4°F2.4°C 87% 18.0 mph S29.0 kmh S 31.0 mph49.9 kmh 29.52 in999.7 mb 0.00 in0.0 mm 0.00 in0.0 mm 0.02 in0.5 mm
10:10 AM 40.0°F4.4°C 36.7°F2.6°C 88% 18.0 mph S29.0 kmh S 31.0 mph49.9 kmh 29.52 in999.7 mb 0.00 in0.0 mm 0.00 in0.0 mm 0.02 in0.5 mm
10:11 AM 39.9°F4.4°C 36.6°F2.6°C 88% 18.0 mph S29.0 kmh S 31.0 mph49.9 kmh 29.52 in999.7 mb 0.00 in0.0 mm 0.00 in0.0 mm 0.02 in0.5 mm
10:13 AM 39.9°F4.4°C 36.6°F2.6°C 88% 17.0 mph S27.4 kmh S 30.0 mph48.3 kmh 29.52 in999.7 mb 0.00 in0.0 mm 0.00 in0.0 mm 0.02 in0.5 mm
10:14 AM 39.9°F4.4°C 36.6°F2.6°C 88% 17.0 mph S27.4 kmh S 30.0 mph48.3 kmh 29.52 in999.7 mb 0.00 in0.0 mm 0.00 in0.0 mm 0.02 in0.5 mm
10:16 AM 39.8°F4.3°C 36.5°F2.5°C 88% 16.0 mph S25.7 kmh S 30.0 mph48.3 kmh 29.52 in999.7 mb 0.00 in0.0 mm 0.00 in0.0 mm 0.02 in0.5 mm
10:17 AM 39.7°F4.3°C 36.4°F2.4°C 88% 16.0 mph S25.7 kmh S 30.0 mph48.3 kmh 29.52 in999.7 mb 0.00 in0.0 mm 0.00 in0.0 mm 0.02 in0.5 mm
10:19 AM 39.8°F4.3°C 36.8°F2.7°C 89% 16.0 mph S25.7 kmh S 30.0 mph48.3 kmh 29.52 in999.7 mb 0.00 in0.0 mm 0.00 in0.0 mm 0.02 in0.5 mm
10:20 AM 39.9°F4.4°C 36.9°F2.7°C 89% 16.0 mph S25.7 kmh S 30.0 mph48.3 kmh 29.52 in999.7 mb 0.00 in0.0 mm 0.00 in0.0 mm 0.02 in0.5 mm
10:21 AM 39.9°F4.4°C 36.9°F2.7°C 89% 17.0 mph S27.4 kmh S 30.0 mph48.3 kmh 29.52 in999.7 mb 0.00 in0.0 mm 0.00 in0.0 mm 0.02 in0.5 mm
10:23 AM 40.0°F4.4°C 36.7°F2.6°C 88% 17.0 mph S27.4 kmh S 30.0 mph48.3 kmh 29.52 in999.7 mb 0.00 in0.0 mm 0.00 in0.0 mm 0.02 in0.5 mm
10:24 AM 40.0°F4.4°C 37.0°F2.8°C 89% 17.0 mph S27.4 kmh S 30.0 mph48.3 kmh 29.52 in999.7 mb 0.00 in0.0 mm 0.00 in0.0 mm 0.02 in0.5 mm
10:26 AM 40.1°F4.5°C 37.1°F2.8°C 89% 16.0 mph S25.7 kmh S 30.0 mph48.3 kmh 29.52 in999.7 mb 0.00 in0.0 mm 0.00 in0.0 mm 0.02 in0.5 mm
10:27 AM 40.1°F4.5°C 37.1°F2.8°C 89% 16.0 mph S25.7 kmh S 30.0 mph48.3 kmh 29.52 in999.7 mb 0.00 in0.0 mm 0.00 in0.0 mm 0.02 in0.5 mm
10:29 AM 40.1°F4.5°C 36.8°F2.7°C 88% 17.0 mph S27.4 kmh S 30.0 mph48.3 kmh 29.52 in999.7 mb 0.00 in0.0 mm 0.00 in0.0 mm 0.02 in0.5 mm
10:31 AM 40.2°F4.6°C 37.2°F2.9°C 89% 16.0 mph S25.7 kmh S 28.0 mph45.1 kmh 29.52 in999.7 mb 0.00 in0.0 mm 0.00 in0.0 mm 0.02 in0.5 mm
10:32 AM 40.2°F4.6°C 37.2°F2.9°C 89% 15.0 mph S24.1 kmh S 30.0 mph48.3 kmh 29.52 in999.7 mb 0.00 in0.0 mm 0.00 in0.0 mm 0.02 in0.5 mm
10:34 AM 40.2°F4.6°C 37.2°F2.9°C 89% 16.0 mph S25.7 kmh S 30.0 mph48.3 kmh 29.52 in999.7 mb 0.00 in0.0 mm 0.00 in0.0 mm 0.02 in0.5 mm
10:35 AM 40.2°F4.6°C 37.2°F2.9°C 89% 16.0 mph S25.7 kmh S 30.0 mph48.3 kmh 29.52 in999.7 mb 0.00 in0.0 mm 0.00 in0.0 mm 0.02 in0.5 mm
10:37 AM 40.2°F4.6°C 36.9°F2.7°C 88% 17.0 mph S27.4 kmh S 30.0 mph48.3 kmh 29.51 in999.3 mb 0.00 in0.0 mm 0.00 in0.0 mm 0.02 in0.5 mm
10:38 AM 40.2°F4.6°C 37.2°F2.9°C 89% 16.0 mph S25.7 kmh S 30.0 mph48.3 kmh 29.52 in999.7 mb 0.00 in0.0 mm 0.00 in0.0 mm 0.02 in0.5 mm
10:39 AM 40.2°F4.6°C 37.2°F2.9°C 89% 16.0 mph S25.7 kmh S 30.0 mph48.3 kmh 29.51 in999.3 mb 0.00 in0.0 mm 0.00 in0.0 mm 0.02 in0.5 mm
10:40 AM 40.2°F4.6°C 37.2°F2.9°C 89% 16.0 mph S25.7 kmh S 30.0 mph48.3 kmh 29.52 in999.7 mb 0.00 in0.0 mm 0.00 in0.0 mm 0.02 in0.5 mm
10:41 AM 40.2°F4.6°C 37.2°F2.9°C 89% 16.0 mph S25.7 kmh S 30.0 mph48.3 kmh 29.51 in999.3 mb 0.00 in0.0 mm 0.00 in0.0 mm 0.02 in0.5 mm
10:43 AM 40.1°F4.5°C 36.8°F2.7°C 88% 16.0 mph S25.7 kmh S 27.0 mph43.5 kmh 29.51 in999.3 mb 0.00 in0.0 mm 0.00 in0.0 mm 0.02 in0.5 mm
10:44 AM 40.0°F4.4°C 36.7°F2.6°C 88% 16.0 mph S25.7 kmh S 27.0 mph43.5 kmh 29.51 in999.3 mb 0.00 in0.0 mm 0.00 in0.0 mm 0.02 in0.5 mm
10:46 AM 40.0°F4.4°C 37.0°F2.8°C 89% 16.0 mph S25.7 kmh S 29.0 mph46.7 kmh 29.51 in999.3 mb 0.00 in0.0 mm 0.00 in0.0 mm 0.02 in0.5 mm
10:47 AM 39.9°F4.4°C 36.9°F2.7°C 89% 16.0 mph S25.7 kmh S 29.0 mph46.7 kmh 29.51 in999.3 mb 0.00 in0.0 mm 0.00 in0.0 mm 0.02 in0.5 mm
10:49 AM 39.8°F4.3°C 36.8°F2.7°C 89% 16.0 mph S25.7 kmh S 29.0 mph46.7 kmh 29.51 in999.3 mb 0.00 in0.0 mm 0.00 in0.0 mm 0.02 in0.5 mm
10:50 AM 39.8°F4.3°C 36.8°F2.7°C 89% 16.0 mph S25.7 kmh S 29.0 mph46.7 kmh 29.51 in999.3 mb 0.00 in0.0 mm 0.00 in0.0 mm 0.02 in0.5 mm
10:51 AM 39.8°F4.3°C 36.8°F2.7°C 89% 17.0 mph S27.4 kmh S 29.0 mph46.7 kmh 29.51 in999.3 mb 0.00 in0.0 mm 0.00 in0.0 mm 0.02 in0.5 mm
10:53 AM 39.8°F4.3°C 36.8°F2.7°C 89% 16.0 mph S25.7 kmh S 29.0 mph46.7 kmh 29.51 in999.3 mb 0.00 in0.0 mm 0.00 in0.0 mm 0.02 in0.5 mm
10:54 AM 39.8°F4.3°C 36.8°F2.7°C 89% 16.0 mph S25.7 kmh S 29.0 mph46.7 kmh 29.50 in999.0 mb 0.00 in0.0 mm 0.00 in0.0 mm 0.02 in0.5 mm
10:56 AM 39.8°F4.3°C 36.8°F2.7°C 89% 17.0 mph S27.4 kmh S 28.0 mph45.1 kmh 29.50 in999.0 mb 0.00 in0.0 mm 0.00 in0.0 mm 0.02 in0.5 mm
10:57 AM 39.9°F4.4°C 36.9°F2.7°C 89% 17.0 mph S27.4 kmh S 28.0 mph45.1 kmh 29.50 in999.0 mb 0.00 in0.0 mm 0.00 in0.0 mm 0.02 in0.5 mm
10:59 AM 39.8°F4.3°C 36.8°F2.7°C 89% 17.0 mph S27.4 kmh S 28.0 mph45.1 kmh 29.50 in999.0 mb 0.00 in0.0 mm 0.00 in0.0 mm 0.02 in0.5 mm
11:00 AM 39.7°F4.3°C 36.7°F2.6°C 89% 17.0 mph S27.4 kmh S 26.0 mph41.8 kmh 29.50 in999.0 mb 0.00 in0.0 mm 0.00 in0.0 mm 0.02 in0.5 mm
11:02 AM 39.7°F4.3°C 36.7°F2.6°C 89% 16.0 mph S25.7 kmh S 26.0 mph41.8 kmh 29.50 in999.0 mb 0.00 in0.0 mm 0.00 in0.0 mm 0.02 in0.5 mm
11:03 AM 39.7°F4.3°C 36.7°F2.6°C 89% 16.0 mph S25.7 kmh S 26.0 mph41.8 kmh 29.50 in999.0 mb 0.00 in0.0 mm 0.00 in0.0 mm 0.02 in0.5 mm
11:04 AM 39.7°F4.3°C 36.7°F2.6°C 89% 16.0 mph S25.7 kmh S 25.0 mph40.2 kmh 29.50 in999.0 mb 0.00 in0.0 mm 0.00 in0.0 mm 0.02 in0.5 mm
11:06 AM 39.8°F4.3°C 37.1°F2.8°C 90% 15.0 mph S24.1 kmh S 28.0 mph45.1 kmh 29.50 in999.0 mb 0.00 in0.0 mm 0.00 in0.0 mm 0.02 in0.5 mm
11:07 AM 39.8°F4.3°C 37.1°F2.8°C 90% 15.0 mph S24.1 kmh S 30.0 mph48.3 kmh 29.50 in999.0 mb 0.00 in0.0 mm 0.00 in0.0 mm 0.02 in0.5 mm
11:09 AM 39.9°F4.4°C 37.2°F2.9°C 90% 15.0 mph S24.1 kmh S 30.0 mph48.3 kmh 29.50 in999.0 mb 0.00 in0.0 mm 0.00 in0.0 mm 0.02 in0.5 mm
11:10 AM 39.8°F4.3°C 37.1°F2.8°C 90% 15.0 mph S24.1 kmh S 30.0 mph48.3 kmh 29.50 in999.0 mb 0.00 in0.0 mm 0.00 in0.0 mm 0.02 in0.5 mm
11:11 AM 39.8°F4.3°C 36.8°F2.7°C 89% 15.0 mph S24.1 kmh S 30.0 mph48.3 kmh 29.50 in999.0 mb 0.00 in0.0 mm 0.00 in0.0 mm 0.02 in0.5 mm
11:13 AM 39.7°F4.3°C 36.7°F2.6°C 89% 16.0 mph S25.7 kmh S 30.0 mph48.3 kmh 29.49 in998.6 mb 0.00 in0.0 mm 0.00 in0.0 mm 0.02 in0.5 mm
11:14 AM 39.7°F4.3°C 36.7°F2.6°C 89% 16.0 mph S25.7 kmh S 30.0 mph48.3 kmh 29.50 in999.0 mb 0.00 in0.0 mm 0.00 in0.0 mm 0.02 in0.5 mm
11:16 AM 39.7°F4.3°C 36.7°F2.6°C 89% 17.0 mph S27.4 kmh S 30.0 mph48.3 kmh 29.50 in999.0 mb 0.00 in0.0 mm 0.00 in0.0 mm 0.02 in0.5 mm
11:17 AM 39.7°F4.3°C 36.7°F2.6°C 89% 16.0 mph S25.7 kmh S 29.0 mph46.7 kmh 29.49 in998.6 mb 0.00 in0.0 mm 0.00 in0.0 mm 0.02 in0.5 mm
11:19 AM 39.7°F4.3°C 36.7°F2.6°C 89% 17.0 mph S27.4 kmh S 29.0 mph46.7 kmh 29.49 in998.6 mb 0.00 in0.0 mm 0.00 in0.0 mm 0.02 in0.5 mm
11:20 AM 39.7°F4.3°C 37.0°F2.8°C 90% 17.0 mph S27.4 kmh S 29.0 mph46.7 kmh 29.49 in998.6 mb 0.00 in0.0 mm 0.00 in0.0 mm 0.02 in0.5 mm
11:21 AM 39.6°F4.2°C 36.9°F2.7°C 90% 16.0 mph S25.7 kmh S 29.0 mph46.7 kmh 29.49 in998.6 mb 0.00 in0.0 mm 0.00 in0.0 mm 0.02 in0.5 mm
11:22 AM 39.6°F4.2°C 36.9°F2.7°C 90% 17.0 mph S27.4 kmh S 29.0 mph46.7 kmh 29.49 in998.6 mb 0.00 in0.0 mm 0.00 in0.0 mm 0.02 in0.5 mm
11:24 AM 39.6°F4.2°C 36.9°F2.7°C 90% 16.0 mph S25.7 kmh S 29.0 mph46.7 kmh 29.49 in998.6 mb 0.00 in0.0 mm 0.00 in0.0 mm 0.02 in0.5 mm
11:25 AM 39.5°F4.2°C 36.5°F2.5°C 89% 17.0 mph S27.4 kmh S 29.0 mph46.7 kmh 29.49 in998.6 mb 0.00 in0.0 mm 0.00 in0.0 mm 0.02 in0.5 mm
11:27 AM 39.5°F4.2°C 36.8°F2.7°C 90% 17.0 mph S27.4 kmh S 28.0 mph45.1 kmh 29.50 in999.0 mb 0.00 in0.0 mm 0.00 in0.0 mm 0.02 in0.5 mm
11:28 AM 39.5°F4.2°C 36.8°F2.7°C 90% 17.0 mph S27.4 kmh S 29.0 mph46.7 kmh 29.50 in999.0 mb 0.00 in0.0 mm 0.00 in0.0 mm 0.02 in0.5 mm
11:30 AM 39.5°F4.2°C 36.8°F2.7°C 90% 17.0 mph S27.4 kmh S 29.0 mph46.7 kmh 29.50 in999.0 mb 0.00 in0.0 mm 0.00 in0.0 mm 0.02 in0.5 mm
11:31 AM 39.5°F4.2°C 36.8°F2.7°C 90% 17.0 mph S27.4 kmh S 29.0 mph46.7 kmh 29.49 in998.6 mb 0.00 in0.0 mm 0.00 in0.0 mm 0.02 in0.5 mm
11:33 AM 39.6°F4.2°C 36.9°F2.7°C 90% 16.0 mph S25.7 kmh S 29.0 mph46.7 kmh 29.49 in998.6 mb 0.00 in0.0 mm 0.00 in0.0 mm 0.02 in0.5 mm
11:34 AM 39.6°F4.2°C 36.9°F2.7°C 90% 16.0 mph S25.7 kmh S 29.0 mph46.7 kmh 29.49 in998.6 mb 0.00 in0.0 mm 0.00 in0.0 mm 0.02 in0.5 mm
11:36 AM 39.7°F4.3°C 37.0°F2.8°C 90% 15.0 mph S24.1 kmh S 29.0 mph46.7 kmh 29.50 in999.0 mb 0.00 in0.0 mm 0.00 in0.0 mm 0.02 in0.5 mm
11:37 AM 39.7°F4.3°C 37.0°F2.8°C 90% 15.0 mph S24.1 kmh S 29.0 mph46.7 kmh 29.49 in998.6 mb 0.00 in0.0 mm 0.00 in0.0 mm 0.02 in0.5 mm
11:39 AM 39.6°F4.2°C 36.9°F2.7°C 90% 15.0 mph S24.1 kmh S 30.0 mph48.3 kmh 29.49 in998.6 mb 0.00 in0.0 mm 0.00 in0.0 mm 0.02 in0.5 mm
11:40 AM 39.7°F4.3°C 37.0°F2.8°C 90% 15.0 mph S24.1 kmh S 30.0 mph48.3 kmh 29.49 in998.6 mb 0.00 in0.0 mm 0.00 in0.0 mm 0.02 in0.5 mm
11:41 AM 39.7°F4.3°C 37.0°F2.8°C 90% 16.0 mph S25.7 kmh S 30.0 mph48.3 kmh 29.49 in998.6 mb 0.00 in0.0 mm 0.00 in0.0 mm 0.02 in0.5 mm
11:43 AM 39.8°F4.3°C 37.1°F2.8°C 90% 16.0 mph S25.7 kmh S 30.0 mph48.3 kmh 29.49 in998.6 mb 0.00 in0.0 mm 0.00 in0.0 mm 0.02 in0.5 mm
11:44 AM 39.9°F4.4°C 37.2°F2.9°C 90% 16.0 mph S25.7 kmh S 30.0 mph48.3 kmh 29.49 in998.6 mb 0.00 in0.0 mm 0.00 in0.0 mm 0.02 in0.5 mm
11:45 AM 39.9°F4.4°C 37.2°F2.9°C 90% 16.0 mph S25.7 kmh S 30.0 mph48.3 kmh 29.49 in998.6 mb 0.00 in0.0 mm 0.00 in0.0 mm 0.02 in0.5 mm
11:47 AM 39.9°F4.4°C 37.2°F2.9°C 90% 17.0 mph S27.4 kmh S 30.0 mph48.3 kmh 29.49 in998.6 mb 0.00 in0.0 mm 0.00 in0.0 mm 0.02 in0.5 mm
11:48 AM 39.8°F4.3°C 37.1°F2.8°C 90% 17.0 mph S27.4 kmh S 28.0 mph45.1 kmh 29.49 in998.6 mb 0.00 in0.0 mm 0.00 in0.0 mm 0.02 in0.5 mm
11:50 AM 39.9°F4.4°C 37.2°F2.9°C 90% 17.0 mph S27.4 kmh S 28.0 mph45.1 kmh 29.49 in998.6 mb 0.00 in0.0 mm 0.00 in0.0 mm 0.02 in0.5 mm
11:51 AM 39.9°F4.4°C 37.2°F2.9°C 90% 17.0 mph S27.4 kmh S 28.0 mph45.1 kmh 29.49 in998.6 mb 0.00 in0.0 mm 0.00 in0.0 mm 0.02 in0.5 mm
11:53 AM 39.9°F4.4°C 37.2°F2.9°C 90% 17.0 mph S27.4 kmh S 28.0 mph45.1 kmh 29.49 in998.6 mb 0.00 in0.0 mm 0.00 in0.0 mm 0.02 in0.5 mm
11:54 AM 39.9°F4.4°C 37.2°F2.9°C 90% 17.0 mph S27.4 kmh S 28.0 mph45.1 kmh 29.48 in998.3 mb 0.00 in0.0 mm 0.00 in0.0 mm 0.02 in0.5 mm
11:56 AM 39.9°F4.4°C 37.2°F2.9°C 90% 17.0 mph S27.4 kmh S 27.0 mph43.5 kmh 29.48 in998.3 mb 0.00 in0.0 mm 0.00 in0.0 mm 0.02 in0.5 mm
11:57 AM 39.9°F4.4°C 37.2°F2.9°C 90% 16.0 mph S25.7 kmh S 27.0 mph43.5 kmh 29.48 in998.3 mb 0.00 in0.0 mm 0.00 in0.0 mm 0.02 in0.5 mm
11:58 AM 39.9°F4.4°C 37.2°F2.9°C 90% 16.0 mph S25.7 kmh S 25.0 mph40.2 kmh 29.48 in998.3 mb 0.00 in0.0 mm 0.00 in0.0 mm 0.02 in0.5 mm
11:59 AM 39.8°F4.3°C 37.4°F3.0°C 91% 15.0 mph S24.1 kmh S 25.0 mph40.2 kmh 29.48 in998.3 mb 0.00 in0.0 mm 0.00 in0.0 mm 0.02 in0.5 mm
12:00 PM 39.8°F4.3°C 37.4°F3.0°C 91% 15.0 mph S24.1 kmh S 25.0 mph40.2 kmh 29.48 in998.3 mb 0.00 in0.0 mm 0.00 in0.0 mm 0.02 in0.5 mm
12:01 PM 39.8°F4.3°C 37.4°F3.0°C 91% 14.0 mph S22.5 kmh S 25.0 mph40.2 kmh 29.48 in998.3 mb 0.00 in0.0 mm 0.00 in0.0 mm 0.02 in0.5 mm
12:02 PM 39.9°F4.4°C 37.5°F3.1°C 91% 14.0 mph S22.5 kmh S 25.0 mph40.2 kmh 29.48 in998.3 mb 0.00 in0.0 mm 0.00 in0.0 mm 0.02 in0.5 mm
12:04 PM 39.8°F4.3°C 37.4°F3.0°C 91% 14.0 mph S22.5 kmh S 25.0 mph40.2 kmh 29.48 in998.3 mb 0.00 in0.0 mm 0.00 in0.0 mm 0.02 in0.5 mm
12:05 PM 39.9°F4.4°C 37.5°F3.1°C 91% 13.0 mph S20.9 kmh S 24.0 mph38.6 kmh 29.48 in998.3 mb 0.00 in0.0 mm 0.00 in0.0 mm 0.02 in0.5 mm
12:06 PM 39.9°F4.4°C 37.5°F3.1°C 91% 13.0 mph S20.9 kmh S 24.0 mph38.6 kmh 29.48 in998.3 mb 0.00 in0.0 mm 0.00 in0.0 mm 0.02 in0.5 mm
12:08 PM 39.9°F4.4°C 37.5°F3.1°C 91% 14.0 mph S22.5 kmh S 24.0 mph38.6 kmh 29.48 in998.3 mb 0.00 in0.0 mm 0.00 in0.0 mm 0.02 in0.5 mm
12:09 PM 39.9°F4.4°C 37.5°F3.1°C 91% 13.0 mph S20.9 kmh S 24.0 mph38.6 kmh 29.48 in998.3 mb 0.00 in0.0 mm 0.00 in0.0 mm 0.02 in0.5 mm
12:11 PM 40.0°F4.4°C 37.6°F3.1°C 91% 13.0 mph S20.9 kmh S 24.0 mph38.6 kmh 29.48 in998.3 mb 0.00 in0.0 mm 0.00 in0.0 mm 0.02 in0.5 mm
12:12 PM 40.1°F4.5°C 37.7°F3.2°C 91% 13.0 mph S20.9 kmh S 30.0 mph48.3 kmh 29.48 in998.3 mb 0.00 in0.0 mm 0.00 in0.0 mm 0.02 in0.5 mm
12:13 PM 40.1°F4.5°C 37.7°F3.2°C 91% 13.0 mph S20.9 kmh S 30.0 mph48.3 kmh 29.48 in998.3 mb 0.00 in0.0 mm 0.00 in0.0 mm 0.02 in0.5 mm
12:15 PM 40.2°F4.6°C 37.8°F3.2°C 91% 14.0 mph S22.5 kmh S 30.0 mph48.3 kmh 29.47 in998.0 mb 0.00 in0.0 mm 0.00 in0.0 mm 0.02 in0.5 mm
12:16 PM 40.2°F4.6°C 37.8°F3.2°C 91% 14.0 mph S22.5 kmh S 30.0 mph48.3 kmh 29.47 in998.0 mb 0.00 in0.0 mm 0.00 in0.0 mm 0.02 in0.5 mm
12:18 PM 40.3°F4.6°C 37.9°F3.3°C 91% 15.0 mph S24.1 kmh S 30.0 mph48.3 kmh 29.48 in998.3 mb 0.00 in0.0 mm 0.00 in0.0 mm 0.02 in0.5 mm
12:19 PM 40.4°F4.7°C 37.7°F3.2°C 90% 15.0 mph S24.1 kmh S 30.0 mph48.3 kmh 29.47 in998.0 mb 0.00 in0.0 mm 0.00 in0.0 mm 0.02 in0.5 mm
12:21 PM 40.5°F4.7°C 37.8°F3.2°C 90% 16.0 mph S25.7 kmh S 30.0 mph48.3 kmh 29.47 in998.0 mb 0.00 in0.0 mm 0.00 in0.0 mm 0.02 in0.5 mm
12:22 PM 40.5°F4.7°C 37.8°F3.2°C 90% 16.0 mph S25.7 kmh S 29.0 mph46.7 kmh 29.47 in998.0 mb 0.00 in0.0 mm 0.00 in0.0 mm 0.02 in0.5 mm
12:24 PM 40.5°F4.7°C 37.8°F3.2°C 90% 15.0 mph S24.1 kmh S 26.0 mph41.8 kmh 29.47 in998.0 mb 0.00 in0.0 mm 0.00 in0.0 mm 0.02 in0.5 mm
12:25 PM 40.5°F4.7°C 37.8°F3.2°C 90% 15.0 mph S24.1 kmh S 26.0 mph41.8 kmh 29.47 in998.0 mb 0.00 in0.0 mm 0.00 in0.0 mm 0.02 in0.5 mm
12:27 PM 40.5°F4.7°C 37.8°F3.2°C 90% 15.0 mph S24.1 kmh S 26.0 mph41.8 kmh 29.47 in998.0 mb 0.00 in0.0 mm 0.00 in0.0 mm 0.02 in0.5 mm
12:28 PM 40.5°F4.7°C 37.8°F3.2°C 90% 14.0 mph S22.5 kmh S 27.0 mph43.5 kmh 29.47 in998.0 mb 0.00 in0.0 mm 0.00 in0.0 mm 0.02 in0.5 mm
12:30 PM 40.5°F4.7°C 37.5°F3.1°C 89% 14.0 mph S22.5 kmh S 27.0 mph43.5 kmh 29.47 in998.0 mb 0.00 in0.0 mm 0.00 in0.0 mm 0.02 in0.5 mm
12:31 PM 40.6°F4.8°C 37.6°F3.1°C 89% 14.0 mph S22.5 kmh S 27.0 mph43.5 kmh 29.47 in998.0 mb 0.00 in0.0 mm 0.00 in0.0 mm 0.02 in0.5 mm
12:32 PM 40.6°F4.8°C 37.6°F3.1°C 89% 14.0 mph S22.5 kmh S 27.0 mph43.5 kmh 29.47 in998.0 mb 0.00 in0.0 mm 0.00 in0.0 mm 0.02 in0.5 mm
12:34 PM 40.6°F4.8°C 37.6°F3.1°C 89% 14.0 mph S22.5 kmh S 27.0 mph43.5 kmh 29.47 in998.0 mb 0.00 in0.0 mm 0.00 in0.0 mm 0.02 in0.5 mm
12:35 PM 40.6°F4.8°C 37.9°F3.3°C 90% 14.0 mph S22.5 kmh S 27.0 mph43.5 kmh 29.47 in998.0 mb 0.00 in0.0 mm 0.00 in0.0 mm 0.02 in0.5 mm
12:36 PM 40.6°F4.8°C 37.9°F3.3°C 90% 14.0 mph S22.5 kmh S 27.0 mph43.5 kmh 29.47 in998.0 mb 0.00 in0.0 mm 0.00 in0.0 mm 0.02 in0.5 mm
12:38 PM 40.6°F4.8°C 37.6°F3.1°C 89% 15.0 mph S24.1 kmh S 26.0 mph41.8 kmh 29.47 in998.0 mb 0.00 in0.0 mm 0.00 in0.0 mm 0.02 in0.5 mm
12:39 PM 40.6°F4.8°C 37.6°F3.1°C 89% 14.0 mph S22.5 kmh S 26.0 mph41.8 kmh 29.47 in998.0 mb 0.00 in0.0 mm 0.00 in0.0 mm 0.02 in0.5 mm
12:41 PM 40.6°F4.8°C 37.6°F3.1°C 89% 15.0 mph S24.1 kmh S 30.0 mph48.3 kmh 29.47 in998.0 mb 0.00 in0.0 mm 0.00 in0.0 mm 0.02 in0.5 mm
12:42 PM 40.6°F4.8°C 37.3°F2.9°C 88% 15.0 mph S24.1 kmh S 30.0 mph48.3 kmh 29.47 in998.0 mb 0.00 in0.0 mm 0.00 in0.0 mm 0.02 in0.5 mm
12:43 PM 40.5°F4.7°C 37.2°F2.9°C 88% 16.0 mph S25.7 kmh S 30.0 mph48.3 kmh 29.47 in998.0 mb 0.00 in0.0 mm 0.00 in0.0 mm 0.02 in0.5 mm
12:44 PM 40.6°F4.8°C 37.3°F2.9°C 88% 16.0 mph S25.7 kmh S 30.0 mph48.3 kmh 29.47 in998.0 mb 0.00 in0.0 mm 0.00 in0.0 mm 0.02 in0.5 mm
12:46 PM 40.5°F4.7°C 37.2°F2.9°C 88% 16.0 mph S25.7 kmh S 30.0 mph48.3 kmh 29.47 in998.0 mb 0.00 in0.0 mm 0.00 in0.0 mm 0.02 in0.5 mm
12:47 PM 40.4°F4.7°C 37.1°F2.8°C 88% 16.0 mph S25.7 kmh S 30.0 mph48.3 kmh 29.47 in998.0 mb 0.00 in0.0 mm 0.00 in0.0 mm 0.02 in0.5 mm
12:49 PM 40.4°F4.7°C 37.1°F2.8°C 88% 17.0 mph S27.4 kmh S 30.0 mph48.3 kmh 29.46 in997.6 mb 0.00 in0.0 mm 0.00 in0.0 mm 0.02 in0.5 mm
12:50 PM 40.4°F4.7°C 37.1°F2.8°C 88% 17.0 mph S27.4 kmh S 29.0 mph46.7 kmh 29.47 in998.0 mb 0.00 in0.0 mm 0.00 in0.0 mm 0.02 in0.5 mm
12:52 PM 40.4°F4.7°C 37.1°F2.8°C 88% 17.0 mph S27.4 kmh S 30.0 mph48.3 kmh 29.46 in997.6 mb 0.00 in0.0 mm 0.00 in0.0 mm 0.02 in0.5 mm
12:53 PM 40.4°F4.7°C 37.1°F2.8°C 88% 17.0 mph S27.4 kmh S 30.0 mph48.3 kmh 29.47 in998.0 mb 0.00 in0.0 mm 0.00 in0.0 mm 0.02 in0.5 mm
12:55 PM 40.4°F4.7°C 37.1°F2.8°C 88% 18.0 mph S29.0 kmh S 30.0 mph48.3 kmh 29.46 in997.6 mb 0.00 in0.0 mm 0.00 in0.0 mm 0.02 in0.5 mm
12:56 PM 40.4°F4.7°C 37.1°F2.8°C 88% 18.0 mph S29.0 kmh S 30.0 mph48.3 kmh 29.46 in997.6 mb 0.00 in0.0 mm 0.00 in0.0 mm 0.02 in0.5 mm
12:57 PM 40.4°F4.7°C 37.4°F3.0°C 89% 18.0 mph S29.0 kmh S 30.0 mph48.3 kmh 29.46 in997.6 mb 0.00 in0.0 mm 0.00 in0.0 mm 0.02 in0.5 mm
12:58 PM 40.4°F4.7°C 37.4°F3.0°C 89% 17.0 mph S27.4 kmh S 30.0 mph48.3 kmh 29.46 in997.6 mb 0.00 in0.0 mm 0.00 in0.0 mm 0.02 in0.5 mm
01:00 PM 40.3°F4.6°C 37.3°F2.9°C 89% 16.0 mph S25.7 kmh S 30.0 mph48.3 kmh 29.47 in998.0 mb 0.00 in0.0 mm 0.00 in0.0 mm 0.02 in0.5 mm
01:01 PM 40.3°F4.6°C 37.3°F2.9°C 89% 16.0 mph S25.7 kmh S 29.0 mph46.7 kmh 29.46 in997.6 mb 0.00 in0.0 mm 0.00 in0.0 mm 0.02 in0.5 mm
01:03 PM 40.3°F4.6°C 37.3°F2.9°C 89% 15.0 mph S24.1 kmh S 30.0 mph48.3 kmh 29.46 in997.6 mb 0.00 in0.0 mm 0.00 in0.0 mm 0.02 in0.5 mm
01:04 PM 40.4°F4.7°C 37.4°F3.0°C 89% 14.0 mph S22.5 kmh S 30.0 mph48.3 kmh 29.46 in997.6 mb 0.00 in0.0 mm 0.00 in0.0 mm 0.02 in0.5 mm
01:06 PM 40.4°F4.7°C 37.4°F3.0°C 89% 14.0 mph S22.5 kmh S 30.0 mph48.3 kmh 29.46 in997.6 mb 0.00 in0.0 mm 0.00 in0.0 mm 0.02 in0.5 mm
01:07 PM 40.4°F4.7°C 37.4°F3.0°C 89% 14.0 mph S22.5 kmh S 30.0 mph48.3 kmh 29.46 in997.6 mb 0.00 in0.0 mm 0.00 in0.0 mm 0.02 in0.5 mm
01:09 PM 40.3°F4.6°C 37.3°F2.9°C 89% 15.0 mph S24.1 kmh S 30.0 mph48.3 kmh 29.46 in997.6 mb 0.00 in0.0 mm 0.00 in0.0 mm 0.02 in0.5 mm
01:10 PM 40.3°F4.6°C 37.3°F2.9°C 89% 15.0 mph S24.1 kmh S 30.0 mph48.3 kmh 29.46 in997.6 mb 0.00 in0.0 mm 0.00 in0.0 mm 0.02 in0.5 mm
01:11 PM 40.4°F4.7°C 37.7°F3.2°C 90% 15.0 mph S24.1 kmh S 30.0 mph48.3 kmh 29.46 in997.6 mb 0.00 in0.0 mm 0.00 in0.0 mm 0.02 in0.5 mm
01:13 PM 40.3°F4.6°C 37.6°F3.1°C 90% 14.0 mph S22.5 kmh S 26.0 mph41.8 kmh 29.46 in997.6 mb 0.00 in0.0 mm 0.00 in0.0 mm 0.02 in0.5 mm
01:14 PM 40.3°F4.6°C 37.6°F3.1°C 90% 15.0 mph S24.1 kmh S 26.0 mph41.8 kmh 29.46 in997.6 mb 0.00 in0.0 mm 0.00 in0.0 mm 0.02 in0.5 mm
01:15 PM 40.4°F4.7°C 37.7°F3.2°C 90% 15.0 mph S24.1 kmh S 26.0 mph41.8 kmh 29.46 in997.6 mb 0.00 in0.0 mm 0.00 in0.0 mm 0.02 in0.5 mm
01:17 PM 40.4°F4.7°C 37.7°F3.2°C 90% 14.0 mph S22.5 kmh S 26.0 mph41.8 kmh 29.45 in997.3 mb 0.00 in0.0 mm 0.00 in0.0 mm 0.02 in0.5 mm
01:18 PM 40.4°F4.7°C 37.7°F3.2°C 90% 14.0 mph S22.5 kmh S 24.0 mph38.6 kmh 29.46 in997.6 mb 0.00 in0.0 mm 0.00 in0.0 mm 0.02 in0.5 mm
01:20 PM 40.4°F4.7°C 38.0°F3.3°C 91% 14.0 mph S22.5 kmh S 25.0 mph40.2 kmh 29.45 in997.3 mb 0.00 in0.0 mm 0.00 in0.0 mm 0.02 in0.5 mm
01:21 PM 40.4°F4.7°C 38.0°F3.3°C 91% 14.0 mph S22.5 kmh S 25.0 mph40.2 kmh 29.46 in997.6 mb 0.00 in0.0 mm 0.00 in0.0 mm 0.02 in0.5 mm
01:23 PM 40.5°F4.7°C 38.1°F3.4°C 91% 15.0 mph S24.1 kmh S 25.0 mph40.2 kmh 29.45 in997.3 mb 0.00 in0.0 mm 0.00 in0.0 mm 0.02 in0.5 mm
01:25 PM 40.5°F4.7°C 38.1°F3.4°C 91% 15.0 mph S24.1 kmh S 25.0 mph40.2 kmh 29.45 in997.3 mb 0.00 in0.0 mm 0.00 in0.0 mm 0.02 in0.5 mm
01:26 PM 40.6°F4.8°C 38.2°F3.4°C 91% 16.0 mph S25.7 kmh S 25.0 mph40.2 kmh 29.45 in997.3 mb 0.00 in0.0 mm 0.00 in0.0 mm 0.02 in0.5 mm
01:28 PM 40.6°F4.8°C 38.2°F3.4°C 91% 15.0 mph S24.1 kmh S 29.0 mph46.7 kmh 29.45 in997.3 mb 0.00 in0.0 mm 0.00 in0.0 mm 0.02 in0.5 mm
01:29 PM 40.6°F4.8°C 38.2°F3.4°C 91% 15.0 mph S24.1 kmh S 29.0 mph46.7 kmh 29.46 in997.6 mb 0.00 in0.0 mm 0.00 in0.0 mm 0.02 in0.5 mm
01:31 PM 40.5°F4.7°C 38.1°F3.4°C 91% 15.0 mph S24.1 kmh S 29.0 mph46.7 kmh 29.45 in997.3 mb 0.00 in0.0 mm 0.00 in0.0 mm 0.02 in0.5 mm
01:32 PM 40.5°F4.7°C 38.1°F3.4°C 91% 14.0 mph S22.5 kmh S 29.0 mph46.7 kmh 29.45 in997.3 mb 0.00 in0.0 mm 0.00 in0.0 mm 0.02 in0.5 mm
01:33 PM 40.5°F4.7°C 38.1°F3.4°C 91% 14.0 mph S22.5 kmh S 29.0 mph46.7 kmh 29.45 in997.3 mb 0.00 in0.0 mm 0.00 in0.0 mm 0.02 in0.5 mm
01:34 PM 40.5°F4.7°C 38.1°F3.4°C 91% 14.0 mph S22.5 kmh S 29.0 mph46.7 kmh 29.45 in997.3 mb 0.00 in0.0 mm 0.00 in0.0 mm 0.02 in0.5 mm
01:36 PM 40.6°F4.8°C 38.2°F3.4°C 91% 14.0 mph S22.5 kmh S 29.0 mph46.7 kmh 29.45 in997.3 mb 0.00 in0.0 mm 0.00 in0.0 mm 0.02 in0.5 mm
01:37 PM 40.6°F4.8°C 38.5°F3.6°C 92% 14.0 mph S22.5 kmh S 29.0 mph46.7 kmh 29.45 in997.3 mb 0.00 in0.0 mm 0.00 in0.0 mm 0.02 in0.5 mm
01:39 PM 40.6°F4.8°C 38.5°F3.6°C 92% 14.0 mph S22.5 kmh S 28.0 mph45.1 kmh 29.45 in997.3 mb 0.00 in0.0 mm 0.00 in0.0 mm 0.02 in0.5 mm
01:40 PM 40.7°F4.8°C 38.6°F3.7°C 92% 13.0 mph S20.9 kmh S 28.0 mph45.1 kmh 29.45 in997.3 mb 0.00 in0.0 mm 0.00 in0.0 mm 0.02 in0.5 mm
01:41 PM 40.7°F4.8°C 38.6°F3.7°C 92% 13.0 mph S20.9 kmh S 28.0 mph45.1 kmh 29.45 in997.3 mb 0.00 in0.0 mm 0.00 in0.0 mm 0.02 in0.5 mm
01:43 PM 40.7°F4.8°C 38.6°F3.7°C 92% 13.0 mph SSW20.9 kmh SSW 28.0 mph45.1 kmh 29.45 in997.3 mb 0.00 in0.0 mm 0.00 in0.0 mm 0.02 in0.5 mm
01:44 PM 40.7°F4.8°C 38.6°F3.7°C 92% 13.0 mph SSW20.9 kmh SSW 28.0 mph45.1 kmh 29.45 in997.3 mb 0.00 in0.0 mm 0.00 in0.0 mm 0.02 in0.5 mm
01:46 PM 40.7°F4.8°C 38.6°F3.7°C 92% 13.0 mph SSW20.9 kmh SSW 28.0 mph45.1 kmh 29.45 in997.3 mb 0.00 in0.0 mm 0.00 in0.0 mm 0.02 in0.5 mm
01:47 PM 40.8°F4.9°C 38.7°F3.7°C 92% 13.0 mph SSW20.9 kmh SSW 28.0 mph45.1 kmh 29.45 in997.3 mb 0.00 in0.0 mm 0.00 in0.0 mm 0.02 in0.5 mm
01:49 PM 40.8°F4.9°C 38.7°F3.7°C 92% 13.0 mph SSW20.9 kmh SSW 27.0 mph43.5 kmh 29.45 in997.3 mb 0.00 in0.0 mm 0.00 in0.0 mm 0.02 in0.5 mm
01:50 PM 40.8°F4.9°C 38.7°F3.7°C 92% 13.0 mph SSW20.9 kmh SSW 27.0 mph43.5 kmh 29.45 in997.3 mb 0.00 in0.0 mm 0.00 in0.0 mm 0.02 in0.5 mm
01:52 PM 40.7°F4.8°C 38.6°F3.7°C 92% 14.0 mph SSW22.5 kmh SSW 27.0 mph43.5 kmh 29.45 in997.3 mb 0.00 in0.0 mm 0.00 in0.0 mm 0.02 in0.5 mm
01:53 PM 40.7°F4.8°C 38.6°F3.7°C 92% 14.0 mph SSW22.5 kmh SSW 24.0 mph38.6 kmh 29.45 in997.3 mb 0.00 in0.0 mm 0.00 in0.0 mm 0.02 in0.5 mm
01:54 PM 40.8°F4.9°C 38.7°F3.7°C 92% 14.0 mph SSW22.5 kmh SSW 24.0 mph38.6 kmh 29.45 in997.3 mb 0.00 in0.0 mm 0.00 in0.0 mm 0.02 in0.5 mm
01:56 PM 40.8°F4.9°C 38.7°F3.7°C 92% 14.0 mph SSW22.5 kmh SSW 24.0 mph38.6 kmh 29.45 in997.3 mb 0.00 in0.0 mm 0.00 in0.0 mm 0.02 in0.5 mm
01:58 PM 40.8°F4.9°C 38.7°F3.7°C 92% 13.0 mph SSW20.9 kmh SSW 24.0 mph38.6 kmh 29.45 in997.3 mb 0.00 in0.0 mm 0.00 in0.0 mm 0.02 in0.5 mm
01:59 PM 40.8°F4.9°C 38.7°F3.7°C 92% 13.0 mph SSW20.9 kmh SSW 24.0 mph38.6 kmh 29.44 in997.0 mb 0.00 in0.0 mm 0.00 in0.0 mm 0.02 in0.5 mm
02:00 PM 40.8°F4.9°C 38.7°F3.7°C 92% 12.0 mph SSW19.3 kmh SSW 24.0 mph38.6 kmh 29.45 in997.3 mb 0.00 in0.0 mm 0.00 in0.0 mm 0.02 in0.5 mm
02:01 PM 40.8°F4.9°C 38.7°F3.7°C 92% 12.0 mph SSW19.3 kmh SSW 24.0 mph38.6 kmh 29.45 in997.3 mb 0.00 in0.0 mm 0.00 in0.0 mm 0.02 in0.5 mm
02:02 PM 40.9°F4.9°C 38.8°F3.8°C 92% 12.0 mph SSW19.3 kmh SSW 23.0 mph37.0 kmh 29.45 in997.3 mb 0.00 in0.0 mm 0.00 in0.0 mm 0.02 in0.5 mm
02:03 PM 40.9°F4.9°C 38.8°F3.8°C 92% 11.0 mph SSW17.7 kmh SSW 23.0 mph37.0 kmh 29.45 in997.3 mb 0.00 in0.0 mm 0.00 in0.0 mm 0.02 in0.5 mm
02:05 PM 40.9°F4.9°C 38.8°F3.8°C 92% 11.0 mph SSW17.7 kmh SSW 23.0 mph37.0 kmh 29.45 in997.3 mb 0.00 in0.0 mm 0.00 in0.0 mm 0.02 in0.5 mm
02:06 PM 41.0°F5.0°C 38.9°F3.8°C 92% 11.0 mph SSW17.7 kmh SSW 23.0 mph37.0 kmh 29.45 in997.3 mb 0.00 in0.0 mm 0.00 in0.0 mm 0.02 in0.5 mm
02:07 PM 41.0°F5.0°C 38.9°F3.8°C 92% 11.0 mph SSW17.7 kmh SSW 23.0 mph37.0 kmh 29.44 in997.0 mb 0.00 in0.0 mm 0.00 in0.0 mm 0.02 in0.5 mm
02:09 PM 41.1°F5.1°C 39.0°F3.9°C 92% 11.0 mph S17.7 kmh S 22.0 mph35.4 kmh 29.45 in997.3 mb 0.00 in0.0 mm 0.00 in0.0 mm 0.02 in0.5 mm
02:11 PM 41.1°F5.1°C 39.0°F3.9°C 92% 11.0 mph S17.7 kmh S 22.0 mph35.4 kmh 29.45 in997.3 mb 0.00 in0.0 mm 0.00 in0.0 mm 0.02 in0.5 mm
02:12 PM 41.2°F5.1°C 39.1°F3.9°C 92% 11.0 mph S17.7 kmh S 22.0 mph35.4 kmh 29.45 in997.3 mb 0.00 in0.0 mm 0.00 in0.0 mm 0.02 in0.5 mm
02:14 PM 41.2°F5.1°C 39.1°F3.9°C 92% 11.0 mph S17.7 kmh S 22.0 mph35.4 kmh 29.44 in997.0 mb 0.00 in0.0 mm 0.00 in0.0 mm 0.02 in0.5 mm
02:15 PM 41.2°F5.1°C 39.1°F3.9°C 92% 11.0 mph S17.7 kmh S 22.0 mph35.4 kmh 29.44 in997.0 mb 0.00 in0.0 mm 0.00 in0.0 mm 0.02 in0.5 mm
02:17 PM 41.3°F5.2°C 39.2°F4.0°C 92% 10.0 mph S16.1 kmh S 22.0 mph35.4 kmh 29.44 in997.0 mb 0.00 in0.0 mm 0.00 in0.0 mm 0.02 in0.5 mm
02:18 PM 41.3°F5.2°C 39.2°F4.0°C 92% 10.0 mph S16.1 kmh S 22.0 mph35.4 kmh 29.44 in997.0 mb 0.00 in0.0 mm 0.00 in0.0 mm 0.02 in0.5 mm
02:19 PM 41.3°F5.2°C 39.2°F4.0°C 92% 10.0 mph S16.1 kmh S 22.0 mph35.4 kmh 29.44 in997.0 mb 0.00 in0.0 mm 0.00 in0.0 mm 0.02 in0.5 mm
02:20 PM 41.3°F5.2°C 39.2°F4.0°C 92% 10.0 mph S16.1 kmh S 22.0 mph35.4 kmh 29.44 in997.0 mb 0.00 in0.0 mm 0.00 in0.0 mm 0.02 in0.5 mm
02:21 PM 41.4°F5.2°C 39.3°F4.1°C 92% 10.0 mph S16.1 kmh S 22.0 mph35.4 kmh 29.44 in997.0 mb 0.00 in0.0 mm 0.00 in0.0 mm 0.02 in0.5 mm
02:23 PM 41.5°F5.3°C 39.3°F4.1°C 92% 9.0 mph S14.5 kmh S 21.0 mph33.8 kmh 29.44 in997.0 mb 0.00 in0.0 mm 0.00 in0.0 mm 0.02 in0.5 mm
02:24 PM 41.5°F5.3°C 39.3°F4.1°C 92% 10.0 mph S16.1 kmh S 21.0 mph33.8 kmh 29.44 in997.0 mb 0.00 in0.0 mm 0.00 in0.0 mm 0.02 in0.5 mm
02:26 PM 41.6°F5.3°C 39.7°F4.3°C 93% 10.0 mph SSW16.1 kmh SSW 20.0 mph32.2 kmh 29.44 in997.0 mb 0.00 in0.0 mm 0.00 in0.0 mm 0.02 in0.5 mm
02:27 PM 41.6°F5.3°C 39.7°F4.3°C 93% 9.0 mph SSW14.5 kmh SSW 20.0 mph32.2 kmh 29.44 in997.0 mb 0.00 in0.0 mm 0.00 in0.0 mm 0.02 in0.5 mm
02:29 PM 41.6°F5.3°C 39.4°F4.1°C 92% 9.0 mph S14.5 kmh S 20.0 mph32.2 kmh 29.44 in997.0 mb 0.00 in0.0 mm 0.00 in0.0 mm 0.02 in0.5 mm
02:31 PM 41.7°F5.4°C 39.5°F4.2°C 92% 9.0 mph S14.5 kmh S 20.0 mph32.2 kmh 29.44 in997.0 mb 0.00 in0.0 mm 0.00 in0.0 mm 0.02 in0.5 mm
02:32 PM 41.7°F5.4°C 39.5°F4.2°C 92% 10.0 mph SSW16.1 kmh SSW 20.0 mph32.2 kmh 29.44 in997.0 mb 0.00 in0.0 mm 0.00 in0.0 mm 0.02 in0.5 mm
02:34 PM 41.8°F5.4°C 39.9°F4.4°C 93% 9.0 mph S14.5 kmh S 19.0 mph30.6 kmh 29.44 in997.0 mb 0.00 in0.0 mm 0.00 in0.0 mm 0.02 in0.5 mm
02:35 PM 41.8°F5.4°C 39.6°F4.2°C 92% 10.0 mph S16.1 kmh S 17.0 mph27.4 kmh 29.44 in997.0 mb 0.00 in0.0 mm 0.00 in0.0 mm 0.02 in0.5 mm
02:37 PM 41.9°F5.5°C 40.0°F4.4°C 93% 10.0 mph S16.1 kmh S 17.0 mph27.4 kmh 29.44 in997.0 mb 0.00 in0.0 mm 0.00 in0.0 mm 0.02 in0.5 mm
02:38 PM 41.9°F5.5°C 40.0°F4.4°C 93% 10.0 mph S16.1 kmh S 17.0 mph27.4 kmh 29.43 in996.6 mb 0.00 in0.0 mm 0.00 in0.0 mm 0.02 in0.5 mm
02:40 PM 41.9°F5.5°C 40.0°F4.4°C 93% 10.0 mph S16.1 kmh S 18.0 mph29.0 kmh 29.44 in997.0 mb 0.00 in0.0 mm 0.00 in0.0 mm 0.02 in0.5 mm
02:41 PM 41.9°F5.5°C 40.0°F4.4°C 93% 10.0 mph S16.1 kmh S 18.0 mph29.0 kmh 29.44 in997.0 mb 0.00 in0.0 mm 0.00 in0.0 mm 0.02 in0.5 mm
02:43 PM 41.9°F5.5°C 40.0°F4.4°C 93% 10.0 mph S16.1 kmh S 18.0 mph29.0 kmh 29.44 in997.0 mb 0.00 in0.0 mm 0.00 in0.0 mm 0.02 in0.5 mm
02:44 PM 41.9°F5.5°C 40.0°F4.4°C 93% 10.0 mph SSW16.1 kmh SSW 18.0 mph29.0 kmh 29.44 in997.0 mb 0.00 in0.0 mm 0.00 in0.0 mm 0.02 in0.5 mm
02:46 PM 41.9°F5.5°C 40.0°F4.4°C 93% 10.0 mph SSW16.1 kmh SSW 18.0 mph29.0 kmh 29.44 in997.0 mb 0.00 in0.0 mm 0.00 in0.0 mm 0.02 in0.5 mm
02:47 PM 41.9°F5.5°C 40.0°F4.4°C 93% 10.0 mph SSW16.1 kmh SSW 18.0 mph29.0 kmh 29.44 in997.0 mb 0.00 in0.0 mm 0.00 in0.0 mm 0.02 in0.5 mm
02:48 PM 41.8°F5.4°C 39.9°F4.4°C 93% 10.0 mph SSW16.1 kmh SSW 18.0 mph29.0 kmh 29.44 in997.0 mb 0.00 in0.0 mm 0.00 in0.0 mm 0.02 in0.5 mm
02:50 PM 41.8°F5.4°C 39.9°F4.4°C 93% 9.0 mph SSW14.5 kmh SSW 17.0 mph27.4 kmh 29.44 in997.0 mb 0.00 in0.0 mm 0.00 in0.0 mm 0.02 in0.5 mm
02:51 PM 41.9°F5.5°C 40.0°F4.4°C 93% 9.0 mph SSW14.5 kmh SSW 17.0 mph27.4 kmh 29.44 in997.0 mb 0.00 in0.0 mm 0.00 in0.0 mm 0.02 in0.5 mm
02:52 PM 41.9°F5.5°C 40.0°F4.4°C 93% 9.0 mph SSW14.5 kmh SSW 17.0 mph27.4 kmh 29.44 in997.0 mb 0.00 in0.0 mm 0.00 in0.0 mm 0.02 in0.5 mm
02:53 PM 41.9°F5.5°C 40.0°F4.4°C 93% 9.0 mph SSW14.5 kmh SSW 17.0 mph27.4 kmh 29.44 in997.0 mb 0.00 in0.0 mm 0.00 in0.0 mm 0.02 in0.5 mm
02:55 PM 41.9°F5.5°C 40.0°F4.4°C 93% 8.0 mph SSW12.9 kmh SSW 18.0 mph29.0 kmh 29.44 in997.0 mb 0.00 in0.0 mm 0.00 in0.0 mm 0.02 in0.5 mm
02:56 PM 41.9°F5.5°C 40.0°F4.4°C 93% 8.0 mph SSW12.9 kmh SSW 18.0 mph29.0 kmh 29.44 in997.0 mb 0.00 in0.0 mm 0.00 in0.0 mm 0.02 in0.5 mm
02:58 PM 41.9°F5.5°C 40.0°F4.4°C 93% 8.0 mph SSW12.9 kmh SSW 18.0 mph29.0 kmh 29.44 in997.0 mb 0.00 in0.0 mm 0.00 in0.0 mm 0.02 in0.5 mm
02:59 PM 41.9°F5.5°C 40.0°F4.4°C 93% 8.0 mph SSW12.9 kmh SSW 18.0 mph29.0 kmh 29.44 in997.0 mb 0.00 in0.0 mm 0.00 in0.0 mm 0.02 in0.5 mm
03:00 PM 41.8°F5.4°C 39.9°F4.4°C 93% 8.0 mph SSW12.9 kmh SSW 18.0 mph29.0 kmh 29.44 in997.0 mb 0.00 in0.0 mm 0.00 in0.0 mm 0.02 in0.5 mm
03:01 PM 41.8°F5.4°C 39.6°F4.2°C 92% 8.0 mph SSW12.9 kmh SSW 18.0 mph29.0 kmh 29.44 in997.0 mb 0.00 in0.0 mm 0.00 in0.0 mm 0.02 in0.5 mm
03:03 PM 41.8°F5.4°C 39.6°F4.2°C 92% 8.0 mph SSW12.9 kmh SSW 18.0 mph29.0 kmh 29.44 in997.0 mb 0.00 in0.0 mm 0.00 in0.0 mm 0.02 in0.5 mm
03:04 PM 41.8°F5.4°C 39.6°F4.2°C 92% 8.0 mph SSW12.9 kmh SSW 18.0 mph29.0 kmh 29.44 in997.0 mb 0.00 in0.0 mm 0.00 in0.0 mm 0.02 in0.5 mm
03:06 PM 41.9°F5.5°C 39.7°F4.3°C 92% 7.0 mph SSW11.3 kmh SSW 12.0 mph19.3 kmh 29.43 in996.6 mb 0.00 in0.0 mm 0.00 in0.0 mm 0.02 in0.5 mm
03:07 PM 41.9°F5.5°C 39.7°F4.3°C 92% 6.0 mph SSW9.7 kmh SSW 12.0 mph19.3 kmh 29.43 in996.6 mb 0.00 in0.0 mm 0.00 in0.0 mm 0.02 in0.5 mm
03:09 PM 41.9°F5.5°C 39.5°F4.2°C 91% 6.0 mph SSW9.7 kmh SSW 11.0 mph17.7 kmh 29.43 in996.6 mb 0.00 in0.0 mm 0.00 in0.0 mm 0.02 in0.5 mm
03:10 PM 42.0°F5.6°C 39.6°F4.2°C 91% 6.0 mph SW9.7 kmh SW 11.0 mph17.7 kmh 29.43 in996.6 mb 0.00 in0.0 mm 0.00 in0.0 mm 0.02 in0.5 mm
03:11 PM 42.0°F5.6°C 39.6°F4.2°C 91% 6.0 mph SSW9.7 kmh SSW 11.0 mph17.7 kmh 29.43 in996.6 mb 0.00 in0.0 mm 0.00 in0.0 mm 0.02 in0.5 mm
03:13 PM 42.1°F5.6°C 39.7°F4.3°C 91% 6.0 mph SSW9.7 kmh SSW 10.0 mph16.1 kmh 29.43 in996.6 mb 0.00 in0.0 mm 0.00 in0.0 mm 0.02 in0.5 mm
03:14 PM 42.1°F5.6°C 39.7°F4.3°C 91% 5.0 mph SSW8.0 kmh SSW 10.0 mph16.1 kmh 29.43 in996.6 mb 0.00 in0.0 mm 0.00 in0.0 mm 0.02 in0.5 mm
03:16 PM 42.2°F5.7°C 39.8°F4.3°C 91% 5.0 mph SSW8.0 kmh SSW 10.0 mph16.1 kmh 29.43 in996.6 mb 0.00 in0.0 mm 0.00 in0.0 mm 0.02 in0.5 mm
03:17 PM 42.2°F5.7°C 39.8°F4.3°C 91% 5.0 mph SSW8.0 kmh SSW 11.0 mph17.7 kmh 29.43 in996.6 mb 0.00 in0.0 mm 0.00 in0.0 mm 0.02 in0.5 mm
03:19 PM 42.3°F5.7°C 39.9°F4.4°C 91% 5.0 mph SSW8.0 kmh SSW 11.0 mph17.7 kmh 29.43 in996.6 mb 0.00 in0.0 mm 0.00 in0.0 mm 0.02 in0.5 mm
03:21 PM 42.3°F5.7°C 39.6°F4.2°C 90% 6.0 mph SSW9.7 kmh SSW 13.0 mph20.9 kmh 29.43 in996.6 mb 0.00 in0.0 mm 0.00 in0.0 mm 0.02 in0.5 mm
03:22 PM 42.4°F5.8°C 39.7°F4.3°C 90% 6.0 mph SW9.7 kmh SW 13.0 mph20.9 kmh 29.44 in997.0 mb 0.00 in0.0 mm 0.00 in0.0 mm 0.02 in0.5 mm
03:23 PM 42.4°F5.8°C 39.7°F4.3°C 90% 6.0 mph SW9.7 kmh SW 13.0 mph20.9 kmh 29.44 in997.0 mb 0.00 in0.0 mm 0.00 in0.0 mm 0.02 in0.5 mm
03:25 PM 42.4°F5.8°C 39.4°F4.1°C 89% 6.0 mph SW9.7 kmh SW 13.0 mph20.9 kmh 29.44 in997.0 mb 0.00 in0.0 mm 0.00 in0.0 mm 0.02 in0.5 mm
03:26 PM 42.4°F5.8°C 39.4°F4.1°C 89% 6.0 mph SW9.7 kmh SW 13.0 mph20.9 kmh 29.44 in997.0 mb 0.00 in0.0 mm 0.00 in0.0 mm 0.02 in0.5 mm
03:27 PM 42.4°F5.8°C 39.4°F4.1°C 89% 6.0 mph SW9.7 kmh SW 13.0 mph20.9 kmh 29.44 in997.0 mb 0.00 in0.0 mm 0.00 in0.0 mm 0.02 in0.5 mm
03:28 PM 42.4°F5.8°C 39.4°F4.1°C 89% 5.0 mph SW8.0 kmh SW 13.0 mph20.9 kmh 29.44 in997.0 mb 0.00 in0.0 mm 0.00 in0.0 mm 0.02 in0.5 mm
03:29 PM 42.4°F5.8°C 39.4°F4.1°C 89% 5.0 mph SW8.0 kmh SW 13.0 mph20.9 kmh 29.44 in997.0 mb 0.00 in0.0 mm 0.00 in0.0 mm 0.02 in0.5 mm
03:30 PM 42.4°F5.8°C 39.4°F4.1°C 89% 5.0 mph SW8.0 kmh SW 11.0 mph17.7 kmh 29.44 in997.0 mb 0.00 in0.0 mm 0.00 in0.0 mm 0.02 in0.5 mm
03:31 PM 42.4°F5.8°C 39.4°F4.1°C 89% 4.0 mph SW6.4 kmh SW 11.0 mph17.7 kmh 29.44 in997.0 mb 0.00 in0.0 mm 0.00 in0.0 mm 0.02 in0.5 mm
03:33 PM 42.4°F5.8°C 39.1°F3.9°C 88% 4.0 mph WSW6.4 kmh WSW 10.0 mph16.1 kmh 29.44 in997.0 mb 0.00 in0.0 mm 0.00 in0.0 mm 0.02 in0.5 mm
03:34 PM 42.4°F5.8°C 39.1°F3.9°C 88% 4.0 mph WSW6.4 kmh WSW 8.0 mph12.9 kmh 29.44 in997.0 mb 0.00 in0.0 mm 0.00 in0.0 mm 0.02 in0.5 mm
03:36 PM 42.4°F5.8°C 39.1°F3.9°C 88% 3.0 mph WSW4.8 kmh WSW 8.0 mph12.9 kmh 29.44 in997.0 mb 0.00 in0.0 mm 0.00 in0.0 mm 0.02 in0.5 mm
03:37 PM 42.4°F5.8°C 39.1°F3.9°C 88% 3.0 mph SW4.8 kmh SW 8.0 mph12.9 kmh 29.44 in997.0 mb 0.00 in0.0 mm 0.00 in0.0 mm 0.02 in0.5 mm
03:38 PM 42.4°F5.8°C 39.1°F3.9°C 88% 3.0 mph SW4.8 kmh SW 8.0 mph12.9 kmh 29.44 in997.0 mb 0.00 in0.0 mm 0.00 in0.0 mm 0.02 in0.5 mm
03:40 PM 42.4°F5.8°C 39.1°F3.9°C 88% 4.0 mph SW6.4 kmh SW 8.0 mph12.9 kmh 29.44 in997.0 mb 0.00 in0.0 mm 0.00 in0.0 mm 0.02 in0.5 mm
03:41 PM 42.4°F5.8°C 39.1°F3.9°C 88% 3.0 mph SW4.8 kmh SW 8.0 mph12.9 kmh 29.44 in997.0 mb 0.00 in0.0 mm 0.00 in0.0 mm 0.02 in0.5 mm
03:43 PM 42.4°F5.8°C 39.1°F3.9°C 88% 3.0 mph SW4.8 kmh SW 9.0 mph14.5 kmh 29.44 in997.0 mb 0.00 in0.0 mm 0.00 in0.0 mm 0.02 in0.5 mm
03:44 PM 42.4°F5.8°C 39.1°F3.9°C 88% 3.0 mph SW4.8 kmh SW 9.0 mph14.5 kmh 29.44 in997.0 mb 0.00 in0.0 mm 0.00 in0.0 mm 0.02 in0.5 mm
03:46 PM 42.5°F5.8°C 39.2°F4.0°C 88% 3.0 mph SW4.8 kmh SW 9.0 mph14.5 kmh 29.44 in997.0 mb 0.00 in0.0 mm 0.00 in0.0 mm 0.02 in0.5 mm
03:47 PM 42.5°F5.8°C 39.5°F4.2°C 89% 3.0 mph SW4.8 kmh SW 9.0 mph14.5 kmh 29.44 in997.0 mb 0.00 in0.0 mm 0.00 in0.0 mm 0.02 in0.5 mm
03:49 PM 42.5°F5.8°C 39.5°F4.2°C 89% 3.0 mph SW4.8 kmh SW 9.0 mph14.5 kmh 29.44 in997.0 mb 0.00 in0.0 mm 0.00 in0.0 mm 0.02 in0.5 mm
03:50 PM 42.5°F5.8°C 39.5°F4.2°C 89% 3.0 mph SW4.8 kmh SW 9.0 mph14.5 kmh 29.44 in997.0 mb 0.00 in0.0 mm 0.00 in0.0 mm 0.02 in0.5 mm
03:51 PM 42.5°F5.8°C 39.5°F4.2°C 89% 3.0 mph SW4.8 kmh SW 9.0 mph14.5 kmh 29.44 in997.0 mb 0.00 in0.0 mm 0.00 in0.0 mm 0.02 in0.5 mm
03:54 PM 42.4°F5.8°C 39.4°F4.1°C 89% 3.0 mph WSW4.8 kmh WSW 7.0 mph11.3 kmh 29.44 in997.0 mb 0.00 in0.0 mm 0.00 in0.0 mm 0.02 in0.5 mm
03:55 PM 42.4°F5.8°C 39.4°F4.1°C 89% 2.0 mph WSW3.2 kmh WSW 7.0 mph11.3 kmh 29.44 in997.0 mb 0.00 in0.0 mm 0.00 in0.0 mm 0.02 in0.5 mm
03:56 PM 42.4°F5.8°C 39.4°F4.1°C 89% 2.0 mph WSW3.2 kmh WSW 7.0 mph11.3 kmh 29.44 in997.0 mb 0.00 in0.0 mm 0.00 in0.0 mm 0.02 in0.5 mm
03:58 PM 42.4°F5.8°C 39.7°F4.3°C 90% 2.0 mph WSW3.2 kmh WSW 7.0 mph11.3 kmh 29.44 in997.0 mb 0.00 in0.0 mm 0.00 in0.0 mm 0.02 in0.5 mm
03:59 PM 42.4°F5.8°C 39.7°F4.3°C 90% 2.0 mph WSW3.2 kmh WSW 7.0 mph11.3 kmh 29.44 in997.0 mb 0.00 in0.0 mm 0.00 in0.0 mm 0.02 in0.5 mm
04:01 PM 42.4°F5.8°C 39.7°F4.3°C 90% 2.0 mph W3.2 kmh W 5.0 mph8.0 kmh 29.44 in997.0 mb 0.00 in0.0 mm 0.00 in0.0 mm 0.02 in0.5 mm
04:02 PM 42.4°F5.8°C 39.7°F4.3°C 90% 1.0 mph W1.6 kmh W 5.0 mph8.0 kmh 29.44 in997.0 mb 0.00 in0.0 mm 0.00 in0.0 mm 0.02 in0.5 mm
04:03 PM 42.4°F5.8°C 39.7°F4.3°C 90% 1.0 mph W1.6 kmh W 5.0 mph8.0 kmh 29.44 in997.0 mb 0.00 in0.0 mm 0.00 in0.0 mm 0.02 in0.5 mm
04:05 PM 42.4°F5.8°C 39.7°F4.3°C 90% 1.0 mph W1.6 kmh W 5.0 mph8.0 kmh 29.44 in997.0 mb 0.00 in0.0 mm 0.00 in0.0 mm 0.02 in0.5 mm
04:06 PM 42.4°F5.8°C 39.7°F4.3°C 90% 1.0 mph WSW1.6 kmh WSW 5.0 mph8.0 kmh 29.44 in997.0 mb 0.00 in0.0 mm 0.00 in0.0 mm 0.02 in0.5 mm
04:08 PM 42.4°F5.8°C 39.7°F4.3°C 90% 1.0 mph WSW1.6 kmh WSW 4.0 mph6.4 kmh 29.44 in997.0 mb 0.00 in0.0 mm 0.00 in0.0 mm 0.02 in0.5 mm
04:09 PM 42.5°F5.8°C 39.8°F4.3°C 90% 1.0 mph WSW1.6 kmh WSW 4.0 mph6.4 kmh 29.45 in997.3 mb 0.00 in0.0 mm 0.00 in0.0 mm 0.02 in0.5 mm
04:11 PM 42.5°F5.8°C 40.1°F4.5°C 91% 1.0 mph W1.6 kmh W 5.0 mph8.0 kmh 29.45 in997.3 mb 0.00 in0.0 mm 0.00 in0.0 mm 0.02 in0.5 mm
04:12 PM 42.5°F5.8°C 40.1°F4.5°C 91% 1.0 mph W1.6 kmh W 5.0 mph8.0 kmh 29.45 in997.3 mb 0.00 in0.0 mm 0.00 in0.0 mm 0.02 in0.5 mm
04:14 PM 42.5°F5.8°C 40.1°F4.5°C 91% 1.0 mph W1.6 kmh W 5.0 mph8.0 kmh 29.45 in997.3 mb 0.00 in0.0 mm 0.00 in0.0 mm 0.02 in0.5 mm
04:15 PM 42.5°F5.8°C 40.1°F4.5°C 91% 1.0 mph W1.6 kmh W 5.0 mph8.0 kmh 29.45 in997.3 mb 0.00 in0.0 mm 0.00 in0.0 mm 0.02 in0.5 mm
04:17 PM 42.5°F5.8°C 40.1°F4.5°C 91% 1.0 mph W1.6 kmh W 5.0 mph8.0 kmh 29.45 in997.3 mb 0.00 in0.0 mm 0.00 in0.0 mm 0.02 in0.5 mm
04:18 PM 42.5°F5.8°C 40.1°F4.5°C 91% 1.0 mph W1.6 kmh W 5.0 mph8.0 kmh 29.45 in997.3 mb 0.00 in0.0 mm 0.00 in0.0 mm 0.02 in0.5 mm
04:20 PM 42.5°F5.8°C 40.1°F4.5°C 91% 1.0 mph W1.6 kmh W 5.0 mph8.0 kmh 29.45 in997.3 mb 0.00 in0.0 mm 0.00 in0.0 mm 0.02 in0.5 mm
04:21 PM 42.5°F5.8°C 40.1°F4.5°C 91% 1.0 mph WNW1.6 kmh WNW 6.0 mph9.7 kmh 29.45 in997.3 mb 0.00 in0.0 mm 0.00 in0.0 mm 0.02 in0.5 mm
04:23 PM 42.4°F5.8°C 40.0°F4.4°C 91% 2.0 mph WNW3.2 kmh WNW 7.0 mph11.3 kmh 29.46 in997.6 mb 0.00 in0.0 mm 0.00 in0.0 mm 0.02 in0.5 mm
04:24 PM 42.4°F5.8°C 40.0°F4.4°C 91% 2.0 mph WNW3.2 kmh WNW 7.0 mph11.3 kmh 29.46 in997.6 mb 0.00 in0.0 mm 0.00 in0.0 mm 0.02 in0.5 mm
04:26 PM 42.3°F5.7°C 39.9°F4.4°C 91% 3.0 mph WNW4.8 kmh WNW 8.0 mph12.9 kmh 29.45 in997.3 mb 0.00 in0.0 mm 0.00 in0.0 mm 0.02 in0.5 mm
04:27 PM 42.2°F5.7°C 39.8°F4.3°C 91% 3.0 mph WNW4.8 kmh WNW 8.0 mph12.9 kmh 29.45 in997.3 mb 0.00 in0.0 mm 0.00 in0.0 mm 0.02 in0.5 mm
04:29 PM 42.2°F5.7°C 39.8°F4.3°C 91% 3.0 mph WNW4.8 kmh WNW 8.0 mph12.9 kmh 29.46 in997.6 mb 0.00 in0.0 mm 0.00 in0.0 mm 0.02 in0.5 mm
04:31 PM 42.2°F5.7°C 39.8°F4.3°C 91% 3.0 mph WNW4.8 kmh WNW 8.0 mph12.9 kmh 29.46 in997.6 mb 0.00 in0.0 mm 0.00 in0.0 mm 0.02 in0.5 mm
04:32 PM 42.1°F5.6°C 39.7°F4.3°C 91% 3.0 mph WNW4.8 kmh WNW 8.0 mph12.9 kmh 29.46 in997.6 mb 0.00 in0.0 mm 0.00 in0.0 mm 0.02 in0.5 mm
04:34 PM 42.1°F5.6°C 39.9°F4.4°C 92% 3.0 mph WNW4.8 kmh WNW 8.0 mph12.9 kmh 29.46 in997.6 mb 0.00 in0.0 mm 0.00 in0.0 mm 0.02 in0.5 mm
04:35 PM 42.1°F5.6°C 39.9°F4.4°C 92% 3.0 mph WNW4.8 kmh WNW 8.0 mph12.9 kmh 29.46 in997.6 mb 0.00 in0.0 mm 0.00 in0.0 mm 0.02 in0.5 mm
04:37 PM 42.0°F5.6°C 39.8°F4.3°C 92% 3.0 mph WNW4.8 kmh WNW 7.0 mph11.3 kmh 29.46 in997.6 mb 0.00 in0.0 mm 0.00 in0.0 mm 0.02 in0.5 mm
04:38 PM 42.0°F5.6°C 39.8°F4.3°C 92% 3.0 mph WNW4.8 kmh WNW 7.0 mph11.3 kmh 29.47 in998.0 mb 0.00 in0.0 mm 0.00 in0.0 mm 0.02 in0.5 mm
04:40 PM 42.0°F5.6°C 39.8°F4.3°C 92% 3.0 mph WNW4.8 kmh WNW 7.0 mph11.3 kmh 29.47 in998.0 mb 0.00 in0.0 mm 0.00 in0.0 mm 0.02 in0.5 mm
04:41 PM 42.0°F5.6°C 39.8°F4.3°C 92% 3.0 mph WNW4.8 kmh WNW 9.0 mph14.5 kmh 29.47 in998.0 mb 0.00 in0.0 mm 0.00 in0.0 mm 0.02 in0.5 mm
04:43 PM 42.0°F5.6°C 39.8°F4.3°C 92% 3.0 mph WNW4.8 kmh WNW 9.0 mph14.5 kmh 29.47 in998.0 mb 0.00 in0.0 mm 0.00 in0.0 mm 0.02 in0.5 mm
04:44 PM 42.0°F5.6°C 39.8°F4.3°C 92% 3.0 mph WNW4.8 kmh WNW 9.0 mph14.5 kmh 29.47 in998.0 mb 0.00 in0.0 mm 0.00 in0.0 mm 0.02 in0.5 mm
04:46 PM 41.9°F5.5°C 39.7°F4.3°C 92% 3.0 mph WNW4.8 kmh WNW 9.0 mph14.5 kmh 29.47 in998.0 mb 0.00 in0.0 mm 0.00 in0.0 mm 0.02 in0.5 mm
04:47 PM 41.9°F5.5°C 39.7°F4.3°C 92% 3.0 mph WNW4.8 kmh WNW 10.0 mph16.1 kmh 29.47 in998.0 mb 0.00 in0.0 mm 0.00 in0.0 mm 0.02 in0.5 mm
04:48 PM 41.9°F5.5°C 39.7°F4.3°C 92% 3.0 mph WNW4.8 kmh WNW 10.0 mph16.1 kmh 29.47 in998.0 mb 0.00 in0.0 mm 0.00 in0.0 mm 0.02 in0.5 mm
04:49 PM 41.9°F5.5°C 39.7°F4.3°C 92% 4.0 mph WNW6.4 kmh WNW 10.0 mph16.1 kmh 29.47 in998.0 mb 0.00 in0.0 mm 0.00 in0.0 mm 0.02 in0.5 mm
04:51 PM 41.9°F5.5°C 39.7°F4.3°C 92% 4.0 mph WNW6.4 kmh WNW 10.0 mph16.1 kmh 29.48 in998.3 mb 0.00 in0.0 mm 0.00 in0.0 mm 0.02 in0.5 mm
04:52 PM 41.9°F5.5°C 39.7°F4.3°C 92% 4.0 mph WNW6.4 kmh WNW 10.0 mph16.1 kmh 29.48 in998.3 mb 0.00 in0.0 mm 0.00 in0.0 mm 0.02 in0.5 mm
04:54 PM 41.9°F5.5°C 39.7°F4.3°C 92% 4.0 mph WNW6.4 kmh WNW 11.0 mph17.7 kmh 29.48 in998.3 mb 0.00 in0.0 mm 0.00 in0.0 mm 0.02 in0.5 mm
04:55 PM 41.9°F5.5°C 39.7°F4.3°C 92% 4.0 mph WNW6.4 kmh WNW 13.0 mph20.9 kmh 29.48 in998.3 mb 0.00 in0.0 mm 0.00 in0.0 mm 0.02 in0.5 mm
04:57 PM 41.8°F5.4°C 39.9°F4.4°C 93% 5.0 mph WNW8.0 kmh WNW 13.0 mph20.9 kmh 29.48 in998.3 mb 0.00 in0.0 mm 0.00 in0.0 mm 0.02 in0.5 mm
04:58 PM 41.8°F5.4°C 39.9°F4.4°C 93% 5.0 mph WNW8.0 kmh WNW 13.0 mph20.9 kmh 29.48 in998.3 mb 0.00 in0.0 mm 0.00 in0.0 mm 0.02 in0.5 mm
05:00 PM 41.8°F5.4°C 39.9°F4.4°C 93% 5.0 mph WNW8.0 kmh WNW 13.0 mph20.9 kmh 29.48 in998.3 mb 0.00 in0.0 mm 0.00 in0.0 mm 0.02 in0.5 mm
05:01 PM 41.8°F5.4°C 39.9°F4.4°C 93% 5.0 mph WNW8.0 kmh WNW 13.0 mph20.9 kmh 29.48 in998.3 mb 0.00 in0.0 mm 0.00 in0.0 mm 0.02 in0.5 mm
05:03 PM 41.7°F5.4°C 39.8°F4.3°C 93% 4.0 mph WNW6.4 kmh WNW 13.0 mph20.9 kmh 29.48 in998.3 mb 0.00 in0.0 mm 0.00 in0.0 mm 0.02 in0.5 mm
05:04 PM 41.7°F5.4°C 39.8°F4.3°C 93% 4.0 mph WNW6.4 kmh WNW 13.0 mph20.9 kmh 29.48 in998.3 mb 0.00 in0.0 mm 0.00 in0.0 mm 0.02 in0.5 mm
05:06 PM 41.7°F5.4°C 39.8°F4.3°C 93% 3.0 mph WNW4.8 kmh WNW 10.0 mph16.1 kmh 29.49 in998.6 mb 0.00 in0.0 mm 0.00 in0.0 mm 0.02 in0.5 mm
05:07 PM 41.7°F5.4°C 39.8°F4.3°C 93% 3.0 mph WNW4.8 kmh WNW 10.0 mph16.1 kmh 29.48 in998.3 mb 0.00 in0.0 mm 0.00 in0.0 mm 0.02 in0.5 mm
05:08 PM 41.6°F5.3°C 39.7°F4.3°C 93% 3.0 mph WNW4.8 kmh WNW 10.0 mph16.1 kmh 29.49 in998.6 mb 0.00 in0.0 mm 0.00 in0.0 mm 0.02 in0.5 mm
05:10 PM 41.6°F5.3°C 39.7°F4.3°C 93% 3.0 mph WNW4.8 kmh WNW 10.0 mph16.1 kmh 29.49 in998.6 mb 0.00 in0.0 mm 0.00 in0.0 mm 0.02 in0.5 mm
05:11 PM 41.6°F5.3°C 39.7°F4.3°C 93% 3.0 mph WNW4.8 kmh WNW 10.0 mph16.1 kmh 29.49 in998.6 mb 0.00 in0.0 mm 0.00 in0.0 mm 0.02 in0.5 mm
05:12 PM 41.5°F5.3°C 39.6°F4.2°C 93% 4.0 mph WNW6.4 kmh WNW 10.0 mph16.1 kmh 29.49 in998.6 mb 0.00 in0.0 mm 0.00 in0.0 mm 0.02 in0.5 mm
05:14 PM 41.5°F5.3°C 39.6°F4.2°C 93% 4.0 mph WNW6.4 kmh WNW 11.0 mph17.7 kmh 29.49 in998.6 mb 0.00 in0.0 mm 0.00 in0.0 mm 0.02 in0.5 mm
05:15 PM 41.5°F5.3°C 39.6°F4.2°C 93% 4.0 mph WNW6.4 kmh WNW 11.0 mph17.7 kmh 29.49 in998.6 mb 0.00 in0.0 mm 0.00 in0.0 mm 0.02 in0.5 mm
05:16 PM 41.5°F5.3°C 39.6°F4.2°C 93% 4.0 mph NW6.4 kmh NW 11.0 mph17.7 kmh 29.49 in998.6 mb 0.00 in0.0 mm 0.00 in0.0 mm 0.02 in0.5 mm
05:18 PM 41.4°F5.2°C 39.5°F4.2°C 93% 4.0 mph NW6.4 kmh NW 11.0 mph17.7 kmh 29.49 in998.6 mb 0.00 in0.0 mm 0.00 in0.0 mm 0.02 in0.5 mm
05:19 PM 41.4°F5.2°C 39.5°F4.2°C 93% 4.0 mph NW6.4 kmh NW 11.0 mph17.7 kmh 29.49 in998.6 mb 0.00 in0.0 mm 0.00 in0.0 mm 0.02 in0.5 mm
05:21 PM 41.3°F5.2°C 39.4°F4.1°C 93% 4.0 mph NW6.4 kmh NW 13.0 mph20.9 kmh 29.50 in999.0 mb 0.00 in0.0 mm 0.00 in0.0 mm 0.02 in0.5 mm
05:22 PM 41.2°F5.1°C 39.3°F4.1°C 93% 4.0 mph NW6.4 kmh NW 13.0 mph20.9 kmh 29.50 in999.0 mb 0.00 in0.0 mm 0.00 in0.0 mm 0.02 in0.5 mm
05:24 PM 41.1°F5.1°C 39.2°F4.0°C 93% 4.0 mph NW6.4 kmh NW 13.0 mph20.9 kmh 29.50 in999.0 mb 0.00 in0.0 mm 0.00 in0.0 mm 0.02 in0.5 mm
05:25 PM 41.1°F5.1°C 39.2°F4.0°C 93% 4.0 mph NW6.4 kmh NW 13.0 mph20.9 kmh 29.50 in999.0 mb 0.00 in0.0 mm 0.00 in0.0 mm 0.02 in0.5 mm
05:27 PM 41.1°F5.1°C 39.2°F4.0°C 93% 4.0 mph NW6.4 kmh NW 13.0 mph20.9 kmh 29.50 in999.0 mb 0.00 in0.0 mm 0.00 in0.0 mm 0.02 in0.5 mm
05:28 PM 41.0°F5.0°C 39.1°F3.9°C 93% 5.0 mph NW8.0 kmh NW 13.0 mph20.9 kmh 29.50 in999.0 mb 0.00 in0.0 mm 0.00 in0.0 mm 0.02 in0.5 mm
05:30 PM 41.0°F5.0°C 39.1°F3.9°C 93% 5.0 mph NW8.0 kmh NW 12.0 mph19.3 kmh 29.50 in999.0 mb 0.01 in0.3 mm 0.30 in7.6 mm 0.01 in0.3 mm
05:31 PM 40.9°F4.9°C 39.0°F3.9°C 93% 5.0 mph NW8.0 kmh NW 12.0 mph19.3 kmh 29.50 in999.0 mb 0.01 in0.3 mm 0.00 in0.0 mm 0.01 in0.3 mm
05:33 PM 40.8°F4.9°C 38.9°F3.8°C 93% 5.0 mph NW8.0 kmh NW 12.0 mph19.3 kmh 29.50 in999.0 mb 0.01 in0.3 mm 0.00 in0.0 mm 0.01 in0.3 mm
05:34 PM 40.8°F4.9°C 38.9°F3.8°C 93% 5.0 mph NW8.0 kmh NW 12.0 mph19.3 kmh 29.51 in999.3 mb 0.01 in0.3 mm 0.00 in0.0 mm 0.01 in0.3 mm
05:36 PM 40.8°F4.9°C 38.9°F3.8°C 93% 4.0 mph NW6.4 kmh NW 12.0 mph19.3 kmh 29.51 in999.3 mb 0.01 in0.3 mm 0.00 in0.0 mm 0.01 in0.3 mm
05:37 PM 40.7°F4.8°C 38.8°F3.8°C 93% 5.0 mph NW8.0 kmh NW 12.0 mph19.3 kmh 29.51 in999.3 mb 0.01 in0.3 mm 0.00 in0.0 mm 0.01 in0.3 mm
05:39 PM 40.7°F4.8°C 38.8°F3.8°C 93% 5.0 mph NW8.0 kmh NW 12.0 mph19.3 kmh 29.51 in999.3 mb 0.01 in0.3 mm 0.00 in0.0 mm 0.01 in0.3 mm
05:41 PM 40.6°F4.8°C 38.7°F3.7°C 93% 4.0 mph NW6.4 kmh NW 10.0 mph16.1 kmh 29.51 in999.3 mb 0.01 in0.3 mm 0.00 in0.0 mm 0.01 in0.3 mm
05:42 PM 40.6°F4.8°C 38.7°F3.7°C 93% 4.0 mph NW6.4 kmh NW 10.0 mph16.1 kmh 29.51 in999.3 mb 0.01 in0.3 mm 0.00 in0.0 mm 0.01 in0.3 mm
05:44 PM 40.5°F4.7°C 38.4°F3.6°C 92% 4.0 mph NW6.4 kmh NW 10.0 mph16.1 kmh 29.51 in999.3 mb 0.01 in0.3 mm 0.00 in0.0 mm 0.01 in0.3 mm
05:45 PM 40.5°F4.7°C 38.4°F3.6°C 92% 4.0 mph NW6.4 kmh NW 10.0 mph16.1 kmh 29.51 in999.3 mb 0.01 in0.3 mm 0.00 in0.0 mm 0.01 in0.3 mm
05:46 PM 40.5°F4.7°C 38.4°F3.6°C 92% 4.0 mph NW6.4 kmh NW 10.0 mph16.1 kmh 29.52 in999.7 mb 0.01 in0.3 mm 0.00 in0.0 mm 0.01 in0.3 mm
05:48 PM 40.4°F4.7°C 38.3°F3.5°C 92% 4.0 mph NW6.4 kmh NW 11.0 mph17.7 kmh 29.52 in999.7 mb 0.01 in0.3 mm 0.00 in0.0 mm 0.01 in0.3 mm
05:49 PM 40.4°F4.7°C 38.3°F3.5°C 92% 4.0 mph NW6.4 kmh NW 11.0 mph17.7 kmh 29.52 in999.7 mb 0.01 in0.3 mm 0.00 in0.0 mm 0.01 in0.3 mm
05:51 PM 40.4°F4.7°C 38.3°F3.5°C 92% 4.0 mph NW6.4 kmh NW 11.0 mph17.7 kmh 29.52 in999.7 mb 0.01 in0.3 mm 0.00 in0.0 mm 0.01 in0.3 mm
05:52 PM 40.4°F4.7°C 38.3°F3.5°C 92% 4.0 mph NW6.4 kmh NW 11.0 mph17.7 kmh 29.52 in999.7 mb 0.01 in0.3 mm 0.00 in0.0 mm 0.01 in0.3 mm
05:54 PM 40.3°F4.6°C 38.2°F3.4°C 92% 4.0 mph NW6.4 kmh NW 11.0 mph17.7 kmh 29.52 in999.7 mb 0.01 in0.3 mm 0.00 in0.0 mm 0.01 in0.3 mm
05:56 PM 40.3°F4.6°C 38.2°F3.4°C 92% 4.0 mph NW6.4 kmh NW 11.0 mph17.7 kmh 29.52 in999.7 mb 0.01 in0.3 mm 0.00 in0.0 mm 0.01 in0.3 mm
05:57 PM 40.3°F4.6°C 38.2°F3.4°C 92% 4.0 mph NW6.4 kmh NW 10.0 mph16.1 kmh 29.52 in999.7 mb 0.01 in0.3 mm 0.00 in0.0 mm 0.01 in0.3 mm
05:59 PM 40.3°F4.6°C 38.2°F3.4°C 92% 4.0 mph NW6.4 kmh NW 9.0 mph14.5 kmh 29.52 in999.7 mb 0.01 in0.3 mm 0.00 in0.0 mm 0.01 in0.3 mm
06:01 PM 40.2°F4.6°C 38.1°F3.4°C 92% 4.0 mph NW6.4 kmh NW 12.0 mph19.3 kmh 29.53 in1000.0 mb 0.01 in0.3 mm 0.00 in0.0 mm 0.01 in0.3 mm
06:02 PM 40.3°F4.6°C 38.2°F3.4°C 92% 4.0 mph NW6.4 kmh NW 12.0 mph19.3 kmh 29.52 in999.7 mb 0.01 in0.3 mm 0.00 in0.0 mm 0.01 in0.3 mm
06:04 PM 40.2°F4.6°C 38.1°F3.4°C 92% 4.0 mph NW6.4 kmh NW 12.0 mph19.3 kmh 29.53 in1000.0 mb 0.01 in0.3 mm 0.00 in0.0 mm 0.01 in0.3 mm
06:05 PM 40.3°F4.6°C 38.2°F3.4°C 92% 4.0 mph NW6.4 kmh NW 12.0 mph19.3 kmh 29.53 in1000.0 mb 0.01 in0.3 mm 0.00 in0.0 mm 0.01 in0.3 mm
06:07 PM 40.3°F4.6°C 38.2°F3.4°C 92% 3.0 mph NW4.8 kmh NW 12.0 mph19.3 kmh 29.53 in1000.0 mb 0.01 in0.3 mm 0.00 in0.0 mm 0.01 in0.3 mm
06:08 PM 40.2°F4.6°C 38.1°F3.4°C 92% 3.0 mph NW4.8 kmh NW 12.0 mph19.3 kmh 29.53 in1000.0 mb 0.01 in0.3 mm 0.00 in0.0 mm 0.01 in0.3 mm
06:10 PM 40.2°F4.6°C 38.1°F3.4°C 92% 4.0 mph NW6.4 kmh NW 12.0 mph19.3 kmh 29.53 in1000.0 mb 0.01 in0.3 mm 0.00 in0.0 mm 0.01 in0.3 mm
06:11 PM 40.3°F4.6°C 38.2°F3.4°C 92% 4.0 mph NW6.4 kmh NW 12.0 mph19.3 kmh 29.53 in1000.0 mb 0.01 in0.3 mm 0.00 in0.0 mm 0.01 in0.3 mm
06:13 PM 40.2°F4.6°C 38.1°F3.4°C 92% 4.0 mph WNW6.4 kmh WNW 12.0 mph19.3 kmh 29.54 in1000.3 mb 0.01 in0.3 mm 0.00 in0.0 mm 0.01 in0.3 mm
06:14 PM 40.3°F4.6°C 38.2°F3.4°C 92% 4.0 mph WNW6.4 kmh WNW 12.0 mph19.3 kmh 29.54 in1000.3 mb 0.01 in0.3 mm 0.00 in0.0 mm 0.01 in0.3 mm
06:16 PM 40.3°F4.6°C 38.2°F3.4°C 92% 5.0 mph NW8.0 kmh NW 12.0 mph19.3 kmh 29.54 in1000.3 mb 0.01 in0.3 mm 0.00 in0.0 mm 0.01 in0.3 mm
06:17 PM 40.3°F4.6°C 38.2°F3.4°C 92% 5.0 mph NW8.0 kmh NW 12.0 mph19.3 kmh 29.54 in1000.3 mb 0.01 in0.3 mm 0.00 in0.0 mm 0.01 in0.3 mm
06:19 PM 40.3°F4.6°C 38.2°F3.4°C 92% 5.0 mph NW8.0 kmh NW 12.0 mph19.3 kmh 29.54 in1000.3 mb 0.01 in0.3 mm 0.00 in0.0 mm 0.01 in0.3 mm
06:21 PM 40.3°F4.6°C 38.2°F3.4°C 92% 4.0 mph NW6.4 kmh NW 9.0 mph14.5 kmh 29.54 in1000.3 mb 0.01 in0.3 mm 0.00 in0.0 mm 0.01 in0.3 mm
06:22 PM 40.3°F4.6°C 38.2°F3.4°C 92% 4.0 mph NW6.4 kmh NW 9.0 mph14.5 kmh 29.54 in1000.3 mb 0.01 in0.3 mm 0.00 in0.0 mm 0.01 in0.3 mm
06:24 PM 40.3°F4.6°C 38.2°F3.4°C 92% 4.0 mph NW6.4 kmh NW 9.0 mph14.5 kmh 29.55 in1000.7 mb 0.01 in0.3 mm 0.00 in0.0 mm 0.01 in0.3 mm
06:25 PM 40.3°F4.6°C 38.2°F3.4°C 92% 4.0 mph NW6.4 kmh NW 9.0 mph14.5 kmh 29.54 in1000.3 mb 0.01 in0.3 mm 0.00 in0.0 mm 0.01 in0.3 mm
06:27 PM 40.3°F4.6°C 38.2°F3.4°C 92% 4.0 mph NW6.4 kmh NW 8.0 mph12.9 kmh 29.55 in1000.7 mb 0.01 in0.3 mm 0.00 in0.0 mm 0.01 in0.3 mm
06:28 PM 40.3°F4.6°C 38.2°F3.4°C 92% 3.0 mph NW4.8 kmh NW 8.0 mph12.9 kmh 29.55 in1000.7 mb 0.01 in0.3 mm 0.00 in0.0 mm 0.01 in0.3 mm
06:30 PM 40.3°F4.6°C 38.2°F3.4°C 92% 4.0 mph NW6.4 kmh NW 11.0 mph17.7 kmh 29.55 in1000.7 mb 0.00 in0.0 mm 0.00 in0.0 mm 0.01 in0.3 mm
06:31 PM 40.3°F4.6°C 38.2°F3.4°C 92% 4.0 mph NW6.4 kmh NW 11.0 mph17.7 kmh 29.55 in1000.7 mb 0.00 in0.0 mm 0.00 in0.0 mm 0.01 in0.3 mm
06:33 PM 40.3°F4.6°C 38.2°F3.4°C 92% 4.0 mph NW6.4 kmh NW 11.0 mph17.7 kmh 29.55 in1000.7 mb 0.00 in0.0 mm 0.00 in0.0 mm 0.01 in0.3 mm
06:34 PM 40.3°F4.6°C 38.2°F3.4°C 92% 4.0 mph NW6.4 kmh NW 11.0 mph17.7 kmh 29.55 in1000.7 mb 0.00 in0.0 mm 0.00 in0.0 mm 0.01 in0.3 mm
06:36 PM 40.3°F4.6°C 38.2°F3.4°C 92% 3.0 mph NW4.8 kmh NW 11.0 mph17.7 kmh 29.55 in1000.7 mb 0.00 in0.0 mm 0.00 in0.0 mm 0.01 in0.3 mm
06:37 PM 40.3°F4.6°C 38.2°F3.4°C 92% 3.0 mph WNW4.8 kmh WNW 11.0 mph17.7 kmh 29.55 in1000.7 mb 0.00 in0.0 mm 0.00 in0.0 mm 0.01 in0.3 mm
06:39 PM 40.3°F4.6°C 38.2°F3.4°C 92% 3.0 mph WNW4.8 kmh WNW 11.0 mph17.7 kmh 29.55 in1000.7 mb 0.00 in0.0 mm 0.00 in0.0 mm 0.01 in0.3 mm
06:40 PM 40.3°F4.6°C 38.2°F3.4°C 92% 3.0 mph WNW4.8 kmh WNW 11.0 mph17.7 kmh 29.55 in1000.7 mb 0.00 in0.0 mm 0.00 in0.0 mm 0.01 in0.3 mm
06:41 PM 40.3°F4.6°C 38.2°F3.4°C 92% 3.0 mph WNW4.8 kmh WNW 8.0 mph12.9 kmh 29.55 in1000.7 mb 0.00 in0.0 mm 0.00 in0.0 mm 0.01 in0.3 mm
06:43 PM 40.3°F4.6°C 38.2°F3.4°C 92% 3.0 mph WNW4.8 kmh WNW 10.0 mph16.1 kmh 29.56 in1001.0 mb 0.00 in0.0 mm 0.00 in0.0 mm 0.01 in0.3 mm
06:44 PM 40.3°F4.6°C 38.2°F3.4°C 92% 3.0 mph NW4.8 kmh NW 10.0 mph16.1 kmh 29.56 in1001.0 mb 0.00 in0.0 mm 0.00 in0.0 mm 0.01 in0.3 mm
06:46 PM 40.3°F4.6°C 38.2°F3.4°C 92% 3.0 mph NW4.8 kmh NW 11.0 mph17.7 kmh 29.56 in1001.0 mb 0.00 in0.0 mm 0.00 in0.0 mm 0.01 in0.3 mm
06:47 PM 40.3°F4.6°C 38.2°F3.4°C 92% 4.0 mph NW6.4 kmh NW 11.0 mph17.7 kmh 29.56 in1001.0 mb 0.00 in0.0 mm 0.00 in0.0 mm 0.01 in0.3 mm
06:48 PM 40.3°F4.6°C 38.2°F3.4°C 92% 4.0 mph NW6.4 kmh NW 11.0 mph17.7 kmh 29.56 in1001.0 mb 0.00 in0.0 mm 0.00 in0.0 mm 0.01 in0.3 mm
06:49 PM 40.3°F4.6°C 38.2°F3.4°C 92% 4.0 mph NW6.4 kmh NW 11.0 mph17.7 kmh 29.56 in1001.0 mb 0.00 in0.0 mm 0.00 in0.0 mm 0.01 in0.3 mm
06:51 PM 40.2°F4.6°C 38.1°F3.4°C 92% 4.0 mph NW6.4 kmh NW 11.0 mph17.7 kmh 29.56 in1001.0 mb 0.00 in0.0 mm 0.00 in0.0 mm 0.01 in0.3 mm
06:52 PM 40.2°F4.6°C 38.1°F3.4°C 92% 4.0 mph NW6.4 kmh NW 11.0 mph17.7 kmh 29.56 in1001.0 mb 0.00 in0.0 mm 0.00 in0.0 mm 0.01 in0.3 mm
06:54 PM 40.1°F4.5°C 38.0°F3.3°C 92% 4.0 mph NW6.4 kmh NW 12.0 mph19.3 kmh 29.56 in1001.0 mb 0.00 in0.0 mm 0.00 in0.0 mm 0.01 in0.3 mm
06:55 PM 40.1°F4.5°C 37.7°F3.2°C 91% 4.0 mph NW6.4 kmh NW 12.0 mph19.3 kmh 29.57 in1001.4 mb 0.00 in0.0 mm 0.00 in0.0 mm 0.01 in0.3 mm
06:57 PM 40.1°F4.5°C 37.7°F3.2°C 91% 4.0 mph NW6.4 kmh NW 12.0 mph19.3 kmh 29.57 in1001.4 mb 0.00 in0.0 mm 0.00 in0.0 mm 0.01 in0.3 mm
06:58 PM 40.1°F4.5°C 37.7°F3.2°C 91% 4.0 mph NW6.4 kmh NW 12.0 mph19.3 kmh 29.57 in1001.4 mb 0.00 in0.0 mm 0.00 in0.0 mm 0.01 in0.3 mm
06:59 PM 40.0°F4.4°C 37.6°F3.1°C 91% 5.0 mph NW8.0 kmh NW 12.0 mph19.3 kmh 29.57 in1001.4 mb 0.00 in0.0 mm 0.00 in0.0 mm 0.01 in0.3 mm
07:00 PM 40.0°F4.4°C 37.6°F3.1°C 91% 5.0 mph NW8.0 kmh NW 12.0 mph19.3 kmh 29.57 in1001.4 mb 0.00 in0.0 mm 0.00 in0.0 mm 0.01 in0.3 mm
07:01 PM 39.9°F4.4°C 37.5°F3.1°C 91% 5.0 mph NW8.0 kmh NW 12.0 mph19.3 kmh 29.57 in1001.4 mb 0.00 in0.0 mm 0.00 in0.0 mm 0.01 in0.3 mm
07:03 PM 39.9°F4.4°C 37.5°F3.1°C 91% 5.0 mph NW8.0 kmh NW 12.0 mph19.3 kmh 29.57 in1001.4 mb 0.00 in0.0 mm 0.00 in0.0 mm 0.01 in0.3 mm
07:04 PM 39.8°F4.3°C 37.4°F3.0°C 91% 5.0 mph NW8.0 kmh NW 12.0 mph19.3 kmh 29.57 in1001.4 mb 0.00 in0.0 mm 0.00 in0.0 mm 0.01 in0.3 mm
07:05 PM 39.8°F4.3°C 37.4°F3.0°C 91% 5.0 mph NW8.0 kmh NW 12.0 mph19.3 kmh 29.57 in1001.4 mb 0.00 in0.0 mm 0.00 in0.0 mm 0.01 in0.3 mm
07:07 PM 39.7°F4.3°C 37.3°F2.9°C 91% 6.0 mph NW9.7 kmh NW 12.0 mph19.3 kmh 29.58 in1001.7 mb 0.00 in0.0 mm 0.00 in0.0 mm 0.01 in0.3 mm
07:08 PM 39.6°F4.2°C 37.2°F2.9°C 91% 6.0 mph NW9.7 kmh NW 12.0 mph19.3 kmh 29.57 in1001.4 mb 0.00 in0.0 mm 0.00 in0.0 mm 0.01 in0.3 mm
07:10 PM 39.6°F4.2°C 37.2°F2.9°C 91% 6.0 mph NW9.7 kmh NW 14.0 mph22.5 kmh 29.58 in1001.7 mb 0.00 in0.0 mm 0.00 in0.0 mm 0.01 in0.3 mm
07:11 PM 39.5°F4.2°C 37.1°F2.8°C 91% 6.0 mph NW9.7 kmh NW 14.0 mph22.5 kmh 29.58 in1001.7 mb 0.00 in0.0 mm 0.00 in0.0 mm 0.01 in0.3 mm
07:13 PM 39.5°F4.2°C 37.1°F2.8°C 91% 6.0 mph NW9.7 kmh NW 14.0 mph22.5 kmh 29.58 in1001.7 mb 0.00 in0.0 mm 0.00 in0.0 mm 0.01 in0.3 mm
07:14 PM 39.4°F4.1°C 37.0°F2.8°C 91% 6.0 mph NW9.7 kmh NW 14.0 mph22.5 kmh 29.58 in1001.7 mb 0.00 in0.0 mm 0.00 in0.0 mm 0.01 in0.3 mm
07:16 PM 39.4°F4.1°C 37.0°F2.8°C 91% 5.0 mph NW8.0 kmh NW 14.0 mph22.5 kmh 29.59 in1002.0 mb 0.00 in0.0 mm 0.00 in0.0 mm 0.01 in0.3 mm
07:17 PM 39.3°F4.1°C 36.9°F2.7°C 91% 5.0 mph NW8.0 kmh NW 17.0 mph27.4 kmh 29.59 in1002.0 mb 0.00 in0.0 mm 0.00 in0.0 mm 0.01 in0.3 mm
07:19 PM 39.2°F4.0°C 36.5°F2.5°C 90% 6.0 mph NW9.7 kmh NW 17.0 mph27.4 kmh 29.59 in1002.0 mb 0.00 in0.0 mm 0.00 in0.0 mm 0.01 in0.3 mm
07:21 PM 39.2°F4.0°C 36.5°F2.5°C 90% 5.0 mph NW8.0 kmh NW 17.0 mph27.4 kmh 29.59 in1002.0 mb 0.00 in0.0 mm 0.00 in0.0 mm 0.01 in0.3 mm
07:22 PM 39.2°F4.0°C 36.5°F2.5°C 90% 5.0 mph NW8.0 kmh NW 17.0 mph27.4 kmh 29.59 in1002.0 mb 0.00 in0.0 mm 0.00 in0.0 mm 0.01 in0.3 mm
07:23 PM 39.2°F4.0°C 36.5°F2.5°C 90% 5.0 mph NW8.0 kmh NW 17.0 mph27.4 kmh 29.59 in1002.0 mb 0.00 in0.0 mm 0.00 in0.0 mm 0.01 in0.3 mm
07:25 PM 39.1°F3.9°C 36.4°F2.4°C 90% 6.0 mph NW9.7 kmh NW 17.0 mph27.4 kmh 29.59 in1002.0 mb 0.00 in0.0 mm 0.00 in0.0 mm 0.01 in0.3 mm
07:27 PM 39.1°F3.9°C 36.4°F2.4°C 90% 6.0 mph NW9.7 kmh NW 16.0 mph25.7 kmh 29.59 in1002.0 mb 0.00 in0.0 mm 0.00 in0.0 mm 0.01 in0.3 mm
07:28 PM 39.1°F3.9°C 36.4°F2.4°C 90% 5.0 mph NW8.0 kmh NW 16.0 mph25.7 kmh 29.59 in1002.0 mb 0.00 in0.0 mm 0.00 in0.0 mm 0.01 in0.3 mm
07:29 PM 39.0°F3.9°C 36.0°F2.2°C 89% 5.0 mph NW8.0 kmh NW 16.0 mph25.7 kmh 29.59 in1002.0 mb 0.00 in0.0 mm 0.00 in0.0 mm 0.01 in0.3 mm
07:30 PM 39.0°F3.9°C 36.0°F2.2°C 89% 5.0 mph NW8.0 kmh NW 16.0 mph25.7 kmh 29.59 in1002.0 mb 0.00 in0.0 mm 0.00 in0.0 mm 0.01 in0.3 mm
07:31 PM 39.0°F3.9°C 36.0°F2.2°C 89% 5.0 mph NW8.0 kmh NW 16.0 mph25.7 kmh 29.59 in1002.0 mb 0.00 in0.0 mm 0.00 in0.0 mm 0.01 in0.3 mm
07:32 PM 38.9°F3.8°C 35.9°F2.2°C 89% 5.0 mph NW8.0 kmh NW 16.0 mph25.7 kmh 29.59 in1002.0 mb 0.00 in0.0 mm 0.00 in0.0 mm 0.01 in0.3 mm
07:33 PM 39.0°F3.9°C 36.0°F2.2°C 89% 5.0 mph NW8.0 kmh NW 16.0 mph25.7 kmh 29.59 in1002.0 mb 0.00 in0.0 mm 0.00 in0.0 mm 0.01 in0.3 mm
07:34 PM 38.9°F3.8°C 35.9°F2.2°C 89% 5.0 mph NNW8.0 kmh NNW 16.0 mph25.7 kmh 29.59 in1002.0 mb 0.00 in0.0 mm 0.00 in0.0 mm 0.01 in0.3 mm
07:36 PM 38.9°F3.8°C 35.9°F2.2°C 89% 5.0 mph NW8.0 kmh NW 15.0 mph24.1 kmh 29.60 in1002.4 mb 0.00 in0.0 mm 0.00 in0.0 mm 0.01 in0.3 mm
07:37 PM 38.9°F3.8°C 35.9°F2.2°C 89% 5.0 mph NW8.0 kmh NW 15.0 mph24.1 kmh 29.60 in1002.4 mb 0.00 in0.0 mm 0.00 in0.0 mm 0.01 in0.3 mm
07:39 PM 38.9°F3.8°C 35.9°F2.2°C 89% 5.0 mph NW8.0 kmh NW 15.0 mph24.1 kmh 29.60 in1002.4 mb 0.00 in0.0 mm 0.00 in0.0 mm 0.01 in0.3 mm
07:40 PM 38.9°F3.8°C 35.9°F2.2°C 89% 5.0 mph NW8.0 kmh NW 15.0 mph24.1 kmh 29.60 in1002.4 mb 0.00 in0.0 mm 0.00 in0.0 mm 0.01 in0.3 mm
07:41 PM 38.9°F3.8°C 35.9°F2.2°C 89% 5.0 mph NW8.0 kmh NW 15.0 mph24.1 kmh 29.60 in1002.4 mb 0.00 in0.0 mm 0.00 in0.0 mm 0.01 in0.3 mm
07:43 PM 38.9°F3.8°C 35.6°F2.0°C 88% 5.0 mph NW8.0 kmh NW 15.0 mph24.1 kmh 29.60 in1002.4 mb 0.00 in0.0 mm 0.00 in0.0 mm 0.01 in0.3 mm
07:44 PM 38.9°F3.8°C 35.6°F2.0°C 88% 5.0 mph NW8.0 kmh NW 14.0 mph22.5 kmh 29.60 in1002.4 mb 0.00 in0.0 mm 0.00 in0.0 mm 0.01 in0.3 mm
07:46 PM 38.9°F3.8°C 35.6°F2.0°C 88% 5.0 mph NNW8.0 kmh NNW 14.0 mph22.5 kmh 29.60 in1002.4 mb 0.00 in0.0 mm 0.00 in0.0 mm 0.01 in0.3 mm
07:47 PM 38.9°F3.8°C 35.6°F2.0°C 88% 5.0 mph NNW8.0 kmh NNW 14.0 mph22.5 kmh 29.60 in1002.4 mb 0.00 in0.0 mm 0.00 in0.0 mm 0.01 in0.3 mm
07:48 PM 38.9°F3.8°C 35.6°F2.0°C 88% 4.0 mph NNW6.4 kmh NNW 14.0 mph22.5 kmh 29.60 in1002.4 mb 0.00 in0.0 mm 0.00 in0.0 mm 0.01 in0.3 mm
07:50 PM 38.9°F3.8°C 35.6°F2.0°C 88% 5.0 mph NW8.0 kmh NW 18.0 mph29.0 kmh 29.60 in1002.4 mb 0.00 in0.0 mm 0.00 in0.0 mm 0.01 in0.3 mm
07:51 PM 38.9°F3.8°C 35.6°F2.0°C 88% 5.0 mph NW8.0 kmh NW 18.0 mph29.0 kmh 29.61 in1002.7 mb 0.00 in0.0 mm 0.00 in0.0 mm 0.01 in0.3 mm
07:53 PM 38.9°F3.8°C 35.4°F1.9°C 87% 6.0 mph NW9.7 kmh NW 18.0 mph29.0 kmh 29.61 in1002.7 mb 0.00 in0.0 mm 0.00 in0.0 mm 0.01 in0.3 mm
07:54 PM 38.9°F3.8°C 35.4°F1.9°C 87% 6.0 mph NW9.7 kmh NW 18.0 mph29.0 kmh 29.61 in1002.7 mb 0.00 in0.0 mm 0.00 in0.0 mm 0.01 in0.3 mm
07:56 PM 38.9°F3.8°C 35.4°F1.9°C 87% 6.0 mph NW9.7 kmh NW 18.0 mph29.0 kmh 29.61 in1002.7 mb 0.00 in0.0 mm 0.00 in0.0 mm 0.01 in0.3 mm
07:57 PM 38.9°F3.8°C 35.4°F1.9°C 87% 6.0 mph NW9.7 kmh NW 18.0 mph29.0 kmh 29.61 in1002.7 mb 0.00 in0.0 mm 0.00 in0.0 mm 0.01 in0.3 mm
07:59 PM 38.9°F3.8°C 35.4°F1.9°C 87% 6.0 mph NW9.7 kmh NW 16.0 mph25.7 kmh 29.61 in1002.7 mb 0.00 in0.0 mm 0.00 in0.0 mm 0.01 in0.3 mm
08:00 PM 38.9°F3.8°C 35.4°F1.9°C 87% 6.0 mph NW9.7 kmh NW 16.0 mph25.7 kmh 29.61 in1002.7 mb 0.00 in0.0 mm 0.00 in0.0 mm 0.01 in0.3 mm
08:01 PM 38.9°F3.8°C 35.4°F1.9°C 87% 6.0 mph NW9.7 kmh NW 16.0 mph25.7 kmh 29.61 in1002.7 mb 0.00 in0.0 mm 0.00 in0.0 mm 0.01 in0.3 mm
08:02 PM 38.9°F3.8°C 35.4°F1.9°C 87% 6.0 mph NW9.7 kmh NW 16.0 mph25.7 kmh 29.61 in1002.7 mb 0.00 in0.0 mm 0.00 in0.0 mm 0.01 in0.3 mm
08:03 PM 38.8°F3.8°C 35.3°F1.8°C 87% 6.0 mph NW9.7 kmh NW 16.0 mph25.7 kmh 29.61 in1002.7 mb 0.00 in0.0 mm 0.00 in0.0 mm 0.01 in0.3 mm
08:05 PM 38.9°F3.8°C 35.4°F1.9°C 87% 5.0 mph NW8.0 kmh NW 14.0 mph22.5 kmh 29.62 in1003.0 mb 0.00 in0.0 mm 0.00 in0.0 mm 0.01 in0.3 mm
08:06 PM 38.8°F3.8°C 35.0°F1.7°C 86% 5.0 mph NW8.0 kmh NW 14.0 mph22.5 kmh 29.62 in1003.0 mb 0.00 in0.0 mm 0.00 in0.0 mm 0.01 in0.3 mm
08:08 PM 38.8°F3.8°C 35.0°F1.7°C 86% 6.0 mph NW9.7 kmh NW 14.0 mph22.5 kmh 29.62 in1003.0 mb 0.00 in0.0 mm 0.00 in0.0 mm 0.01 in0.3 mm
08:09 PM 38.8°F3.8°C 35.0°F1.7°C 86% 6.0 mph NW9.7 kmh NW 15.0 mph24.1 kmh 29.62 in1003.0 mb 0.00 in0.0 mm 0.00 in0.0 mm 0.01 in0.3 mm
08:11 PM 38.9°F3.8°C 35.1°F1.7°C 86% 6.0 mph NW9.7 kmh NW 18.0 mph29.0 kmh 29.62 in1003.0 mb 0.00 in0.0 mm 0.00 in0.0 mm 0.01 in0.3 mm
08:12 PM 38.9°F3.8°C 35.1°F1.7°C 86% 6.0 mph NW9.7 kmh NW 18.0 mph29.0 kmh 29.62 in1003.0 mb 0.00 in0.0 mm 0.00 in0.0 mm 0.01 in0.3 mm
08:14 PM 38.9°F3.8°C 35.1°F1.7°C 86% 5.0 mph NNW8.0 kmh NNW 18.0 mph29.0 kmh 29.62 in1003.0 mb 0.00 in0.0 mm 0.00 in0.0 mm 0.01 in0.3 mm
08:15 PM 38.9°F3.8°C 35.1°F1.7°C 86% 6.0 mph NNW9.7 kmh NNW 18.0 mph29.0 kmh 29.62 in1003.0 mb 0.00 in0.0 mm 0.00 in0.0 mm 0.01 in0.3 mm
08:16 PM 38.8°F3.8°C 35.0°F1.7°C 86% 6.0 mph NNW9.7 kmh NNW 18.0 mph29.0 kmh 29.62 in1003.0 mb 0.00 in0.0 mm 0.00 in0.0 mm 0.01 in0.3 mm
08:17 PM 38.8°F3.8°C 35.0°F1.7°C 86% 5.0 mph NNW8.0 kmh NNW 18.0 mph29.0 kmh 29.62 in1003.0 mb 0.00 in0.0 mm 0.00 in0.0 mm 0.01 in0.3 mm
08:18 PM 38.9°F3.8°C 35.1°F1.7°C 86% 6.0 mph NNW9.7 kmh NNW 18.0 mph29.0 kmh 29.62 in1003.0 mb 0.00 in0.0 mm 0.00 in0.0 mm 0.01 in0.3 mm
08:19 PM 38.9°F3.8°C 35.1°F1.7°C 86% 5.0 mph N8.0 kmh N 18.0 mph29.0 kmh 29.62 in1003.0 mb 0.00 in0.0 mm 0.00 in0.0 mm 0.01 in0.3 mm
08:20 PM 38.9°F3.8°C 35.1°F1.7°C 86% 5.0 mph N8.0 kmh N 18.0 mph29.0 kmh 29.63 in1003.4 mb 0.00 in0.0 mm 0.00 in0.0 mm 0.01 in0.3 mm
08:21 PM 38.9°F3.8°C 35.1°F1.7°C 86% 5.0 mph N8.0 kmh N 13.0 mph20.9 kmh 29.63 in1003.4 mb 0.00 in0.0 mm 0.00 in0.0 mm 0.01 in0.3 mm
08:23 PM 38.9°F3.8°C 34.8°F1.6°C 85% 5.0 mph N8.0 kmh N 13.0 mph20.9 kmh 29.63 in1003.4 mb 0.00 in0.0 mm 0.00 in0.0 mm 0.01 in0.3 mm
08:24 PM 38.9°F3.8°C 35.1°F1.7°C 86% 5.0 mph N8.0 kmh N 13.0 mph20.9 kmh 29.63 in1003.4 mb 0.00 in0.0 mm 0.00 in0.0 mm 0.01 in0.3 mm
08:26 PM 38.9°F3.8°C 34.8°F1.6°C 85% 5.0 mph NNW8.0 kmh NNW 14.0 mph22.5 kmh 29.63 in1003.4 mb 0.00 in0.0 mm 0.00 in0.0 mm 0.01 in0.3 mm
08:27 PM 38.9°F3.8°C 34.8°F1.6°C 85% 6.0 mph NNW9.7 kmh NNW 14.0 mph22.5 kmh 29.63 in1003.4 mb 0.00 in0.0 mm 0.00 in0.0 mm 0.01 in0.3 mm
08:28 PM 38.9°F3.8°C 34.8°F1.6°C 85% 5.0 mph NNW8.0 kmh NNW 14.0 mph22.5 kmh 29.63 in1003.4 mb 0.00 in0.0 mm 0.00 in0.0 mm 0.01 in0.3 mm
08:30 PM 38.9°F3.8°C 34.8°F1.6°C 85% 5.0 mph NNW8.0 kmh NNW 14.0 mph22.5 kmh 29.63 in1003.4 mb 0.00 in0.0 mm 0.00 in0.0 mm 0.01 in0.3 mm
08:31 PM 38.9°F3.8°C 34.8°F1.6°C 85% 5.0 mph NNW8.0 kmh NNW 14.0 mph22.5 kmh 29.63 in1003.4 mb 0.00 in0.0 mm 0.00 in0.0 mm 0.01 in0.3 mm
08:33 PM 38.9°F3.8°C 34.8°F1.6°C 85% 5.0 mph NNW8.0 kmh NNW 14.0 mph22.5 kmh 29.63 in1003.4 mb 0.00 in0.0 mm 0.00 in0.0 mm 0.01 in0.3 mm
08:34 PM 38.9°F3.8°C 34.8°F1.6°C 85% 5.0 mph NNW8.0 kmh NNW 14.0 mph22.5 kmh 29.63 in1003.4 mb 0.00 in0.0 mm 0.00 in0.0 mm 0.01 in0.3 mm
08:35 PM 38.9°F3.8°C 34.8°F1.6°C 85% 5.0 mph NNW8.0 kmh NNW 14.0 mph22.5 kmh 29.63 in1003.4 mb 0.00 in0.0 mm 0.00 in0.0 mm 0.01 in0.3 mm
08:36 PM 38.9°F3.8°C 34.8°F1.6°C 85% 5.0 mph NNW8.0 kmh NNW 14.0 mph22.5 kmh 29.63 in1003.4 mb 0.00 in0.0 mm 0.00 in0.0 mm 0.01 in0.3 mm
08:37 PM 38.9°F3.8°C 34.8°F1.6°C 85% 5.0 mph N8.0 kmh N 14.0 mph22.5 kmh 29.63 in1003.4 mb 0.00 in0.0 mm 0.00 in0.0 mm 0.01 in0.3 mm
08:39 PM 38.8°F3.8°C 34.7°F1.5°C 85% 5.0 mph N8.0 kmh N 14.0 mph22.5 kmh 29.63 in1003.4 mb 0.00 in0.0 mm 0.00 in0.0 mm 0.01 in0.3 mm
08:40 PM 38.9°F3.8°C 34.8°F1.6°C 85% 5.0 mph N8.0 kmh N 14.0 mph22.5 kmh 29.63 in1003.4 mb 0.00 in0.0 mm 0.00 in0.0 mm 0.01 in0.3 mm
08:41 PM 38.9°F3.8°C 34.8°F1.6°C 85% 5.0 mph N8.0 kmh N 14.0 mph22.5 kmh 29.64 in1003.7 mb 0.00 in0.0 mm 0.00 in0.0 mm 0.01 in0.3 mm
08:43 PM 38.9°F3.8°C 34.8°F1.6°C 85% 5.0 mph N8.0 kmh N 12.0 mph19.3 kmh 29.64 in1003.7 mb 0.00 in0.0 mm 0.00 in0.0 mm 0.01 in0.3 mm
08:44 PM 38.9°F3.8°C 34.8°F1.6°C 85% 5.0 mph NNW8.0 kmh NNW 12.0 mph19.3 kmh 29.64 in1003.7 mb 0.00 in0.0 mm 0.00 in0.0 mm 0.01 in0.3 mm
08:45 PM 38.8°F3.8°C 34.7°F1.5°C 85% 5.0 mph N8.0 kmh N 18.0 mph29.0 kmh 29.64 in1003.7 mb 0.00 in0.0 mm 0.00 in0.0 mm 0.01 in0.3 mm
08:46 PM 38.9°F3.8°C 34.8°F1.6°C 85% 6.0 mph N9.7 kmh N 18.0 mph29.0 kmh 29.64 in1003.7 mb 0.00 in0.0 mm 0.00 in0.0 mm 0.01 in0.3 mm
08:48 PM 38.9°F3.8°C 34.8°F1.6°C 85% 6.0 mph N9.7 kmh N 18.0 mph29.0 kmh 29.64 in1003.7 mb 0.00 in0.0 mm 0.00 in0.0 mm 0.01 in0.3 mm
08:50 PM 38.9°F3.8°C 34.8°F1.6°C 85% 6.0 mph N9.7 kmh N 18.0 mph29.0 kmh 29.64 in1003.7 mb 0.00 in0.0 mm 0.00 in0.0 mm 0.01 in0.3 mm
08:51 PM 38.9°F3.8°C 34.8°F1.6°C 85% 6.0 mph N9.7 kmh N 18.0 mph29.0 kmh 29.64 in1003.7 mb 0.00 in0.0 mm 0.00 in0.0 mm 0.01 in0.3 mm
08:53 PM 38.9°F3.8°C 34.5°F1.4°C 84% 6.0 mph NNW9.7 kmh NNW 18.0 mph29.0 kmh 29.64 in1003.7 mb 0.00 in0.0 mm 0.00 in0.0 mm 0.01 in0.3 mm
08:54 PM 38.9°F3.8°C 34.5°F1.4°C 84% 6.0 mph NNW9.7 kmh NNW 18.0 mph29.0 kmh 29.64 in1003.7 mb 0.00 in0.0 mm 0.00 in0.0 mm 0.01 in0.3 mm
08:56 PM 38.9°F3.8°C 34.8°F1.6°C 85% 6.0 mph NNW9.7 kmh NNW 16.0 mph25.7 kmh 29.64 in1003.7 mb 0.00 in0.0 mm 0.00 in0.0 mm 0.01 in0.3 mm
08:57 PM 38.9°F3.8°C 34.8°F1.6°C 85% 5.0 mph NNW8.0 kmh NNW 16.0 mph25.7 kmh 29.64 in1003.7 mb 0.00 in0.0 mm 0.00 in0.0 mm 0.01 in0.3 mm
08:58 PM 38.9°F3.8°C 34.8°F1.6°C 85% 5.0 mph NNW8.0 kmh NNW 16.0 mph25.7 kmh 29.64 in1003.7 mb 0.00 in0.0 mm 0.00 in0.0 mm 0.01 in0.3 mm
09:00 PM 38.9°F3.8°C 34.8°F1.6°C 85% 5.0 mph NNW8.0 kmh NNW 16.0 mph25.7 kmh 29.64 in1003.7 mb 0.00 in0.0 mm 0.00 in0.0 mm 0.01 in0.3 mm
09:01 PM 38.9°F3.8°C 34.8°F1.6°C 85% 6.0 mph N9.7 kmh N 16.0 mph25.7 kmh 29.65 in1004.1 mb 0.00 in0.0 mm 0.00 in0.0 mm 0.01 in0.3 mm
09:03 PM 38.9°F3.8°C 34.8°F1.6°C 85% 5.0 mph N8.0 kmh N 18.0 mph29.0 kmh 29.65 in1004.1 mb 0.00 in0.0 mm 0.00 in0.0 mm 0.01 in0.3 mm
09:04 PM 38.9°F3.8°C 34.5°F1.4°C 84% 5.0 mph N8.0 kmh N 18.0 mph29.0 kmh 29.65 in1004.1 mb 0.00 in0.0 mm 0.00 in0.0 mm 0.01 in0.3 mm
09:06 PM 38.9°F3.8°C 34.5°F1.4°C 84% 5.0 mph N8.0 kmh N 18.0 mph29.0 kmh 29.65 in1004.1 mb 0.00 in0.0 mm 0.00 in0.0 mm 0.01 in0.3 mm
09:07 PM 38.9°F3.8°C 34.5°F1.4°C 84% 5.0 mph N8.0 kmh N 18.0 mph29.0 kmh 29.65 in1004.1 mb 0.00 in0.0 mm 0.00 in0.0 mm 0.01 in0.3 mm
09:09 PM 38.9°F3.8°C 34.5°F1.4°C 84% 6.0 mph N9.7 kmh N 18.0 mph29.0 kmh 29.65 in1004.1 mb 0.00 in0.0 mm 0.00 in0.0 mm 0.01 in0.3 mm
09:11 PM 38.9°F3.8°C 34.5°F1.4°C 84% 6.0 mph N9.7 kmh N 18.0 mph29.0 kmh 29.65 in1004.1 mb 0.00 in0.0 mm 0.00 in0.0 mm 0.01 in0.3 mm
09:12 PM 38.9°F3.8°C 34.5°F1.4°C 84% 6.0 mph N9.7 kmh N 16.0 mph25.7 kmh 29.65 in1004.1 mb 0.00 in0.0 mm 0.00 in0.0 mm 0.01 in0.3 mm
09:14 PM 38.9°F3.8°C 34.5°F1.4°C 84% 6.0 mph N9.7 kmh N 16.0 mph25.7 kmh 29.65 in1004.1 mb 0.00 in0.0 mm 0.00 in0.0 mm 0.01 in0.3 mm
09:15 PM 38.9°F3.8°C 34.5°F1.4°C 84% 5.0 mph N8.0 kmh N 16.0 mph25.7 kmh 29.65 in1004.1 mb 0.00 in0.0 mm 0.00 in0.0 mm 0.01 in0.3 mm
09:17 PM 38.9°F3.8°C 34.5°F1.4°C 84% 5.0 mph N8.0 kmh N 15.0 mph24.1 kmh 29.65 in1004.1 mb 0.00 in0.0 mm 0.00 in0.0 mm 0.01 in0.3 mm
09:18 PM 38.9°F3.8°C 34.5°F1.4°C 84% 6.0 mph N9.7 kmh N 15.0 mph24.1 kmh 29.65 in1004.1 mb 0.00 in0.0 mm 0.00 in0.0 mm 0.01 in0.3 mm
09:20 PM 38.9°F3.8°C 34.5°F1.4°C 84% 5.0 mph N8.0 kmh N 15.0 mph24.1 kmh 29.65 in1004.1 mb 0.00 in0.0 mm 0.00 in0.0 mm 0.01 in0.3 mm
09:21 PM 38.9°F3.8°C 34.5°F1.4°C 84% 5.0 mph N8.0 kmh N 15.0 mph24.1 kmh 29.65 in1004.1 mb 0.00 in0.0 mm 0.00 in0.0 mm 0.01 in0.3 mm
09:23 PM 38.9°F3.8°C 34.5°F1.4°C 84% 6.0 mph N9.7 kmh N 14.0 mph22.5 kmh 29.66 in1004.4 mb 0.00 in0.0 mm 0.00 in0.0 mm 0.01 in0.3 mm
09:24 PM 38.9°F3.8°C 34.5°F1.4°C 84% 6.0 mph N9.7 kmh N 14.0 mph22.5 kmh 29.66 in1004.4 mb 0.00 in0.0 mm 0.00 in0.0 mm 0.01 in0.3 mm
09:26 PM 38.9°F3.8°C 34.5°F1.4°C 84% 6.0 mph N9.7 kmh N 14.0 mph22.5 kmh 29.66 in1004.4 mb 0.00 in0.0 mm 0.00 in0.0 mm 0.01 in0.3 mm
09:27 PM 38.9°F3.8°C 34.5°F1.4°C 84% 6.0 mph N9.7 kmh N 14.0 mph22.5 kmh 29.66 in1004.4 mb 0.00 in0.0 mm 0.00 in0.0 mm 0.01 in0.3 mm
09:29 PM 38.9°F3.8°C 34.5°F1.4°C 84% 6.0 mph N9.7 kmh N 14.0 mph22.5 kmh 29.66 in1004.4 mb 0.00 in0.0 mm 0.00 in0.0 mm 0.01 in0.3 mm
09:30 PM 38.9°F3.8°C 34.5°F1.4°C 84% 6.0 mph N9.7 kmh N 16.0 mph25.7 kmh 29.66 in1004.4 mb 0.00 in0.0 mm 0.00 in0.0 mm 0.01 in0.3 mm
09:32 PM 38.9°F3.8°C 34.5°F1.4°C 84% 6.0 mph N9.7 kmh N 16.0 mph25.7 kmh 29.66 in1004.4 mb 0.00 in0.0 mm 0.00 in0.0 mm 0.01 in0.3 mm
09:33 PM 38.9°F3.8°C 34.5°F1.4°C 84% 6.0 mph N9.7 kmh N 16.0 mph25.7 kmh 29.66 in1004.4 mb 0.00 in0.0 mm 0.00 in0.0 mm 0.01 in0.3 mm
09:35 PM 38.9°F3.8°C 34.5°F1.4°C 84% 6.0 mph N9.7 kmh N 16.0 mph25.7 kmh 29.66 in1004.4 mb 0.00 in0.0 mm 0.00 in0.0 mm 0.01 in0.3 mm
09:36 PM 38.8°F3.8°C 34.4°F1.3°C 84% 6.0 mph N9.7 kmh N 16.0 mph25.7 kmh 29.66 in1004.4 mb 0.00 in0.0 mm 0.00 in0.0 mm 0.01 in0.3 mm
09:38 PM 38.8°F3.8°C 34.4°F1.3°C 84% 6.0 mph N9.7 kmh N 16.0 mph25.7 kmh 29.66 in1004.4 mb 0.00 in0.0 mm 0.00 in0.0 mm 0.01 in0.3 mm
09:39 PM 38.8°F3.8°C 34.4°F1.3°C 84% 6.0 mph N9.7 kmh N 16.0 mph25.7 kmh 29.66 in1004.4 mb 0.00 in0.0 mm 0.00 in0.0 mm 0.01 in0.3 mm
09:41 PM 38.8°F3.8°C 34.4°F1.3°C 84% 6.0 mph N9.7 kmh N 16.0 mph25.7 kmh 29.66 in1004.4 mb 0.00 in0.0 mm 0.00 in0.0 mm 0.01 in0.3 mm
09:42 PM 38.8°F3.8°C 34.4°F1.3°C 84% 6.0 mph N9.7 kmh N 16.0 mph25.7 kmh 29.66 in1004.4 mb 0.00 in0.0 mm 0.00 in0.0 mm 0.01 in0.3 mm
09:44 PM 38.8°F3.8°C 34.4°F1.3°C 84% 6.0 mph N9.7 kmh N 16.0 mph25.7 kmh 29.66 in1004.4 mb 0.00 in0.0 mm 0.00 in0.0 mm 0.01 in0.3 mm
09:45 PM 38.8°F3.8°C 34.4°F1.3°C 84% 6.0 mph N9.7 kmh N 16.0 mph25.7 kmh 29.66 in1004.4 mb 0.00 in0.0 mm 0.00 in0.0 mm 0.01 in0.3 mm
09:47 PM 38.7°F3.7°C 34.3°F1.3°C 84% 6.0 mph N9.7 kmh N 14.0 mph22.5 kmh 29.66 in1004.4 mb 0.00 in0.0 mm 0.00 in0.0 mm 0.01 in0.3 mm
09:49 PM 38.7°F3.7°C 34.3°F1.3°C 84% 6.0 mph N9.7 kmh N 14.0 mph22.5 kmh 29.66 in1004.4 mb 0.00 in0.0 mm 0.00 in0.0 mm 0.01 in0.3 mm
09:50 PM 38.7°F3.7°C 34.3°F1.3°C 84% 6.0 mph N9.7 kmh N 14.0 mph22.5 kmh 29.66 in1004.4 mb 0.00 in0.0 mm 0.00 in0.0 mm 0.01 in0.3 mm
09:51 PM 38.7°F3.7°C 34.3°F1.3°C 84% 6.0 mph N9.7 kmh N 14.0 mph22.5 kmh 29.66 in1004.4 mb 0.00 in0.0 mm 0.00 in0.0 mm 0.01 in0.3 mm
09:53 PM 38.7°F3.7°C 34.3°F1.3°C 84% 6.0 mph N9.7 kmh N 16.0 mph25.7 kmh 29.66 in1004.4 mb 0.00 in0.0 mm 0.00 in0.0 mm 0.01 in0.3 mm
09:54 PM 38.7°F3.7°C 34.3°F1.3°C 84% 6.0 mph N9.7 kmh N 16.0 mph25.7 kmh 29.66 in1004.4 mb 0.00 in0.0 mm 0.00 in0.0 mm 0.01 in0.3 mm
09:56 PM 38.6°F3.7°C 34.2°F1.2°C 84% 5.0 mph N8.0 kmh N 16.0 mph25.7 kmh 29.66 in1004.4 mb 0.00 in0.0 mm 0.00 in0.0 mm 0.01 in0.3 mm
09:57 PM 38.6°F3.7°C 34.2°F1.2°C 84% 5.0 mph N8.0 kmh N 16.0 mph25.7 kmh 29.67 in1004.7 mb 0.00 in0.0 mm 0.00 in0.0 mm 0.01 in0.3 mm
09:58 PM 38.7°F3.7°C 34.3°F1.3°C 84% 5.0 mph N8.0 kmh N 16.0 mph25.7 kmh 29.67 in1004.7 mb 0.00 in0.0 mm 0.00 in0.0 mm 0.01 in0.3 mm
10:00 PM 38.7°F3.7°C 34.3°F1.3°C 84% 5.0 mph N8.0 kmh N 16.0 mph25.7 kmh 29.67 in1004.7 mb 0.00 in0.0 mm 0.00 in0.0 mm 0.01 in0.3 mm
10:01 PM 38.6°F3.7°C 34.2°F1.2°C 84% 6.0 mph N9.7 kmh N 16.0 mph25.7 kmh 29.67 in1004.7 mb 0.00 in0.0 mm 0.00 in0.0 mm 0.01 in0.3 mm
10:03 PM 38.7°F3.7°C 34.3°F1.3°C 84% 6.0 mph N9.7 kmh N 14.0 mph22.5 kmh 29.67 in1004.7 mb 0.00 in0.0 mm 0.00 in0.0 mm 0.01 in0.3 mm
10:04 PM 38.7°F3.7°C 34.3°F1.3°C 84% 6.0 mph N9.7 kmh N 14.0 mph22.5 kmh 29.67 in1004.7 mb 0.00 in0.0 mm 0.00 in0.0 mm 0.01 in0.3 mm
10:05 PM 38.6°F3.7°C 34.2°F1.2°C 84% 6.0 mph N9.7 kmh N 14.0 mph22.5 kmh 29.67 in1004.7 mb 0.00 in0.0 mm 0.00 in0.0 mm 0.01 in0.3 mm
10:07 PM 38.6°F3.7°C 34.2°F1.2°C 84% 5.0 mph N8.0 kmh N 14.0 mph22.5 kmh 29.67 in1004.7 mb 0.00 in0.0 mm 0.00 in0.0 mm 0.01 in0.3 mm
10:08 PM 38.6°F3.7°C 34.2°F1.2°C 84% 5.0 mph N8.0 kmh N 14.0 mph22.5 kmh 29.67 in1004.7 mb 0.00 in0.0 mm 0.00 in0.0 mm 0.01 in0.3 mm
10:10 PM 38.6°F3.7°C 34.2°F1.2°C 84% 5.0 mph N8.0 kmh N 14.0 mph22.5 kmh 29.67 in1004.7 mb 0.00 in0.0 mm 0.00 in0.0 mm 0.01 in0.3 mm
10:11 PM 38.6°F3.7°C 34.2°F1.2°C 84% 5.0 mph N8.0 kmh N 14.0 mph22.5 kmh 29.67 in1004.7 mb 0.00 in0.0 mm 0.00 in0.0 mm 0.01 in0.3 mm
10:12 PM 38.6°F3.7°C 34.2°F1.2°C 84% 5.0 mph N8.0 kmh N 14.0 mph22.5 kmh 29.67 in1004.7 mb 0.00 in0.0 mm 0.00 in0.0 mm 0.01 in0.3 mm
10:14 PM 38.6°F3.7°C 34.2°F1.2°C 84% 5.0 mph N8.0 kmh N 14.0 mph22.5 kmh 29.67 in1004.7 mb 0.00 in0.0 mm 0.00 in0.0 mm 0.01 in0.3 mm
10:15 PM 38.6°F3.7°C 34.2°F1.2°C 84% 5.0 mph NNE8.0 kmh NNE 14.0 mph22.5 kmh 29.67 in1004.7 mb 0.00 in0.0 mm 0.00 in0.0 mm 0.01 in0.3 mm
10:17 PM 38.6°F3.7°C 34.2°F1.2°C 84% 5.0 mph NNE8.0 kmh NNE 13.0 mph20.9 kmh 29.67 in1004.7 mb 0.00 in0.0 mm 0.00 in0.0 mm 0.01 in0.3 mm
10:18 PM 38.6°F3.7°C 34.2°F1.2°C 84% 5.0 mph NNE8.0 kmh NNE 13.0 mph20.9 kmh 29.67 in1004.7 mb 0.00 in0.0 mm 0.00 in0.0 mm 0.01 in0.3 mm
10:19 PM 38.6°F3.7°C 34.2°F1.2°C 84% 5.0 mph NNE8.0 kmh NNE 13.0 mph20.9 kmh 29.67 in1004.7 mb 0.00 in0.0 mm 0.00 in0.0 mm 0.01 in0.3 mm
10:21 PM 38.6°F3.7°C 34.2°F1.2°C 84% 5.0 mph NNE8.0 kmh NNE 13.0 mph20.9 kmh 29.67 in1004.7 mb 0.00 in0.0 mm 0.00 in0.0 mm 0.01 in0.3 mm
10:22 PM 38.6°F3.7°C 34.2°F1.2°C 84% 5.0 mph NNE8.0 kmh NNE 13.0 mph20.9 kmh 29.67 in1004.7 mb 0.00 in0.0 mm 0.00 in0.0 mm 0.01 in0.3 mm
10:23 PM 38.6°F3.7°C 34.2°F1.2°C 84% 6.0 mph NNE9.7 kmh NNE 13.0 mph20.9 kmh 29.67 in1004.7 mb 0.00 in0.0 mm 0.00 in0.0 mm 0.01 in0.3 mm
10:24 PM 38.6°F3.7°C 34.2°F1.2°C 84% 6.0 mph NNE9.7 kmh NNE 13.0 mph20.9 kmh 29.67 in1004.7 mb 0.00 in0.0 mm 0.00 in0.0 mm 0.01 in0.3 mm
10:25 PM 38.5°F3.6°C 34.1°F1.2°C 84% 6.0 mph NNE9.7 kmh NNE 13.0 mph20.9 kmh 29.67 in1004.7 mb 0.00 in0.0 mm 0.00 in0.0 mm 0.01 in0.3 mm
10:27 PM 38.6°F3.7°C 34.2°F1.2°C 84% 6.0 mph NNE9.7 kmh NNE 13.0 mph20.9 kmh 29.67 in1004.7 mb 0.00 in0.0 mm 0.00 in0.0 mm 0.01 in0.3 mm
10:28 PM 38.6°F3.7°C 34.2°F1.2°C 84% 6.0 mph NNE9.7 kmh NNE 13.0 mph20.9 kmh 29.68 in1005.1 mb 0.00 in0.0 mm 0.00 in0.0 mm 0.01 in0.3 mm
10:30 PM 38.5°F3.6°C 34.1°F1.2°C 84% 6.0 mph NNE9.7 kmh NNE 12.0 mph19.3 kmh 29.68 in1005.1 mb 0.00 in0.0 mm 0.00 in0.0 mm 0.01 in0.3 mm
10:31 PM 38.6°F3.7°C 34.2°F1.2°C 84% 5.0 mph NNE8.0 kmh NNE 12.0 mph19.3 kmh 29.68 in1005.1 mb 0.00 in0.0 mm 0.00 in0.0 mm 0.01 in0.3 mm
10:32 PM 38.6°F3.7°C 34.2°F1.2°C 84% 5.0 mph NNE8.0 kmh NNE 12.0 mph19.3 kmh 29.68 in1005.1 mb 0.00 in0.0 mm 0.00 in0.0 mm 0.01 in0.3 mm
10:34 PM 38.6°F3.7°C 34.2°F1.2°C 84% 5.0 mph NNE8.0 kmh NNE 12.0 mph19.3 kmh 29.68 in1005.1 mb 0.00 in0.0 mm 0.00 in0.0 mm 0.01 in0.3 mm
10:35 PM 38.5°F3.6°C 34.1°F1.2°C 84% 4.0 mph NNE6.4 kmh NNE 12.0 mph19.3 kmh 29.68 in1005.1 mb 0.00 in0.0 mm 0.00 in0.0 mm 0.01 in0.3 mm
10:37 PM 38.5°F3.6°C 34.1°F1.2°C 84% 4.0 mph NNE6.4 kmh NNE 12.0 mph19.3 kmh 29.68 in1005.1 mb 0.00 in0.0 mm 0.00 in0.0 mm 0.01 in0.3 mm
10:38 PM 38.5°F3.6°C 34.1°F1.2°C 84% 3.0 mph NNE4.8 kmh NNE 12.0 mph19.3 kmh 29.68 in1005.1 mb 0.00 in0.0 mm 0.00 in0.0 mm 0.01 in0.3 mm
10:40 PM 38.5°F3.6°C 34.1°F1.2°C 84% 2.0 mph N3.2 kmh N 10.0 mph16.1 kmh 29.68 in1005.1 mb 0.00 in0.0 mm 0.00 in0.0 mm 0.01 in0.3 mm
10:41 PM 38.5°F3.6°C 34.1°F1.2°C 84% 2.0 mph NNW3.2 kmh NNW 10.0 mph16.1 kmh 29.69 in1005.4 mb 0.00 in0.0 mm 0.00 in0.0 mm 0.01 in0.3 mm
10:42 PM 38.5°F3.6°C 34.1°F1.2°C 84% 2.0 mph NNW3.2 kmh NNW 10.0 mph16.1 kmh 29.69 in1005.4 mb 0.00 in0.0 mm 0.00 in0.0 mm 0.01 in0.3 mm
10:43 PM 38.5°F3.6°C 34.1°F1.2°C 84% 2.0 mph NNW3.2 kmh NNW 7.0 mph11.3 kmh 29.69 in1005.4 mb 0.00 in0.0 mm 0.00 in0.0 mm 0.01 in0.3 mm
10:45 PM 38.5°F3.6°C 34.1°F1.2°C 84% 2.0 mph N3.2 kmh N 7.0 mph11.3 kmh 29.69 in1005.4 mb 0.00 in0.0 mm 0.00 in0.0 mm 0.01 in0.3 mm
10:46 PM 38.5°F3.6°C 34.1°F1.2°C 84% 2.0 mph NNW3.2 kmh NNW 7.0 mph11.3 kmh 29.69 in1005.4 mb 0.00 in0.0 mm 0.00 in0.0 mm 0.01 in0.3 mm
10:48 PM 38.5°F3.6°C 34.1°F1.2°C 84% 2.0 mph NNW3.2 kmh NNW 7.0 mph11.3 kmh 29.69 in1005.4 mb 0.00 in0.0 mm 0.00 in0.0 mm 0.01 in0.3 mm
10:49 PM 38.5°F3.6°C 34.1°F1.2°C 84% 2.0 mph NNW3.2 kmh NNW 7.0 mph11.3 kmh 29.69 in1005.4 mb 0.00 in0.0 mm 0.00 in0.0 mm 0.01 in0.3 mm
10:51 PM 38.5°F3.6°C 34.1°F1.2°C 84% 2.0 mph N3.2 kmh N 7.0 mph11.3 kmh 29.70 in1005.8 mb 0.00 in0.0 mm 0.00 in0.0 mm 0.01 in0.3 mm
10:52 PM 38.5°F3.6°C 34.1°F1.2°C 84% 2.0 mph N3.2 kmh N 7.0 mph11.3 kmh 29.70 in1005.8 mb 0.00 in0.0 mm 0.00 in0.0 mm 0.01 in0.3 mm
10:54 PM 38.5°F3.6°C 34.1°F1.2°C 84% 1.0 mph NNW1.6 kmh NNW 5.0 mph8.0 kmh 29.70 in1005.8 mb 0.00 in0.0 mm 0.00 in0.0 mm 0.01 in0.3 mm
10:55 PM 38.5°F3.6°C 34.1°F1.2°C 84% 1.0 mph NNW1.6 kmh NNW 5.0 mph8.0 kmh 29.70 in1005.8 mb 0.00 in0.0 mm 0.00 in0.0 mm 0.01 in0.3 mm
10:56 PM 38.5°F3.6°C 34.1°F1.2°C 84% 1.0 mph NNW1.6 kmh NNW 5.0 mph8.0 kmh 29.70 in1005.8 mb 0.00 in0.0 mm 0.00 in0.0 mm 0.01 in0.3 mm
10:57 PM 38.5°F3.6°C 34.1°F1.2°C 84% 1.0 mph NW1.6 kmh NW 5.0 mph8.0 kmh 29.70 in1005.8 mb 0.00 in0.0 mm 0.00 in0.0 mm 0.01 in0.3 mm
10:58 PM 38.5°F3.6°C 34.4°F1.3°C 85% 1.0 mph NW1.6 kmh NW 6.0 mph9.7 kmh 29.70 in1005.8 mb 0.00 in0.0 mm 0.00 in0.0 mm 0.01 in0.3 mm
11:00 PM 38.4°F3.6°C 34.0°F1.1°C 84% 1.0 mph NW1.6 kmh NW 6.0 mph9.7 kmh 29.70 in1005.8 mb 0.00 in0.0 mm 0.00 in0.0 mm 0.01 in0.3 mm
11:01 PM 38.5°F3.6°C 34.4°F1.3°C 85% 1.0 mph NW1.6 kmh NW 6.0 mph9.7 kmh 29.70 in1005.8 mb 0.00 in0.0 mm 0.00 in0.0 mm 0.01 in0.3 mm
11:03 PM 38.4°F3.6°C 34.0°F1.1°C 84% 2.0 mph NW3.2 kmh NW 6.0 mph9.7 kmh 29.70 in1005.8 mb 0.00 in0.0 mm 0.00 in0.0 mm 0.01 in0.3 mm
11:04 PM 38.4°F3.6°C 34.0°F1.1°C 84% 2.0 mph NW3.2 kmh NW 6.0 mph9.7 kmh 29.70 in1005.8 mb 0.00 in0.0 mm 0.00 in0.0 mm 0.01 in0.3 mm
11:05 PM 38.4°F3.6°C 34.0°F1.1°C 84% 2.0 mph NW3.2 kmh NW 6.0 mph9.7 kmh 29.70 in1005.8 mb 0.00 in0.0 mm 0.00 in0.0 mm 0.01 in0.3 mm
11:06 PM 38.4°F3.6°C 34.0°F1.1°C 84% 2.0 mph NW3.2 kmh NW 6.0 mph9.7 kmh 29.70 in1005.8 mb 0.00 in0.0 mm 0.00 in0.0 mm 0.01 in0.3 mm
11:07 PM 38.4°F3.6°C 34.0°F1.1°C 84% 2.0 mph NW3.2 kmh NW 6.0 mph9.7 kmh 29.70 in1005.8 mb 0.00 in0.0 mm 0.00 in0.0 mm 0.01 in0.3 mm
11:08 PM 38.4°F3.6°C 34.0°F1.1°C 84% 2.0 mph NW3.2 kmh NW 6.0 mph9.7 kmh 29.70 in1005.8 mb 0.00 in0.0 mm 0.00 in0.0 mm 0.01 in0.3 mm
11:09 PM 38.4°F3.6°C 34.0°F1.1°C 84% 2.0 mph NW3.2 kmh NW 6.0 mph9.7 kmh 29.70 in1005.8 mb 0.00 in0.0 mm 0.00 in0.0 mm 0.01 in0.3 mm
11:11 PM 38.4°F3.6°C 34.0°F1.1°C 84% 2.0 mph NW3.2 kmh NW 6.0 mph9.7 kmh 29.70 in1005.8 mb 0.00 in0.0 mm 0.00 in0.0 mm 0.01 in0.3 mm
11:12 PM 38.4°F3.6°C 34.0°F1.1°C 84% 2.0 mph NW3.2 kmh NW 6.0 mph9.7 kmh 29.70 in1005.8 mb 0.00 in0.0 mm 0.00 in0.0 mm 0.01 in0.3 mm
11:14 PM 38.4°F3.6°C 34.0°F1.1°C 84% 2.0 mph NW3.2 kmh NW 8.0 mph12.9 kmh 29.70 in1005.8 mb 0.00 in0.0 mm 0.00 in0.0 mm 0.01 in0.3 mm
11:15 PM 38.4°F3.6°C 34.0°F1.1°C 84% 2.0 mph NW3.2 kmh NW 8.0 mph12.9 kmh 29.70 in1005.8 mb 0.00 in0.0 mm 0.00 in0.0 mm 0.01 in0.3 mm
11:17 PM 38.4°F3.6°C 34.0°F1.1°C 84% 2.0 mph NW3.2 kmh NW 8.0 mph12.9 kmh 29.70 in1005.8 mb 0.00 in0.0 mm 0.00 in0.0 mm 0.01 in0.3 mm
11:18 PM 38.4°F3.6°C 34.0°F1.1°C 84% 2.0 mph NW3.2 kmh NW 8.0 mph12.9 kmh 29.70 in1005.8 mb 0.00 in0.0 mm 0.00 in0.0 mm 0.01 in0.3 mm
11:20 PM 38.4°F3.6°C 34.0°F1.1°C 84% 3.0 mph NNW4.8 kmh NNW 8.0 mph12.9 kmh 29.71 in1006.1 mb 0.00 in0.0 mm 0.00 in0.0 mm 0.01 in0.3 mm
11:21 PM 38.4°F3.6°C 34.0°F1.1°C 84% 2.0 mph NNW3.2 kmh NNW 8.0 mph12.9 kmh 29.71 in1006.1 mb 0.00 in0.0 mm 0.00 in0.0 mm 0.01 in0.3 mm
11:23 PM 38.3°F3.5°C 33.9°F1.1°C 84% 3.0 mph NNW4.8 kmh NNW 7.0 mph11.3 kmh 29.71 in1006.1 mb 0.00 in0.0 mm 0.00 in0.0 mm 0.01 in0.3 mm
11:24 PM 38.4°F3.6°C 34.0°F1.1°C 84% 2.0 mph NNW3.2 kmh NNW 7.0 mph11.3 kmh 29.71 in1006.1 mb 0.00 in0.0 mm 0.00 in0.0 mm 0.01 in0.3 mm
11:25 PM 38.4°F3.6°C 34.0°F1.1°C 84% 2.0 mph NW3.2 kmh NW 7.0 mph11.3 kmh 29.71 in1006.1 mb 0.00 in0.0 mm 0.00 in0.0 mm 0.01 in0.3 mm
11:26 PM 38.4°F3.6°C 34.0°F1.1°C 84% 2.0 mph NW3.2 kmh NW 7.0 mph11.3 kmh 29.71 in1006.1 mb 0.00 in0.0 mm 0.00 in0.0 mm 0.01 in0.3 mm
11:28 PM 38.4°F3.6°C 34.0°F1.1°C 84% 2.0 mph NW3.2 kmh NW 9.0 mph14.5 kmh 29.71 in1006.1 mb 0.00 in0.0 mm 0.00 in0.0 mm 0.01 in0.3 mm
11:29 PM 38.4°F3.6°C 34.0°F1.1°C 84% 2.0 mph NW3.2 kmh NW 9.0 mph14.5 kmh 29.71 in1006.1 mb 0.00 in0.0 mm 0.00 in0.0 mm 0.01 in0.3 mm
11:31 PM 38.4°F3.6°C 34.0°F1.1°C 84% 2.0 mph NW3.2 kmh NW 9.0 mph14.5 kmh 29.72 in1006.4 mb 0.00 in0.0 mm 0.00 in0.0 mm 0.01 in0.3 mm
11:32 PM 38.4°F3.6°C 34.0°F1.1°C 84% 2.0 mph NW3.2 kmh NW 9.0 mph14.5 kmh 29.72 in1006.4 mb 0.00 in0.0 mm 0.00 in0.0 mm 0.01 in0.3 mm
11:34 PM 38.4°F3.6°C 34.0°F1.1°C 84% 2.0 mph NW3.2 kmh NW 9.0 mph14.5 kmh 29.72 in1006.4 mb 0.00 in0.0 mm 0.00 in0.0 mm 0.01 in0.3 mm
11:35 PM 38.4°F3.6°C 34.0°F1.1°C 84% 2.0 mph NW3.2 kmh NW 9.0 mph14.5 kmh 29.72 in1006.4 mb 0.00 in0.0 mm 0.00 in0.0 mm 0.01 in0.3 mm
11:36 PM 38.4°F3.6°C 34.0°F1.1°C 84% 2.0 mph NW3.2 kmh NW 9.0 mph14.5 kmh 29.72 in1006.4 mb 0.00 in0.0 mm 0.00 in0.0 mm 0.01 in0.3 mm
11:38 PM 38.4°F3.6°C 34.0°F1.1°C 84% 2.0 mph NW3.2 kmh NW 7.0 mph11.3 kmh 29.72 in1006.4 mb 0.00 in0.0 mm 0.00 in0.0 mm 0.01 in0.3 mm
11:39 PM 38.4°F3.6°C 34.0°F1.1°C 84% 2.0 mph NW3.2 kmh NW 7.0 mph11.3 kmh 29.72 in1006.4 mb 0.00 in0.0 mm 0.00 in0.0 mm 0.01 in0.3 mm
11:41 PM 38.5°F3.6°C 34.1°F1.2°C 84% 2.0 mph NW3.2 kmh NW 7.0 mph11.3 kmh 29.72 in1006.4 mb 0.00 in0.0 mm 0.00 in0.0 mm 0.01 in0.3 mm
11:42 PM 38.4°F3.6°C 34.0°F1.1°C 84% 2.0 mph NW3.2 kmh NW 7.0 mph11.3 kmh 29.72 in1006.4 mb 0.00 in0.0 mm 0.00 in0.0 mm 0.01 in0.3 mm
11:43 PM 38.4°F3.6°C 33.7°F0.9°C 83% 2.0 mph NW3.2 kmh NW 7.0 mph11.3 kmh 29.72 in1006.4 mb 0.00 in0.0 mm 0.00 in0.0 mm 0.01 in0.3 mm
11:44 PM 38.5°F3.6°C 33.8°F1.0°C 83% 2.0 mph NW3.2 kmh NW 7.0 mph11.3 kmh 29.72 in1006.4 mb 0.00 in0.0 mm 0.00 in0.0 mm 0.01 in0.3 mm
11:46 PM 38.5°F3.6°C 34.1°F1.2°C 84% 3.0 mph NW4.8 kmh NW 7.0 mph11.3 kmh 29.72 in1006.4 mb 0.00 in0.0 mm 0.00 in0.0 mm 0.01 in0.3 mm
11:47 PM 38.5°F3.6°C 34.1°F1.2°C 84% 2.0 mph WNW3.2 kmh WNW 7.0 mph11.3 kmh 29.72 in1006.4 mb 0.00 in0.0 mm 0.00 in0.0 mm 0.01 in0.3 mm
11:49 PM 38.5°F3.6°C 34.1°F1.2°C 84% 2.0 mph WNW3.2 kmh WNW 7.0 mph11.3 kmh 29.72 in1006.4 mb 0.00 in0.0 mm 0.00 in0.0 mm 0.01 in0.3 mm
11:51 PM 38.5°F3.6°C 34.1°F1.2°C 84% 2.0 mph WNW3.2 kmh WNW 7.0 mph11.3 kmh 29.72 in1006.4 mb 0.00 in0.0 mm 0.00 in0.0 mm 0.01 in0.3 mm
11:52 PM 38.5°F3.6°C 34.1°F1.2°C 84% 2.0 mph NW3.2 kmh NW 7.0 mph11.3 kmh 29.72 in1006.4 mb 0.00 in0.0 mm 0.00 in0.0 mm 0.01 in0.3 mm
11:54 PM 38.5°F3.6°C 33.8°F1.0°C 83% 2.0 mph WNW3.2 kmh WNW 6.0 mph9.7 kmh 29.72 in1006.4 mb 0.00 in0.0 mm 0.00 in0.0 mm 0.01 in0.3 mm
11:55 PM 38.5°F3.6°C 34.1°F1.2°C 84% 1.0 mph NW1.6 kmh NW 6.0 mph9.7 kmh 29.72 in1006.4 mb 0.00 in0.0 mm 0.00 in0.0 mm 0.01 in0.3 mm
11:57 PM 38.4°F3.6°C 34.0°F1.1°C 84% 2.0 mph NW3.2 kmh NW 6.0 mph9.7 kmh 29.72 in1006.4 mb 0.00 in0.0 mm 0.00 in0.0 mm 0.01 in0.3 mm
11:58 PM 38.4°F3.6°C 34.0°F1.1°C 84% 2.0 mph NW3.2 kmh NW 7.0 mph11.3 kmh 29.72 in1006.4 mb 0.00 in0.0 mm 0.00 in0.0 mm 0.01 in0.3 mm